<?xml version="1.0" encoding="UTF-8" standalone="no" ?>
<gpx xmlns="http://www.topografix.com/GPX/1/1" xmlns:xsi="http://www.w3.org/2001/XMLSchema-instance" xsi:schemaLocation="http://www.topografix.com/GPX/1/1 http://www.topografix.com/GPX/1/1/gpx.xsd" version="1.1" creator="VisuGPX - https://www.visugpx.com">
  <metadata>
    <name>La boucle de Montmarte PR le sanglier</name>
    <desc><![CDATA[PR au départ place de l'église de Vault de Lugny suivre le cd 142 sur 100 mètres, au lavoir continuer tout droit sur le chemin empierré poursuivre à travers les bois jusqu'à la cabane de chasse. prendre à gauche le GR 13 qui monte sur 800 mètres . Variante possibilité d'accéder au sommet de la butte par un aller et retour (points de vue uniques sur l'Avallonnais. suivre le balisage à l'éffigie d'un sanglier.]]></desc>
  </metadata>
  <trk>
    <name><![CDATA[circuit du Montmarte]]></name>
    <extensions>
      <line xmlns="http://www.topografix.com/GPX/gpx_style/0/2">
        <color>0000FF</color>
        <width>4</width>
      </line>
    </extensions>
    <trkseg>
      <trkpt lat="47.4985" lon="3.84826">
        <ele>146</ele>
      </trkpt>
      <trkpt lat="47.49849" lon="3.8482">
        <ele>146</ele>
      </trkpt>
      <trkpt lat="47.49845" lon="3.8482">
        <ele>146</ele>
      </trkpt>
      <trkpt lat="47.49836" lon="3.84819">
        <ele>146</ele>
      </trkpt>
      <trkpt lat="47.49826" lon="3.84818">
        <ele>146</ele>
      </trkpt>
      <trkpt lat="47.49815" lon="3.84818">
        <ele>146</ele>
      </trkpt>
      <trkpt lat="47.49807" lon="3.8482">
        <ele>146</ele>
      </trkpt>
      <trkpt lat="47.49806" lon="3.84814">
        <ele>146</ele>
      </trkpt>
      <trkpt lat="47.49803" lon="3.84809">
        <ele>146</ele>
      </trkpt>
      <trkpt lat="47.49796" lon="3.84802">
        <ele>146</ele>
      </trkpt>
      <trkpt lat="47.49791" lon="3.84798">
        <ele>146</ele>
      </trkpt>
      <trkpt lat="47.49785" lon="3.84796">
        <ele>146</ele>
      </trkpt>
      <trkpt lat="47.4978" lon="3.84795">
        <ele>146</ele>
      </trkpt>
      <trkpt lat="47.49771" lon="3.84795">
        <ele>146</ele>
      </trkpt>
      <trkpt lat="47.49767" lon="3.84795">
        <ele>147</ele>
      </trkpt>
      <trkpt lat="47.49766" lon="3.84792">
        <ele>147</ele>
      </trkpt>
      <trkpt lat="47.49766" lon="3.84782">
        <ele>147</ele>
      </trkpt>
      <trkpt lat="47.49765" lon="3.84767">
        <ele>147</ele>
      </trkpt>
      <trkpt lat="47.49764" lon="3.84756">
        <ele>147</ele>
      </trkpt>
      <trkpt lat="47.49763" lon="3.84735">
        <ele>148</ele>
      </trkpt>
      <trkpt lat="47.49762" lon="3.8472">
        <ele>148</ele>
      </trkpt>
      <trkpt lat="47.4976" lon="3.84703">
        <ele>148</ele>
      </trkpt>
      <trkpt lat="47.49758" lon="3.84681">
        <ele>149</ele>
      </trkpt>
      <trkpt lat="47.49752" lon="3.84638">
        <ele>150</ele>
      </trkpt>
      <trkpt lat="47.49754" lon="3.84617">
        <ele>150</ele>
      </trkpt>
      <trkpt lat="47.49749" lon="3.84614">
        <ele>151</ele>
      </trkpt>
      <trkpt lat="47.49748" lon="3.84605">
        <ele>151</ele>
      </trkpt>
      <trkpt lat="47.49746" lon="3.84602">
        <ele>147</ele>
        <time>2021-11-05T08:29:30.000Z</time>
      </trkpt>
      <trkpt lat="47.49743" lon="3.84602">
        <ele>147</ele>
        <time>2021-11-05T08:29:54.000Z</time>
      </trkpt>
      <trkpt lat="47.49744" lon="3.84601">
        <ele>147</ele>
        <time>2021-11-05T08:30:14.000Z</time>
      </trkpt>
      <trkpt lat="47.49745" lon="3.846">
        <ele>147</ele>
        <time>2021-11-05T08:30:30.000Z</time>
      </trkpt>
      <trkpt lat="47.49745" lon="3.84599">
        <ele>147</ele>
        <time>2021-11-05T08:30:47.000Z</time>
      </trkpt>
      <trkpt lat="47.49746" lon="3.846">
        <ele>147</ele>
        <time>2021-11-05T08:31:05.000Z</time>
      </trkpt>
      <trkpt lat="47.49746" lon="3.84591">
        <ele>149</ele>
        <time>2021-11-05T08:31:14.000Z</time>
      </trkpt>
      <trkpt lat="47.49745" lon="3.84589">
        <ele>145</ele>
        <time>2021-11-05T08:31:16.000Z</time>
      </trkpt>
      <trkpt lat="47.49746" lon="3.84588">
        <ele>149</ele>
        <time>2021-11-05T08:31:17.000Z</time>
      </trkpt>
      <trkpt lat="47.49744" lon="3.84568">
        <ele>148</ele>
        <time>2021-11-05T08:31:30.000Z</time>
      </trkpt>
      <trkpt lat="47.49741" lon="3.84537">
        <ele>148</ele>
        <time>2021-11-05T08:31:45.000Z</time>
      </trkpt>
      <trkpt lat="47.49742" lon="3.8451">
        <ele>149</ele>
        <time>2021-11-05T08:32:02.000Z</time>
      </trkpt>
      <trkpt lat="47.49744" lon="3.84488">
        <ele>150</ele>
        <time>2021-11-05T08:32:17.000Z</time>
      </trkpt>
      <trkpt lat="47.49747" lon="3.84471">
        <ele>150</ele>
        <time>2021-11-05T08:32:31.000Z</time>
      </trkpt>
      <trkpt lat="47.49756" lon="3.84457">
        <ele>151</ele>
        <time>2021-11-05T08:32:44.000Z</time>
      </trkpt>
      <trkpt lat="47.49759" lon="3.84451">
        <ele>152</ele>
        <time>2021-11-05T08:32:58.000Z</time>
      </trkpt>
      <trkpt lat="47.49762" lon="3.84446">
        <ele>152</ele>
        <time>2021-11-05T08:33:03.000Z</time>
      </trkpt>
      <trkpt lat="47.49777" lon="3.84426">
        <ele>153</ele>
        <time>2021-11-05T08:33:20.000Z</time>
      </trkpt>
      <trkpt lat="47.49785" lon="3.84408">
        <ele>153</ele>
        <time>2021-11-05T08:33:32.000Z</time>
      </trkpt>
      <trkpt lat="47.49794" lon="3.84383">
        <ele>155</ele>
        <time>2021-11-05T08:33:48.000Z</time>
      </trkpt>
      <trkpt lat="47.49799" lon="3.84354">
        <ele>156</ele>
        <time>2021-11-05T08:34:05.000Z</time>
      </trkpt>
      <trkpt lat="47.49799" lon="3.84323">
        <ele>158</ele>
        <time>2021-11-05T08:34:22.000Z</time>
      </trkpt>
      <trkpt lat="47.49806" lon="3.84306">
        <ele>159</ele>
        <time>2021-11-05T08:34:38.000Z</time>
      </trkpt>
      <trkpt lat="47.49814" lon="3.84285">
        <ele>161</ele>
        <time>2021-11-05T08:34:53.000Z</time>
      </trkpt>
      <trkpt lat="47.49815" lon="3.84275">
        <ele>162</ele>
        <time>2021-11-05T08:35:05.000Z</time>
      </trkpt>
      <trkpt lat="47.4982" lon="3.84267">
        <ele>162</ele>
        <time>2021-11-05T08:35:21.000Z</time>
      </trkpt>
      <trkpt lat="47.49825" lon="3.84253">
        <ele>163</ele>
        <time>2021-11-05T08:35:33.000Z</time>
      </trkpt>
      <trkpt lat="47.49824" lon="3.84235">
        <ele>164</ele>
        <time>2021-11-05T08:35:46.000Z</time>
      </trkpt>
      <trkpt lat="47.49829" lon="3.84222">
        <ele>165</ele>
        <time>2021-11-05T08:36:00.000Z</time>
      </trkpt>
      <trkpt lat="47.49831" lon="3.84203">
        <ele>166</ele>
        <time>2021-11-05T08:36:14.000Z</time>
      </trkpt>
      <trkpt lat="47.49833" lon="3.84172">
        <ele>172</ele>
        <time>2021-11-05T08:36:32.000Z</time>
      </trkpt>
      <trkpt lat="47.49834" lon="3.8417">
        <ele>169</ele>
        <time>2021-11-05T08:36:33.000Z</time>
      </trkpt>
      <trkpt lat="47.49833" lon="3.84165">
        <ele>169</ele>
        <time>2021-11-05T08:36:46.000Z</time>
      </trkpt>
      <trkpt lat="47.49835" lon="3.84162">
        <ele>170</ele>
        <time>2021-11-05T08:36:57.000Z</time>
      </trkpt>
      <trkpt lat="47.49835" lon="3.84153">
        <ele>172</ele>
        <time>2021-11-05T08:37:11.000Z</time>
      </trkpt>
      <trkpt lat="47.49835" lon="3.84148">
        <ele>172</ele>
        <time>2021-11-05T08:37:26.000Z</time>
      </trkpt>
      <trkpt lat="47.49836" lon="3.84145">
        <ele>173</ele>
        <time>2021-11-05T08:37:37.000Z</time>
      </trkpt>
      <trkpt lat="47.49834" lon="3.84119">
        <ele>174</ele>
        <time>2021-11-05T08:37:53.000Z</time>
      </trkpt>
      <trkpt lat="47.49833" lon="3.84115">
        <ele>174</ele>
        <time>2021-11-05T08:38:13.000Z</time>
      </trkpt>
      <trkpt lat="47.49835" lon="3.84112">
        <ele>175</ele>
        <time>2021-11-05T08:38:29.000Z</time>
      </trkpt>
      <trkpt lat="47.49836" lon="3.84109">
        <ele>175</ele>
        <time>2021-11-05T08:38:46.000Z</time>
      </trkpt>
      <trkpt lat="47.49836" lon="3.84101">
        <ele>177</ele>
        <time>2021-11-05T08:39:00.000Z</time>
      </trkpt>
      <trkpt lat="47.49838" lon="3.84075">
        <ele>178</ele>
        <time>2021-11-05T08:39:15.000Z</time>
      </trkpt>
      <trkpt lat="47.49829" lon="3.84038">
        <ele>180</ele>
        <time>2021-11-05T08:39:29.000Z</time>
      </trkpt>
      <trkpt lat="47.49825" lon="3.84027">
        <ele>180</ele>
        <time>2021-11-05T08:39:34.000Z</time>
      </trkpt>
      <trkpt lat="47.49819" lon="3.84003">
        <ele>183</ele>
        <time>2021-11-05T08:39:54.000Z</time>
      </trkpt>
      <trkpt lat="47.49816" lon="3.83997">
        <ele>186</ele>
        <time>2021-11-05T08:40:30.000Z</time>
      </trkpt>
      <trkpt lat="47.49801" lon="3.83928">
        <ele>188</ele>
        <time>2021-11-05T08:40:46.000Z</time>
      </trkpt>
      <trkpt lat="47.49801" lon="3.8392">
        <ele>189</ele>
        <time>2021-11-05T08:40:54.000Z</time>
      </trkpt>
      <trkpt lat="47.498" lon="3.83915">
        <ele>190</ele>
        <time>2021-11-05T08:40:58.000Z</time>
      </trkpt>
      <trkpt lat="47.49799" lon="3.83908">
        <ele>191</ele>
        <time>2021-11-05T08:41:07.000Z</time>
      </trkpt>
      <trkpt lat="47.49798" lon="3.83907">
        <ele>191</ele>
        <time>2021-11-05T08:41:20.000Z</time>
      </trkpt>
      <trkpt lat="47.498" lon="3.83906">
        <ele>191</ele>
        <time>2021-11-05T08:41:29.000Z</time>
      </trkpt>
      <trkpt lat="47.49802" lon="3.8389">
        <ele>192</ele>
        <time>2021-11-05T08:41:41.000Z</time>
      </trkpt>
      <trkpt lat="47.49801" lon="3.83889">
        <ele>192</ele>
        <time>2021-11-05T08:41:54.000Z</time>
      </trkpt>
      <trkpt lat="47.49801" lon="3.83888">
        <ele>193</ele>
        <time>2021-11-05T08:42:13.000Z</time>
      </trkpt>
      <trkpt lat="47.49801" lon="3.83879">
        <ele>195</ele>
        <time>2021-11-05T08:42:24.000Z</time>
      </trkpt>
      <trkpt lat="47.498" lon="3.83874">
        <ele>195</ele>
        <time>2021-11-05T08:42:27.000Z</time>
      </trkpt>
      <trkpt lat="47.49798" lon="3.83856">
        <ele>197</ele>
        <time>2021-11-05T08:42:37.000Z</time>
      </trkpt>
      <trkpt lat="47.49795" lon="3.83842">
        <ele>199</ele>
        <time>2021-11-05T08:42:46.000Z</time>
      </trkpt>
      <trkpt lat="47.49791" lon="3.83832">
        <ele>200</ele>
        <time>2021-11-05T08:42:56.000Z</time>
      </trkpt>
      <trkpt lat="47.49789" lon="3.83822">
        <ele>202</ele>
        <time>2021-11-05T08:43:05.000Z</time>
      </trkpt>
      <trkpt lat="47.49786" lon="3.83813">
        <ele>203</ele>
        <time>2021-11-05T08:43:14.000Z</time>
      </trkpt>
      <trkpt lat="47.49783" lon="3.83801">
        <ele>204</ele>
        <time>2021-11-05T08:43:24.000Z</time>
      </trkpt>
      <trkpt lat="47.49783" lon="3.83788">
        <ele>206</ele>
        <time>2021-11-05T08:43:36.000Z</time>
      </trkpt>
      <trkpt lat="47.49787" lon="3.83776">
        <ele>208</ele>
        <time>2021-11-05T08:43:48.000Z</time>
      </trkpt>
      <trkpt lat="47.49794" lon="3.83767">
        <ele>209</ele>
        <time>2021-11-05T08:43:59.000Z</time>
      </trkpt>
      <trkpt lat="47.49793" lon="3.83766">
        <ele>209</ele>
        <time>2021-11-05T08:44:04.000Z</time>
      </trkpt>
      <trkpt lat="47.49797" lon="3.83762">
        <ele>210</ele>
        <time>2021-11-05T08:44:14.000Z</time>
      </trkpt>
      <trkpt lat="47.49802" lon="3.83761">
        <ele>210</ele>
        <time>2021-11-05T08:44:19.000Z</time>
      </trkpt>
      <trkpt lat="47.49804" lon="3.8376">
        <ele>210</ele>
        <time>2021-11-05T08:44:21.000Z</time>
      </trkpt>
      <trkpt lat="47.49817" lon="3.83754">
        <ele>210</ele>
        <time>2021-11-05T08:44:33.000Z</time>
      </trkpt>
      <trkpt lat="47.4983" lon="3.8375">
        <ele>210</ele>
        <time>2021-11-05T08:44:44.000Z</time>
      </trkpt>
      <trkpt lat="47.49843" lon="3.83744">
        <ele>210</ele>
        <time>2021-11-05T08:44:56.000Z</time>
      </trkpt>
      <trkpt lat="47.49845" lon="3.83741">
        <ele>210</ele>
        <time>2021-11-05T08:45:00.000Z</time>
      </trkpt>
      <trkpt lat="47.49851" lon="3.83737">
        <ele>211</ele>
        <time>2021-11-05T08:45:06.000Z</time>
      </trkpt>
      <trkpt lat="47.49855" lon="3.83736">
        <ele>211</ele>
        <time>2021-11-05T08:45:10.000Z</time>
      </trkpt>
      <trkpt lat="47.49867" lon="3.83727">
        <ele>212</ele>
        <time>2021-11-05T08:45:23.000Z</time>
      </trkpt>
      <trkpt lat="47.49875" lon="3.83719">
        <ele>213</ele>
        <time>2021-11-05T08:45:33.000Z</time>
      </trkpt>
      <trkpt lat="47.49884" lon="3.83712">
        <ele>214</ele>
        <time>2021-11-05T08:45:43.000Z</time>
      </trkpt>
      <trkpt lat="47.4989" lon="3.83708">
        <ele>216</ele>
        <time>2021-11-05T08:45:55.000Z</time>
      </trkpt>
      <trkpt lat="47.49891" lon="3.83708">
        <ele>215</ele>
        <time>2021-11-05T08:46:15.000Z</time>
      </trkpt>
      <trkpt lat="47.49891" lon="3.83708">
        <ele>216</ele>
        <time>2021-11-05T08:46:24.000Z</time>
      </trkpt>
      <trkpt lat="47.49895" lon="3.83709">
        <ele>216</ele>
        <time>2021-11-05T08:46:37.000Z</time>
      </trkpt>
      <trkpt lat="47.49904" lon="3.83705">
        <ele>217</ele>
        <time>2021-11-05T08:46:48.000Z</time>
      </trkpt>
      <trkpt lat="47.49907" lon="3.83705">
        <ele>217</ele>
        <time>2021-11-05T08:46:58.000Z</time>
      </trkpt>
      <trkpt lat="47.49908" lon="3.83706">
        <ele>217</ele>
        <time>2021-11-05T08:47:07.000Z</time>
      </trkpt>
      <trkpt lat="47.49919" lon="3.83704">
        <ele>218</ele>
        <time>2021-11-05T08:47:19.000Z</time>
      </trkpt>
      <trkpt lat="47.49926" lon="3.83706">
        <ele>218</ele>
        <time>2021-11-05T08:47:29.000Z</time>
      </trkpt>
      <trkpt lat="47.49937" lon="3.8371">
        <ele>217</ele>
        <time>2021-11-05T08:47:41.000Z</time>
      </trkpt>
      <trkpt lat="47.49951" lon="3.8371">
        <ele>217</ele>
        <time>2021-11-05T08:47:53.000Z</time>
      </trkpt>
      <trkpt lat="47.49963" lon="3.83709">
        <ele>217</ele>
        <time>2021-11-05T08:48:04.000Z</time>
      </trkpt>
      <trkpt lat="47.49976" lon="3.83706">
        <ele>217</ele>
        <time>2021-11-05T08:48:15.000Z</time>
      </trkpt>
      <trkpt lat="47.49988" lon="3.837">
        <ele>217</ele>
        <time>2021-11-05T08:48:26.000Z</time>
      </trkpt>
      <trkpt lat="47.49999" lon="3.83695">
        <ele>218</ele>
        <time>2021-11-05T08:48:36.000Z</time>
      </trkpt>
      <trkpt lat="47.50001" lon="3.83694">
        <ele>218</ele>
        <time>2021-11-05T08:48:51.000Z</time>
      </trkpt>
      <trkpt lat="47.50015" lon="3.83689">
        <ele>218</ele>
        <time>2021-11-05T08:49:02.000Z</time>
      </trkpt>
      <trkpt lat="47.50027" lon="3.83684">
        <ele>217</ele>
        <time>2021-11-05T08:49:13.000Z</time>
      </trkpt>
      <trkpt lat="47.50038" lon="3.8368">
        <ele>217</ele>
        <time>2021-11-05T08:49:24.000Z</time>
      </trkpt>
      <trkpt lat="47.50043" lon="3.83679">
        <ele>217</ele>
        <time>2021-11-05T08:49:36.000Z</time>
      </trkpt>
      <trkpt lat="47.50043" lon="3.83679">
        <ele>217</ele>
        <time>2021-11-05T08:49:46.000Z</time>
      </trkpt>
      <trkpt lat="47.50046" lon="3.83679">
        <ele>217</ele>
        <time>2021-11-05T08:49:56.000Z</time>
      </trkpt>
      <trkpt lat="47.50057" lon="3.83678">
        <ele>217</ele>
        <time>2021-11-05T08:50:07.000Z</time>
      </trkpt>
      <trkpt lat="47.50064" lon="3.83675">
        <ele>217</ele>
        <time>2021-11-05T08:50:19.000Z</time>
      </trkpt>
      <trkpt lat="47.50071" lon="3.83672">
        <ele>217</ele>
        <time>2021-11-05T08:50:28.000Z</time>
      </trkpt>
      <trkpt lat="47.50082" lon="3.83664">
        <ele>218</ele>
        <time>2021-11-05T08:50:38.000Z</time>
      </trkpt>
      <trkpt lat="47.50085" lon="3.83662">
        <ele>218</ele>
        <time>2021-11-05T08:50:46.000Z</time>
      </trkpt>
      <trkpt lat="47.50085" lon="3.83662">
        <ele>218</ele>
        <time>2021-11-05T08:50:53.000Z</time>
      </trkpt>
      <trkpt lat="47.5009" lon="3.83653">
        <ele>218</ele>
        <time>2021-11-05T08:51:02.000Z</time>
      </trkpt>
      <trkpt lat="47.5009" lon="3.83652">
        <ele>218</ele>
        <time>2021-11-05T08:51:03.000Z</time>
      </trkpt>
      <trkpt lat="47.50095" lon="3.83643">
        <ele>219</ele>
        <time>2021-11-05T08:51:11.000Z</time>
      </trkpt>
      <trkpt lat="47.501" lon="3.83637">
        <ele>220</ele>
        <time>2021-11-05T08:51:17.000Z</time>
      </trkpt>
      <trkpt lat="47.50111" lon="3.83625">
        <ele>221</ele>
        <time>2021-11-05T08:51:28.000Z</time>
      </trkpt>
      <trkpt lat="47.50122" lon="3.83615">
        <ele>222</ele>
        <time>2021-11-05T08:51:40.000Z</time>
      </trkpt>
      <trkpt lat="47.50132" lon="3.83606">
        <ele>224</ele>
        <time>2021-11-05T08:51:51.000Z</time>
      </trkpt>
      <trkpt lat="47.50142" lon="3.83592">
        <ele>225</ele>
        <time>2021-11-05T08:52:04.000Z</time>
      </trkpt>
      <trkpt lat="47.50154" lon="3.83577">
        <ele>225</ele>
        <time>2021-11-05T08:52:18.000Z</time>
      </trkpt>
      <trkpt lat="47.50158" lon="3.83565">
        <ele>226</ele>
        <time>2021-11-05T08:52:30.000Z</time>
      </trkpt>
      <trkpt lat="47.50161" lon="3.83551">
        <ele>228</ele>
        <time>2021-11-05T08:52:41.000Z</time>
      </trkpt>
      <trkpt lat="47.50166" lon="3.83541">
        <ele>229</ele>
        <time>2021-11-05T08:52:54.000Z</time>
      </trkpt>
      <trkpt lat="47.50167" lon="3.83538">
        <ele>230</ele>
        <time>2021-11-05T08:53:05.000Z</time>
      </trkpt>
      <trkpt lat="47.50168" lon="3.83532">
        <ele>230</ele>
        <time>2021-11-05T08:53:18.000Z</time>
      </trkpt>
      <trkpt lat="47.50172" lon="3.83519">
        <ele>231</ele>
        <time>2021-11-05T08:53:31.000Z</time>
      </trkpt>
      <trkpt lat="47.50175" lon="3.83514">
        <ele>231</ele>
        <time>2021-11-05T08:53:41.000Z</time>
      </trkpt>
      <trkpt lat="47.50184" lon="3.83505">
        <ele>231</ele>
        <time>2021-11-05T08:53:53.000Z</time>
      </trkpt>
      <trkpt lat="47.50193" lon="3.83501">
        <ele>231</ele>
        <time>2021-11-05T08:54:04.000Z</time>
      </trkpt>
      <trkpt lat="47.50212" lon="3.83488">
        <ele>230</ele>
        <time>2021-11-05T08:54:17.000Z</time>
      </trkpt>
      <trkpt lat="47.50229" lon="3.83474">
        <ele>230</ele>
        <time>2021-11-05T08:54:30.000Z</time>
      </trkpt>
      <trkpt lat="47.50244" lon="3.83457">
        <ele>230</ele>
        <time>2021-11-05T08:54:42.000Z</time>
      </trkpt>
      <trkpt lat="47.50255" lon="3.83438">
        <ele>232</ele>
        <time>2021-11-05T08:54:55.000Z</time>
      </trkpt>
      <trkpt lat="47.50263" lon="3.83426">
        <ele>232</ele>
        <time>2021-11-05T08:55:07.000Z</time>
      </trkpt>
      <trkpt lat="47.50273" lon="3.83414">
        <ele>234</ele>
        <time>2021-11-05T08:55:19.000Z</time>
      </trkpt>
      <trkpt lat="47.50279" lon="3.83406">
        <ele>234</ele>
        <time>2021-11-05T08:55:26.000Z</time>
      </trkpt>
      <trkpt lat="47.50285" lon="3.83396">
        <ele>235</ele>
        <time>2021-11-05T08:55:36.000Z</time>
      </trkpt>
      <trkpt lat="47.50291" lon="3.83388">
        <ele>236</ele>
        <time>2021-11-05T08:55:46.000Z</time>
      </trkpt>
      <trkpt lat="47.503" lon="3.83368">
        <ele>236</ele>
        <time>2021-11-05T08:55:57.000Z</time>
      </trkpt>
      <trkpt lat="47.50308" lon="3.83361">
        <ele>236</ele>
        <time>2021-11-05T08:56:07.000Z</time>
      </trkpt>
      <trkpt lat="47.50311" lon="3.83348">
        <ele>236</ele>
        <time>2021-11-05T08:56:17.000Z</time>
      </trkpt>
      <trkpt lat="47.50318" lon="3.83327">
        <ele>235</ele>
        <time>2021-11-05T08:56:27.000Z</time>
      </trkpt>
      <trkpt lat="47.50324" lon="3.83314">
        <ele>234</ele>
        <time>2021-11-05T08:56:37.000Z</time>
      </trkpt>
      <trkpt lat="47.5033" lon="3.8329">
        <ele>233</ele>
        <time>2021-11-05T08:56:50.000Z</time>
      </trkpt>
      <trkpt lat="47.50341" lon="3.83277">
        <ele>232</ele>
        <time>2021-11-05T08:57:05.000Z</time>
      </trkpt>
      <trkpt lat="47.50353" lon="3.83259">
        <ele>232</ele>
        <time>2021-11-05T08:57:17.000Z</time>
      </trkpt>
      <trkpt lat="47.5036" lon="3.83247">
        <ele>232</ele>
        <time>2021-11-05T08:57:30.000Z</time>
      </trkpt>
      <trkpt lat="47.50372" lon="3.83227">
        <ele>233</ele>
        <time>2021-11-05T08:57:44.000Z</time>
      </trkpt>
      <trkpt lat="47.50379" lon="3.83217">
        <ele>234</ele>
        <time>2021-11-05T08:57:56.000Z</time>
      </trkpt>
      <trkpt lat="47.50383" lon="3.83209">
        <ele>235</ele>
        <time>2021-11-05T08:58:08.000Z</time>
      </trkpt>
      <trkpt lat="47.50385" lon="3.83186">
        <ele>236</ele>
        <time>2021-11-05T08:58:20.000Z</time>
      </trkpt>
      <trkpt lat="47.50392" lon="3.83173">
        <ele>237</ele>
        <time>2021-11-05T08:58:32.000Z</time>
      </trkpt>
      <trkpt lat="47.50401" lon="3.83161">
        <ele>236</ele>
        <time>2021-11-05T08:58:45.000Z</time>
      </trkpt>
      <trkpt lat="47.50417" lon="3.83145">
        <ele>236</ele>
        <time>2021-11-05T08:58:54.000Z</time>
      </trkpt>
      <trkpt lat="47.50425" lon="3.8313">
        <ele>236</ele>
        <time>2021-11-05T08:59:05.000Z</time>
      </trkpt>
      <trkpt lat="47.50433" lon="3.83116">
        <ele>235</ele>
        <time>2021-11-05T08:59:16.000Z</time>
      </trkpt>
      <trkpt lat="47.5044" lon="3.83103">
        <ele>235</ele>
        <time>2021-11-05T08:59:29.000Z</time>
      </trkpt>
      <trkpt lat="47.50445" lon="3.83092">
        <ele>235</ele>
        <time>2021-11-05T08:59:40.000Z</time>
      </trkpt>
      <trkpt lat="47.50462" lon="3.83077">
        <ele>232</ele>
        <time>2021-11-05T08:59:54.000Z</time>
      </trkpt>
      <trkpt lat="47.5047" lon="3.83072">
        <ele>231</ele>
        <time>2021-11-05T09:00:05.000Z</time>
      </trkpt>
      <trkpt lat="47.5048" lon="3.83063">
        <ele>228</ele>
        <time>2021-11-05T09:00:16.000Z</time>
      </trkpt>
      <trkpt lat="47.50485" lon="3.83057">
        <ele>227</ele>
        <time>2021-11-05T09:00:27.000Z</time>
      </trkpt>
      <trkpt lat="47.50493" lon="3.83047">
        <ele>225</ele>
        <time>2021-11-05T09:00:40.000Z</time>
      </trkpt>
      <trkpt lat="47.50508" lon="3.83025">
        <ele>222</ele>
        <time>2021-11-05T09:00:52.000Z</time>
      </trkpt>
      <trkpt lat="47.50512" lon="3.83017">
        <ele>221</ele>
        <time>2021-11-05T09:01:04.000Z</time>
      </trkpt>
      <trkpt lat="47.50518" lon="3.83002">
        <ele>220</ele>
        <time>2021-11-05T09:01:15.000Z</time>
      </trkpt>
      <trkpt lat="47.50519" lon="3.82997">
        <ele>219</ele>
        <time>2021-11-05T09:01:29.000Z</time>
      </trkpt>
      <trkpt lat="47.50521" lon="3.82993">
        <ele>218</ele>
        <time>2021-11-05T09:01:41.000Z</time>
      </trkpt>
      <trkpt lat="47.50526" lon="3.82983">
        <ele>217</ele>
        <time>2021-11-05T09:01:54.000Z</time>
      </trkpt>
      <trkpt lat="47.50536" lon="3.8297">
        <ele>216</ele>
        <time>2021-11-05T09:02:05.000Z</time>
      </trkpt>
      <trkpt lat="47.5054" lon="3.82963">
        <ele>215</ele>
        <time>2021-11-05T09:02:15.000Z</time>
      </trkpt>
      <trkpt lat="47.50543" lon="3.82959">
        <ele>215</ele>
        <time>2021-11-05T09:02:29.000Z</time>
      </trkpt>
      <trkpt lat="47.50549" lon="3.82947">
        <ele>215</ele>
        <time>2021-11-05T09:02:39.000Z</time>
      </trkpt>
      <trkpt lat="47.50556" lon="3.82937">
        <ele>215</ele>
        <time>2021-11-05T09:02:50.000Z</time>
      </trkpt>
      <trkpt lat="47.50564" lon="3.82924">
        <ele>215</ele>
        <time>2021-11-05T09:03:02.000Z</time>
      </trkpt>
      <trkpt lat="47.50571" lon="3.82901">
        <ele>214</ele>
        <time>2021-11-05T09:03:16.000Z</time>
      </trkpt>
      <trkpt lat="47.50572" lon="3.82896">
        <ele>214</ele>
        <time>2021-11-05T09:03:27.000Z</time>
      </trkpt>
      <trkpt lat="47.50575" lon="3.8289">
        <ele>213</ele>
        <time>2021-11-05T09:03:38.000Z</time>
      </trkpt>
      <trkpt lat="47.50579" lon="3.82883">
        <ele>213</ele>
        <time>2021-11-05T09:03:50.000Z</time>
      </trkpt>
      <trkpt lat="47.50587" lon="3.82868">
        <ele>213</ele>
        <time>2021-11-05T09:04:02.000Z</time>
      </trkpt>
      <trkpt lat="47.50594" lon="3.82859">
        <ele>211</ele>
        <time>2021-11-05T09:04:16.000Z</time>
      </trkpt>
      <trkpt lat="47.50601" lon="3.82848">
        <ele>209</ele>
        <time>2021-11-05T09:04:26.000Z</time>
      </trkpt>
      <trkpt lat="47.50608" lon="3.82841">
        <ele>208</ele>
        <time>2021-11-05T09:04:37.000Z</time>
      </trkpt>
      <trkpt lat="47.50609" lon="3.82839">
        <ele>208</ele>
        <time>2021-11-05T09:04:50.000Z</time>
      </trkpt>
      <trkpt lat="47.5061" lon="3.82836">
        <ele>208</ele>
        <time>2021-11-05T09:05:03.000Z</time>
      </trkpt>
      <trkpt lat="47.50609" lon="3.82832">
        <ele>208</ele>
        <time>2021-11-05T09:05:24.000Z</time>
      </trkpt>
      <trkpt lat="47.5061" lon="3.82826">
        <ele>208</ele>
        <time>2021-11-05T09:06:32.000Z</time>
      </trkpt>
      <trkpt lat="47.50608" lon="3.82824">
        <ele>209</ele>
        <time>2021-11-05T09:06:44.000Z</time>
      </trkpt>
      <trkpt lat="47.50608" lon="3.82798">
        <ele>210</ele>
        <time>2021-11-05T09:06:57.000Z</time>
      </trkpt>
      <trkpt lat="47.5061" lon="3.82778">
        <ele>212</ele>
        <time>2021-11-05T09:07:07.000Z</time>
      </trkpt>
      <trkpt lat="47.50614" lon="3.82763">
        <ele>213</ele>
        <time>2021-11-05T09:07:19.000Z</time>
      </trkpt>
      <trkpt lat="47.50614" lon="3.82747">
        <ele>214</ele>
        <time>2021-11-05T09:07:31.000Z</time>
      </trkpt>
      <trkpt lat="47.50613" lon="3.82733">
        <ele>215</ele>
        <time>2021-11-05T09:07:38.000Z</time>
      </trkpt>
      <trkpt lat="47.50607" lon="3.82713">
        <ele>216</ele>
        <time>2021-11-05T09:07:49.000Z</time>
      </trkpt>
      <trkpt lat="47.50608" lon="3.827">
        <ele>218</ele>
        <time>2021-11-05T09:08:01.000Z</time>
      </trkpt>
      <trkpt lat="47.50608" lon="3.82687">
        <ele>220</ele>
        <time>2021-11-05T09:08:12.000Z</time>
      </trkpt>
      <trkpt lat="47.50607" lon="3.82682">
        <ele>221</ele>
        <time>2021-11-05T09:08:24.000Z</time>
      </trkpt>
      <trkpt lat="47.50601" lon="3.82669">
        <ele>223</ele>
        <time>2021-11-05T09:08:39.000Z</time>
      </trkpt>
      <trkpt lat="47.506" lon="3.82658">
        <ele>224</ele>
        <time>2021-11-05T09:08:51.000Z</time>
      </trkpt>
      <trkpt lat="47.50597" lon="3.82653">
        <ele>225</ele>
        <time>2021-11-05T09:09:03.000Z</time>
      </trkpt>
      <trkpt lat="47.50593" lon="3.8264">
        <ele>227</ele>
        <time>2021-11-05T09:09:15.000Z</time>
      </trkpt>
      <trkpt lat="47.50589" lon="3.82627">
        <ele>227</ele>
        <time>2021-11-05T09:09:26.000Z</time>
      </trkpt>
      <trkpt lat="47.50587" lon="3.82619">
        <ele>228</ele>
        <time>2021-11-05T09:09:39.000Z</time>
      </trkpt>
      <trkpt lat="47.50581" lon="3.82612">
        <ele>229</ele>
        <time>2021-11-05T09:09:47.000Z</time>
      </trkpt>
      <trkpt lat="47.50575" lon="3.82603">
        <ele>230</ele>
        <time>2021-11-05T09:09:56.000Z</time>
      </trkpt>
      <trkpt lat="47.50573" lon="3.82597">
        <ele>231</ele>
        <time>2021-11-05T09:10:04.000Z</time>
      </trkpt>
      <trkpt lat="47.50569" lon="3.82589">
        <ele>231</ele>
        <time>2021-11-05T09:10:14.000Z</time>
      </trkpt>
      <trkpt lat="47.50566" lon="3.82585">
        <ele>232</ele>
        <time>2021-11-05T09:10:22.000Z</time>
      </trkpt>
      <trkpt lat="47.50562" lon="3.82578">
        <ele>233</ele>
        <time>2021-11-05T09:10:30.000Z</time>
      </trkpt>
      <trkpt lat="47.50558" lon="3.82569">
        <ele>235</ele>
        <time>2021-11-05T09:10:40.000Z</time>
      </trkpt>
      <trkpt lat="47.50553" lon="3.82565">
        <ele>236</ele>
        <time>2021-11-05T09:10:49.000Z</time>
      </trkpt>
      <trkpt lat="47.50553" lon="3.82565">
        <ele>236</ele>
        <time>2021-11-05T09:11:02.000Z</time>
      </trkpt>
      <trkpt lat="47.50548" lon="3.82563">
        <ele>237</ele>
        <time>2021-11-05T09:11:12.000Z</time>
      </trkpt>
      <trkpt lat="47.50542" lon="3.82556">
        <ele>238</ele>
        <time>2021-11-05T09:11:22.000Z</time>
      </trkpt>
      <trkpt lat="47.50535" lon="3.82552">
        <ele>240</ele>
        <time>2021-11-05T09:11:33.000Z</time>
      </trkpt>
      <trkpt lat="47.50529" lon="3.8255">
        <ele>240</ele>
        <time>2021-11-05T09:11:44.000Z</time>
      </trkpt>
      <trkpt lat="47.50523" lon="3.82546">
        <ele>242</ele>
        <time>2021-11-05T09:11:56.000Z</time>
      </trkpt>
      <trkpt lat="47.50517" lon="3.8254">
        <ele>243</ele>
        <time>2021-11-05T09:12:07.000Z</time>
      </trkpt>
      <trkpt lat="47.50512" lon="3.82526">
        <ele>243</ele>
        <time>2021-11-05T09:12:26.000Z</time>
      </trkpt>
      <trkpt lat="47.50502" lon="3.8252">
        <ele>245</ele>
        <time>2021-11-05T09:12:38.000Z</time>
      </trkpt>
      <trkpt lat="47.50491" lon="3.82514">
        <ele>246</ele>
        <time>2021-11-05T09:12:51.000Z</time>
      </trkpt>
      <trkpt lat="47.50481" lon="3.82514">
        <ele>247</ele>
        <time>2021-11-05T09:13:04.000Z</time>
      </trkpt>
      <trkpt lat="47.50475" lon="3.82512">
        <ele>248</ele>
        <time>2021-11-05T09:13:17.000Z</time>
      </trkpt>
      <trkpt lat="47.50469" lon="3.8251">
        <ele>249</ele>
        <time>2021-11-05T09:13:29.000Z</time>
      </trkpt>
      <trkpt lat="47.50459" lon="3.82506">
        <ele>250</ele>
        <time>2021-11-05T09:13:42.000Z</time>
      </trkpt>
      <trkpt lat="47.50453" lon="3.82504">
        <ele>250</ele>
        <time>2021-11-05T09:13:46.000Z</time>
      </trkpt>
      <trkpt lat="47.5044" lon="3.82498">
        <ele>251</ele>
        <time>2021-11-05T09:13:58.000Z</time>
      </trkpt>
      <trkpt lat="47.50436" lon="3.82498">
        <ele>252</ele>
        <time>2021-11-05T09:14:08.000Z</time>
      </trkpt>
      <trkpt lat="47.5043" lon="3.82496">
        <ele>252</ele>
        <time>2021-11-05T09:14:19.000Z</time>
      </trkpt>
      <trkpt lat="47.50421" lon="3.82489">
        <ele>252</ele>
        <time>2021-11-05T09:14:33.000Z</time>
      </trkpt>
      <trkpt lat="47.5041" lon="3.82485">
        <ele>252</ele>
        <time>2021-11-05T09:14:43.000Z</time>
      </trkpt>
      <trkpt lat="47.50404" lon="3.82482">
        <ele>253</ele>
        <time>2021-11-05T09:14:53.000Z</time>
      </trkpt>
      <trkpt lat="47.50399" lon="3.82476">
        <ele>253</ele>
        <time>2021-11-05T09:15:06.000Z</time>
      </trkpt>
      <trkpt lat="47.50392" lon="3.82468">
        <ele>253</ele>
        <time>2021-11-05T09:15:17.000Z</time>
      </trkpt>
      <trkpt lat="47.5039" lon="3.82466">
        <ele>254</ele>
        <time>2021-11-05T09:15:27.000Z</time>
      </trkpt>
      <trkpt lat="47.5039" lon="3.82466">
        <ele>254</ele>
        <time>2021-11-05T09:15:40.000Z</time>
      </trkpt>
      <trkpt lat="47.50389" lon="3.82466">
        <ele>254</ele>
        <time>2021-11-05T09:15:51.000Z</time>
      </trkpt>
      <trkpt lat="47.50387" lon="3.82466">
        <ele>254</ele>
        <time>2021-11-05T09:16:13.000Z</time>
      </trkpt>
      <trkpt lat="47.50382" lon="3.8246">
        <ele>254</ele>
        <time>2021-11-05T09:16:22.000Z</time>
      </trkpt>
      <trkpt lat="47.50375" lon="3.82457">
        <ele>254</ele>
        <time>2021-11-05T09:16:34.000Z</time>
      </trkpt>
      <trkpt lat="47.50369" lon="3.82452">
        <ele>255</ele>
        <time>2021-11-05T09:16:42.000Z</time>
      </trkpt>
      <trkpt lat="47.50361" lon="3.82451">
        <ele>256</ele>
        <time>2021-11-05T09:16:51.000Z</time>
      </trkpt>
      <trkpt lat="47.50357" lon="3.82448">
        <ele>256</ele>
        <time>2021-11-05T09:17:00.000Z</time>
      </trkpt>
      <trkpt lat="47.50347" lon="3.82442">
        <ele>257</ele>
        <time>2021-11-05T09:17:11.000Z</time>
      </trkpt>
      <trkpt lat="47.50342" lon="3.82436">
        <ele>258</ele>
        <time>2021-11-05T09:17:21.000Z</time>
      </trkpt>
      <trkpt lat="47.50338" lon="3.82436">
        <ele>259</ele>
        <time>2021-11-05T09:17:30.000Z</time>
      </trkpt>
      <trkpt lat="47.50331" lon="3.82433">
        <ele>260</ele>
        <time>2021-11-05T09:17:39.000Z</time>
      </trkpt>
      <trkpt lat="47.5032" lon="3.82431">
        <ele>261</ele>
        <time>2021-11-05T09:17:51.000Z</time>
      </trkpt>
      <trkpt lat="47.50307" lon="3.8243">
        <ele>263</ele>
        <time>2021-11-05T09:18:03.000Z</time>
      </trkpt>
      <trkpt lat="47.503" lon="3.82425">
        <ele>264</ele>
        <time>2021-11-05T09:18:12.000Z</time>
      </trkpt>
      <trkpt lat="47.50294" lon="3.82425">
        <ele>265</ele>
        <time>2021-11-05T09:18:22.000Z</time>
      </trkpt>
      <trkpt lat="47.50293" lon="3.82423">
        <ele>265</ele>
        <time>2021-11-05T09:18:32.000Z</time>
      </trkpt>
      <trkpt lat="47.5029" lon="3.82424">
        <ele>265</ele>
        <time>2021-11-05T09:18:44.000Z</time>
      </trkpt>
      <trkpt lat="47.50286" lon="3.82425">
        <ele>266</ele>
        <time>2021-11-05T09:18:57.000Z</time>
      </trkpt>
      <trkpt lat="47.50278" lon="3.82426">
        <ele>268</ele>
        <time>2021-11-05T09:19:09.000Z</time>
      </trkpt>
      <trkpt lat="47.50269" lon="3.82425">
        <ele>268</ele>
        <time>2021-11-05T09:19:22.000Z</time>
      </trkpt>
      <trkpt lat="47.50268" lon="3.82425">
        <ele>268</ele>
        <time>2021-11-05T09:19:37.000Z</time>
      </trkpt>
      <trkpt lat="47.50266" lon="3.82425">
        <ele>268</ele>
        <time>2021-11-05T09:19:54.000Z</time>
      </trkpt>
      <trkpt lat="47.50264" lon="3.82426">
        <ele>268</ele>
        <time>2021-11-05T09:20:09.000Z</time>
      </trkpt>
      <trkpt lat="47.50259" lon="3.82425">
        <ele>269</ele>
        <time>2021-11-05T09:20:20.000Z</time>
      </trkpt>
      <trkpt lat="47.50252" lon="3.82425">
        <ele>270</ele>
        <time>2021-11-05T09:20:29.000Z</time>
      </trkpt>
      <trkpt lat="47.50246" lon="3.82422">
        <ele>271</ele>
        <time>2021-11-05T09:20:38.000Z</time>
      </trkpt>
      <trkpt lat="47.50239" lon="3.82421">
        <ele>272</ele>
        <time>2021-11-05T09:20:47.000Z</time>
      </trkpt>
      <trkpt lat="47.50236" lon="3.82424">
        <ele>273</ele>
        <time>2021-11-05T09:20:55.000Z</time>
      </trkpt>
      <trkpt lat="47.50231" lon="3.82426">
        <ele>273</ele>
        <time>2021-11-05T09:21:06.000Z</time>
      </trkpt>
      <trkpt lat="47.50225" lon="3.8242">
        <ele>274</ele>
        <time>2021-11-05T09:21:15.000Z</time>
      </trkpt>
      <trkpt lat="47.50219" lon="3.82418">
        <ele>275</ele>
        <time>2021-11-05T09:21:25.000Z</time>
      </trkpt>
      <trkpt lat="47.50215" lon="3.82417">
        <ele>275</ele>
        <time>2021-11-05T09:21:37.000Z</time>
      </trkpt>
      <trkpt lat="47.50207" lon="3.82413">
        <ele>277</ele>
        <time>2021-11-05T09:21:48.000Z</time>
      </trkpt>
      <trkpt lat="47.50199" lon="3.82409">
        <ele>277</ele>
        <time>2021-11-05T09:21:58.000Z</time>
      </trkpt>
      <trkpt lat="47.50192" lon="3.82409">
        <ele>279</ele>
        <time>2021-11-05T09:22:08.000Z</time>
      </trkpt>
      <trkpt lat="47.50189" lon="3.82407">
        <ele>280</ele>
        <time>2021-11-05T09:22:16.000Z</time>
      </trkpt>
      <trkpt lat="47.50189" lon="3.82407">
        <ele>279</ele>
        <time>2021-11-05T09:22:37.000Z</time>
      </trkpt>
      <trkpt lat="47.50188" lon="3.82406">
        <ele>279</ele>
        <time>2021-11-05T09:23:00.000Z</time>
      </trkpt>
      <trkpt lat="47.50187" lon="3.82403">
        <ele>279</ele>
        <time>2021-11-05T09:23:23.000Z</time>
      </trkpt>
      <trkpt lat="47.50187" lon="3.82402">
        <ele>279</ele>
        <time>2021-11-05T09:23:43.000Z</time>
      </trkpt>
      <trkpt lat="47.50186" lon="3.82402">
        <ele>279</ele>
        <time>2021-11-05T09:24:02.000Z</time>
      </trkpt>
      <trkpt lat="47.50178" lon="3.82401">
        <ele>280</ele>
        <time>2021-11-05T09:24:12.000Z</time>
      </trkpt>
      <trkpt lat="47.50173" lon="3.82398">
        <ele>281</ele>
        <time>2021-11-05T09:24:27.000Z</time>
      </trkpt>
      <trkpt lat="47.50168" lon="3.82393">
        <ele>282</ele>
        <time>2021-11-05T09:24:41.000Z</time>
      </trkpt>
      <trkpt lat="47.50159" lon="3.82391">
        <ele>282</ele>
        <time>2021-11-05T09:24:51.000Z</time>
      </trkpt>
      <trkpt lat="47.50157" lon="3.82389">
        <ele>283</ele>
        <time>2021-11-05T09:24:59.000Z</time>
      </trkpt>
      <trkpt lat="47.50149" lon="3.82382">
        <ele>284</ele>
        <time>2021-11-05T09:25:08.000Z</time>
      </trkpt>
      <trkpt lat="47.50141" lon="3.82383">
        <ele>286</ele>
        <time>2021-11-05T09:25:18.000Z</time>
      </trkpt>
      <trkpt lat="47.50129" lon="3.82378">
        <ele>287</ele>
        <time>2021-11-05T09:25:30.000Z</time>
      </trkpt>
      <trkpt lat="47.5012" lon="3.82372">
        <ele>288</ele>
        <time>2021-11-05T09:25:40.000Z</time>
      </trkpt>
      <trkpt lat="47.50116" lon="3.82369">
        <ele>289</ele>
        <time>2021-11-05T09:25:51.000Z</time>
      </trkpt>
      <trkpt lat="47.5011" lon="3.82367">
        <ele>290</ele>
        <time>2021-11-05T09:26:08.000Z</time>
      </trkpt>
      <trkpt lat="47.50101" lon="3.82363">
        <ele>291</ele>
        <time>2021-11-05T09:26:23.000Z</time>
      </trkpt>
      <trkpt lat="47.50085" lon="3.82363">
        <ele>292</ele>
        <time>2021-11-05T09:26:37.000Z</time>
      </trkpt>
      <trkpt lat="47.50081" lon="3.8236">
        <ele>293</ele>
        <time>2021-11-05T09:26:51.000Z</time>
      </trkpt>
      <trkpt lat="47.50068" lon="3.82353">
        <ele>293</ele>
        <time>2021-11-05T09:27:05.000Z</time>
      </trkpt>
      <trkpt lat="47.50059" lon="3.82345">
        <ele>294</ele>
        <time>2021-11-05T09:27:16.000Z</time>
      </trkpt>
      <trkpt lat="47.50047" lon="3.82335">
        <ele>294</ele>
        <time>2021-11-05T09:27:27.000Z</time>
      </trkpt>
      <trkpt lat="47.50037" lon="3.82329">
        <ele>294</ele>
        <time>2021-11-05T09:27:39.000Z</time>
      </trkpt>
      <trkpt lat="47.50031" lon="3.8232">
        <ele>295</ele>
        <time>2021-11-05T09:27:51.000Z</time>
      </trkpt>
      <trkpt lat="47.50024" lon="3.82315">
        <ele>295</ele>
        <time>2021-11-05T09:28:02.000Z</time>
      </trkpt>
      <trkpt lat="47.50022" lon="3.82314">
        <ele>295</ele>
        <time>2021-11-05T09:28:16.000Z</time>
      </trkpt>
      <trkpt lat="47.50022" lon="3.82313">
        <ele>295</ele>
        <time>2021-11-05T09:28:34.000Z</time>
      </trkpt>
      <trkpt lat="47.50022" lon="3.82313">
        <ele>296</ele>
        <time>2021-11-05T09:28:47.000Z</time>
      </trkpt>
      <trkpt lat="47.50023" lon="3.82312">
        <ele>296</ele>
        <time>2021-11-05T09:29:07.000Z</time>
      </trkpt>
      <trkpt lat="47.50023" lon="3.82312">
        <ele>295</ele>
        <time>2021-11-05T09:29:29.000Z</time>
      </trkpt>
      <trkpt lat="47.50023" lon="3.82313">
        <ele>296</ele>
        <time>2021-11-05T09:29:53.000Z</time>
      </trkpt>
      <trkpt lat="47.50023" lon="3.82314">
        <ele>296</ele>
        <time>2021-11-05T09:30:20.000Z</time>
      </trkpt>
      <trkpt lat="47.50023" lon="3.82316">
        <ele>296</ele>
        <time>2021-11-05T09:30:38.000Z</time>
      </trkpt>
      <trkpt lat="47.50023" lon="3.82317">
        <ele>296</ele>
        <time>2021-11-05T09:30:53.000Z</time>
      </trkpt>
      <trkpt lat="47.50023" lon="3.82323">
        <ele>296</ele>
        <time>2021-11-05T09:31:06.000Z</time>
      </trkpt>
      <trkpt lat="47.50022" lon="3.82338">
        <ele>296</ele>
        <time>2021-11-05T09:31:17.000Z</time>
      </trkpt>
      <trkpt lat="47.5002" lon="3.82347">
        <ele>297</ele>
        <time>2021-11-05T09:31:31.000Z</time>
      </trkpt>
      <trkpt lat="47.5002" lon="3.82362">
        <ele>298</ele>
        <time>2021-11-05T09:31:42.000Z</time>
      </trkpt>
      <trkpt lat="47.5002" lon="3.82371">
        <ele>298</ele>
        <time>2021-11-05T09:31:48.000Z</time>
      </trkpt>
      <trkpt lat="47.50019" lon="3.82382">
        <ele>299</ele>
        <time>2021-11-05T09:31:58.000Z</time>
      </trkpt>
      <trkpt lat="47.50018" lon="3.82398">
        <ele>301</ele>
        <time>2021-11-05T09:32:09.000Z</time>
      </trkpt>
      <trkpt lat="47.50019" lon="3.82413">
        <ele>302</ele>
        <time>2021-11-05T09:32:20.000Z</time>
      </trkpt>
      <trkpt lat="47.5002" lon="3.82425">
        <ele>302</ele>
        <time>2021-11-05T09:32:29.000Z</time>
      </trkpt>
      <trkpt lat="47.50018" lon="3.82436">
        <ele>303</ele>
        <time>2021-11-05T09:32:38.000Z</time>
      </trkpt>
      <trkpt lat="47.50016" lon="3.82445">
        <ele>304</ele>
        <time>2021-11-05T09:32:47.000Z</time>
      </trkpt>
      <trkpt lat="47.50018" lon="3.82448">
        <ele>305</ele>
        <time>2021-11-05T09:32:55.000Z</time>
      </trkpt>
      <trkpt lat="47.50018" lon="3.82456">
        <ele>305</ele>
        <time>2021-11-05T09:33:05.000Z</time>
      </trkpt>
      <trkpt lat="47.50015" lon="3.82465">
        <ele>306</ele>
        <time>2021-11-05T09:33:13.000Z</time>
      </trkpt>
      <trkpt lat="47.50009" lon="3.82481">
        <ele>308</ele>
        <time>2021-11-05T09:33:23.000Z</time>
      </trkpt>
      <trkpt lat="47.50006" lon="3.82485">
        <ele>309</ele>
        <time>2021-11-05T09:33:36.000Z</time>
      </trkpt>
      <trkpt lat="47.50002" lon="3.82486">
        <ele>309</ele>
        <time>2021-11-05T09:33:51.000Z</time>
      </trkpt>
      <trkpt lat="47.49999" lon="3.82498">
        <ele>310</ele>
        <time>2021-11-05T09:34:03.000Z</time>
      </trkpt>
      <trkpt lat="47.49996" lon="3.82507">
        <ele>311</ele>
        <time>2021-11-05T09:34:13.000Z</time>
      </trkpt>
      <trkpt lat="47.49997" lon="3.8253">
        <ele>313</ele>
        <time>2021-11-05T09:34:29.000Z</time>
      </trkpt>
      <trkpt lat="47.49995" lon="3.82543">
        <ele>314</ele>
        <time>2021-11-05T09:34:41.000Z</time>
      </trkpt>
      <trkpt lat="47.49994" lon="3.82551">
        <ele>316</ele>
        <time>2021-11-05T09:34:53.000Z</time>
      </trkpt>
      <trkpt lat="47.49996" lon="3.82561">
        <ele>317</ele>
        <time>2021-11-05T09:35:08.000Z</time>
      </trkpt>
      <trkpt lat="47.49999" lon="3.82579">
        <ele>318</ele>
        <time>2021-11-05T09:35:19.000Z</time>
      </trkpt>
      <trkpt lat="47.50003" lon="3.82587">
        <ele>319</ele>
        <time>2021-11-05T09:35:33.000Z</time>
      </trkpt>
      <trkpt lat="47.50005" lon="3.82594">
        <ele>319</ele>
        <time>2021-11-05T09:35:47.000Z</time>
      </trkpt>
      <trkpt lat="47.50004" lon="3.82595">
        <ele>318</ele>
        <time>2021-11-05T09:36:11.000Z</time>
      </trkpt>
      <trkpt lat="47.50003" lon="3.82594">
        <ele>319</ele>
        <time>2021-11-05T09:36:23.000Z</time>
      </trkpt>
      <trkpt lat="47.50004" lon="3.82596">
        <ele>319</ele>
        <time>2021-11-05T09:36:35.000Z</time>
      </trkpt>
      <trkpt lat="47.50005" lon="3.82602">
        <ele>320</ele>
        <time>2021-11-05T09:36:55.000Z</time>
      </trkpt>
      <trkpt lat="47.5001" lon="3.8261">
        <ele>320</ele>
        <time>2021-11-05T09:37:06.000Z</time>
      </trkpt>
      <trkpt lat="47.50012" lon="3.82621">
        <ele>321</ele>
        <time>2021-11-05T09:37:19.000Z</time>
      </trkpt>
      <trkpt lat="47.50014" lon="3.82625">
        <ele>321</ele>
        <time>2021-11-05T09:37:35.000Z</time>
      </trkpt>
      <trkpt lat="47.50018" lon="3.82636">
        <ele>322</ele>
        <time>2021-11-05T09:37:47.000Z</time>
      </trkpt>
      <trkpt lat="47.50018" lon="3.82646">
        <ele>323</ele>
        <time>2021-11-05T09:38:00.000Z</time>
      </trkpt>
      <trkpt lat="47.50012" lon="3.82665">
        <ele>325</ele>
        <time>2021-11-05T09:38:12.000Z</time>
      </trkpt>
      <trkpt lat="47.50007" lon="3.82672">
        <ele>325</ele>
        <time>2021-11-05T09:38:21.000Z</time>
      </trkpt>
      <trkpt lat="47.49999" lon="3.82678">
        <ele>325</ele>
        <time>2021-11-05T09:38:32.000Z</time>
      </trkpt>
      <trkpt lat="47.49994" lon="3.82682">
        <ele>326</ele>
        <time>2021-11-05T09:38:44.000Z</time>
      </trkpt>
      <trkpt lat="47.4998" lon="3.82693">
        <ele>325</ele>
        <time>2021-11-05T09:38:54.000Z</time>
      </trkpt>
      <trkpt lat="47.4997" lon="3.82707">
        <ele>326</ele>
        <time>2021-11-05T09:39:06.000Z</time>
      </trkpt>
      <trkpt lat="47.49958" lon="3.82719">
        <ele>325</ele>
        <time>2021-11-05T09:39:18.000Z</time>
      </trkpt>
      <trkpt lat="47.49955" lon="3.82735">
        <ele>326</ele>
        <time>2021-11-05T09:39:30.000Z</time>
      </trkpt>
      <trkpt lat="47.49957" lon="3.82751">
        <ele>327</ele>
        <time>2021-11-05T09:39:41.000Z</time>
      </trkpt>
      <trkpt lat="47.49957" lon="3.82759">
        <ele>327</ele>
        <time>2021-11-05T09:39:52.000Z</time>
      </trkpt>
      <trkpt lat="47.49958" lon="3.82762">
        <ele>328</ele>
        <time>2021-11-05T09:40:02.000Z</time>
      </trkpt>
      <trkpt lat="47.49959" lon="3.82764">
        <ele>328</ele>
        <time>2021-11-05T09:40:14.000Z</time>
      </trkpt>
      <trkpt lat="47.4996" lon="3.82764">
        <ele>328</ele>
        <time>2021-11-05T09:40:33.000Z</time>
      </trkpt>
      <trkpt lat="47.4996" lon="3.82764">
        <ele>328</ele>
        <time>2021-11-05T09:40:48.000Z</time>
      </trkpt>
      <trkpt lat="47.49961" lon="3.82765">
        <ele>328</ele>
        <time>2021-11-05T09:41:14.000Z</time>
      </trkpt>
      <trkpt lat="47.49961" lon="3.82765">
        <ele>328</ele>
        <time>2021-11-05T09:41:39.000Z</time>
      </trkpt>
      <trkpt lat="47.4996" lon="3.82765">
        <ele>328</ele>
        <time>2021-11-05T09:41:55.000Z</time>
      </trkpt>
      <trkpt lat="47.4996" lon="3.82765">
        <ele>328</ele>
        <time>2021-11-05T09:42:15.000Z</time>
      </trkpt>
      <trkpt lat="47.49963" lon="3.82765">
        <ele>328</ele>
        <time>2021-11-05T09:42:30.000Z</time>
      </trkpt>
      <trkpt lat="47.49968" lon="3.82766">
        <ele>329</ele>
        <time>2021-11-05T09:42:41.000Z</time>
      </trkpt>
      <trkpt lat="47.49971" lon="3.82767">
        <ele>331</ele>
        <time>2021-11-05T09:42:53.000Z</time>
      </trkpt>
      <trkpt lat="47.49973" lon="3.82767">
        <ele>333</ele>
        <time>2021-11-05T09:43:06.000Z</time>
      </trkpt>
      <trkpt lat="47.49977" lon="3.8277">
        <ele>334</ele>
        <time>2021-11-05T09:43:20.000Z</time>
      </trkpt>
      <trkpt lat="47.49984" lon="3.82772">
        <ele>336</ele>
        <time>2021-11-05T09:43:31.000Z</time>
      </trkpt>
      <trkpt lat="47.49988" lon="3.82774">
        <ele>339</ele>
        <time>2021-11-05T09:43:45.000Z</time>
      </trkpt>
      <trkpt lat="47.49989" lon="3.82774">
        <ele>341</ele>
        <time>2021-11-05T09:43:58.000Z</time>
      </trkpt>
      <trkpt lat="47.49999" lon="3.82778">
        <ele>342</ele>
        <time>2021-11-05T09:44:12.000Z</time>
      </trkpt>
      <trkpt lat="47.50005" lon="3.8278">
        <ele>343</ele>
        <time>2021-11-05T09:44:23.000Z</time>
      </trkpt>
      <trkpt lat="47.5002" lon="3.82785">
        <ele>344</ele>
        <time>2021-11-05T09:44:32.000Z</time>
      </trkpt>
      <trkpt lat="47.50034" lon="3.82788">
        <ele>345</ele>
        <time>2021-11-05T09:44:44.000Z</time>
      </trkpt>
      <trkpt lat="47.50048" lon="3.82785">
        <ele>344</ele>
        <time>2021-11-05T09:44:57.000Z</time>
      </trkpt>
      <trkpt lat="47.50055" lon="3.82775">
        <ele>344</ele>
        <time>2021-11-05T09:45:09.000Z</time>
      </trkpt>
      <trkpt lat="47.50055" lon="3.82775">
        <ele>344</ele>
        <time>2021-11-05T09:45:27.000Z</time>
      </trkpt>
      <trkpt lat="47.50056" lon="3.82775">
        <ele>343</ele>
        <time>2021-11-05T09:45:41.000Z</time>
      </trkpt>
      <trkpt lat="47.50062" lon="3.82778">
        <ele>344</ele>
        <time>2021-11-05T09:45:52.000Z</time>
      </trkpt>
      <trkpt lat="47.50071" lon="3.82785">
        <ele>344</ele>
        <time>2021-11-05T09:46:02.000Z</time>
      </trkpt>
      <trkpt lat="47.50079" lon="3.82791">
        <ele>344</ele>
        <time>2021-11-05T09:46:13.000Z</time>
      </trkpt>
      <trkpt lat="47.50086" lon="3.82795">
        <ele>344</ele>
        <time>2021-11-05T09:46:20.000Z</time>
      </trkpt>
      <trkpt lat="47.50098" lon="3.82809">
        <ele>345</ele>
        <time>2021-11-05T09:46:33.000Z</time>
      </trkpt>
      <trkpt lat="47.50107" lon="3.82832">
        <ele>345</ele>
        <time>2021-11-05T09:46:48.000Z</time>
      </trkpt>
      <trkpt lat="47.50106" lon="3.82843">
        <ele>346</ele>
        <time>2021-11-05T09:47:00.000Z</time>
      </trkpt>
      <trkpt lat="47.50097" lon="3.82843">
        <ele>347</ele>
        <time>2021-11-05T09:47:10.000Z</time>
      </trkpt>
      <trkpt lat="47.50086" lon="3.82841">
        <ele>348</ele>
        <time>2021-11-05T09:47:21.000Z</time>
      </trkpt>
      <trkpt lat="47.50079" lon="3.82845">
        <ele>348</ele>
        <time>2021-11-05T09:47:31.000Z</time>
      </trkpt>
      <trkpt lat="47.50078" lon="3.82853">
        <ele>348</ele>
        <time>2021-11-05T09:47:43.000Z</time>
      </trkpt>
      <trkpt lat="47.50077" lon="3.82854">
        <ele>348</ele>
        <time>2021-11-05T09:48:02.000Z</time>
      </trkpt>
      <trkpt lat="47.50077" lon="3.82854">
        <ele>348</ele>
        <time>2021-11-05T09:48:25.000Z</time>
      </trkpt>
      <trkpt lat="47.50076" lon="3.82855">
        <ele>348</ele>
        <time>2021-11-05T09:48:46.000Z</time>
      </trkpt>
      <trkpt lat="47.50076" lon="3.82854">
        <ele>347</ele>
        <time>2021-11-05T09:49:09.000Z</time>
      </trkpt>
      <trkpt lat="47.50076" lon="3.82855">
        <ele>347</ele>
        <time>2021-11-05T09:49:32.000Z</time>
      </trkpt>
      <trkpt lat="47.50075" lon="3.82855">
        <ele>347</ele>
        <time>2021-11-05T09:49:51.000Z</time>
      </trkpt>
      <trkpt lat="47.50075" lon="3.82855">
        <ele>347</ele>
        <time>2021-11-05T09:50:13.000Z</time>
      </trkpt>
      <trkpt lat="47.50073" lon="3.82865">
        <ele>347</ele>
        <time>2021-11-05T09:50:23.000Z</time>
      </trkpt>
      <trkpt lat="47.5007" lon="3.82865">
        <ele>347</ele>
        <time>2021-11-05T09:50:37.000Z</time>
      </trkpt>
      <trkpt lat="47.50071" lon="3.82871">
        <ele>347</ele>
        <time>2021-11-05T09:50:48.000Z</time>
      </trkpt>
      <trkpt lat="47.50072" lon="3.82883">
        <ele>346</ele>
        <time>2021-11-05T09:50:57.000Z</time>
      </trkpt>
      <trkpt lat="47.50073" lon="3.82891">
        <ele>346</ele>
        <time>2021-11-05T09:51:08.000Z</time>
      </trkpt>
      <trkpt lat="47.50077" lon="3.82898">
        <ele>346</ele>
        <time>2021-11-05T09:51:18.000Z</time>
      </trkpt>
      <trkpt lat="47.50081" lon="3.82904">
        <ele>345</ele>
        <time>2021-11-05T09:51:28.000Z</time>
      </trkpt>
      <trkpt lat="47.5008" lon="3.82911">
        <ele>344</ele>
        <time>2021-11-05T09:51:41.000Z</time>
      </trkpt>
      <trkpt lat="47.50085" lon="3.82931">
        <ele>343</ele>
        <time>2021-11-05T09:51:52.000Z</time>
      </trkpt>
      <trkpt lat="47.50095" lon="3.82942">
        <ele>342</ele>
        <time>2021-11-05T09:52:05.000Z</time>
      </trkpt>
      <trkpt lat="47.50097" lon="3.82938">
        <ele>342</ele>
        <time>2021-11-05T09:52:17.000Z</time>
      </trkpt>
      <trkpt lat="47.50098" lon="3.82938">
        <ele>342</ele>
        <time>2021-11-05T09:52:34.000Z</time>
      </trkpt>
      <trkpt lat="47.50101" lon="3.82933">
        <ele>343</ele>
        <time>2021-11-05T09:52:45.000Z</time>
      </trkpt>
      <trkpt lat="47.50107" lon="3.82925">
        <ele>343</ele>
        <time>2021-11-05T09:52:54.000Z</time>
      </trkpt>
      <trkpt lat="47.50116" lon="3.82909">
        <ele>343</ele>
        <time>2021-11-05T09:53:04.000Z</time>
      </trkpt>
      <trkpt lat="47.50119" lon="3.82901">
        <ele>343</ele>
        <time>2021-11-05T09:53:16.000Z</time>
      </trkpt>
      <trkpt lat="47.5012" lon="3.82899">
        <ele>343</ele>
        <time>2021-11-05T09:53:38.000Z</time>
      </trkpt>
      <trkpt lat="47.5012" lon="3.829">
        <ele>343</ele>
        <time>2021-11-05T09:53:51.000Z</time>
      </trkpt>
      <trkpt lat="47.50119" lon="3.82902">
        <ele>342</ele>
        <time>2021-11-05T09:54:03.000Z</time>
      </trkpt>
      <trkpt lat="47.50117" lon="3.82912">
        <ele>342</ele>
        <time>2021-11-05T09:54:15.000Z</time>
      </trkpt>
      <trkpt lat="47.50106" lon="3.82928">
        <ele>342</ele>
        <time>2021-11-05T09:54:26.000Z</time>
      </trkpt>
      <trkpt lat="47.501" lon="3.82932">
        <ele>341</ele>
        <time>2021-11-05T09:54:32.000Z</time>
      </trkpt>
      <trkpt lat="47.50085" lon="3.82942">
        <ele>341</ele>
        <time>2021-11-05T09:54:43.000Z</time>
      </trkpt>
      <trkpt lat="47.50073" lon="3.82944">
        <ele>342</ele>
        <time>2021-11-05T09:54:53.000Z</time>
      </trkpt>
      <trkpt lat="47.50066" lon="3.82942">
        <ele>342</ele>
        <time>2021-11-05T09:54:59.000Z</time>
      </trkpt>
      <trkpt lat="47.50053" lon="3.82931">
        <ele>342</ele>
        <time>2021-11-05T09:55:09.000Z</time>
      </trkpt>
      <trkpt lat="47.50051" lon="3.82929">
        <ele>343</ele>
        <time>2021-11-05T09:55:12.000Z</time>
      </trkpt>
      <trkpt lat="47.50045" lon="3.82926">
        <ele>343</ele>
        <time>2021-11-05T09:55:25.000Z</time>
      </trkpt>
      <trkpt lat="47.50045" lon="3.82927">
        <ele>343</ele>
        <time>2021-11-05T09:55:41.000Z</time>
      </trkpt>
      <trkpt lat="47.50044" lon="3.82928">
        <ele>343</ele>
        <time>2021-11-05T09:55:57.000Z</time>
      </trkpt>
      <trkpt lat="47.50044" lon="3.82928">
        <ele>343</ele>
        <time>2021-11-05T09:56:17.000Z</time>
      </trkpt>
      <trkpt lat="47.50044" lon="3.82928">
        <ele>342</ele>
        <time>2021-11-05T09:56:34.000Z</time>
      </trkpt>
      <trkpt lat="47.50044" lon="3.82928">
        <ele>343</ele>
        <time>2021-11-05T09:56:50.000Z</time>
      </trkpt>
      <trkpt lat="47.50044" lon="3.82927">
        <ele>342</ele>
        <time>2021-11-05T09:57:11.000Z</time>
      </trkpt>
      <trkpt lat="47.50043" lon="3.82921">
        <ele>343</ele>
        <time>2021-11-05T09:57:20.000Z</time>
      </trkpt>
      <trkpt lat="47.5004" lon="3.82905">
        <ele>343</ele>
        <time>2021-11-05T09:57:31.000Z</time>
      </trkpt>
      <trkpt lat="47.50038" lon="3.82892">
        <ele>344</ele>
        <time>2021-11-05T09:57:42.000Z</time>
      </trkpt>
      <trkpt lat="47.50038" lon="3.82892">
        <ele>344</ele>
        <time>2021-11-05T09:57:43.000Z</time>
      </trkpt>
      <trkpt lat="47.50034" lon="3.82874">
        <ele>344</ele>
        <time>2021-11-05T09:57:53.000Z</time>
      </trkpt>
      <trkpt lat="47.50032" lon="3.82875">
        <ele>344</ele>
        <time>2021-11-05T09:58:02.000Z</time>
      </trkpt>
      <trkpt lat="47.50032" lon="3.82875">
        <ele>344</ele>
        <time>2021-11-05T09:58:18.000Z</time>
      </trkpt>
      <trkpt lat="47.50032" lon="3.82875">
        <ele>343</ele>
        <time>2021-11-05T09:58:39.000Z</time>
      </trkpt>
      <trkpt lat="47.5003" lon="3.82878">
        <ele>342</ele>
        <time>2021-11-05T09:58:51.000Z</time>
      </trkpt>
      <trkpt lat="47.50026" lon="3.82875">
        <ele>341</ele>
        <time>2021-11-05T09:59:00.000Z</time>
      </trkpt>
      <trkpt lat="47.50025" lon="3.82875">
        <ele>340</ele>
        <time>2021-11-05T09:59:12.000Z</time>
      </trkpt>
      <trkpt lat="47.50021" lon="3.82875">
        <ele>338</ele>
        <time>2021-11-05T09:59:26.000Z</time>
      </trkpt>
      <trkpt lat="47.5001" lon="3.82869">
        <ele>336</ele>
        <time>2021-11-05T09:59:37.000Z</time>
      </trkpt>
      <trkpt lat="47.50008" lon="3.82862">
        <ele>335</ele>
        <time>2021-11-05T09:59:46.000Z</time>
      </trkpt>
      <trkpt lat="47.50005" lon="3.82857">
        <ele>334</ele>
        <time>2021-11-05T09:59:55.000Z</time>
      </trkpt>
      <trkpt lat="47.5" lon="3.82848">
        <ele>333</ele>
        <time>2021-11-05T10:00:04.000Z</time>
      </trkpt>
      <trkpt lat="47.4999" lon="3.82843">
        <ele>331</ele>
        <time>2021-11-05T10:00:16.000Z</time>
      </trkpt>
      <trkpt lat="47.49984" lon="3.82837">
        <ele>329</ele>
        <time>2021-11-05T10:00:25.000Z</time>
      </trkpt>
      <trkpt lat="47.49977" lon="3.82824">
        <ele>328</ele>
        <time>2021-11-05T10:00:37.000Z</time>
      </trkpt>
      <trkpt lat="47.49972" lon="3.82808">
        <ele>327</ele>
        <time>2021-11-05T10:00:48.000Z</time>
      </trkpt>
      <trkpt lat="47.49968" lon="3.82793">
        <ele>326</ele>
        <time>2021-11-05T10:00:59.000Z</time>
      </trkpt>
      <trkpt lat="47.49963" lon="3.8278">
        <ele>325</ele>
        <time>2021-11-05T10:01:12.000Z</time>
      </trkpt>
      <trkpt lat="47.49959" lon="3.82773">
        <ele>325</ele>
        <time>2021-11-05T10:01:22.000Z</time>
      </trkpt>
      <trkpt lat="47.49959" lon="3.82771">
        <ele>325</ele>
        <time>2021-11-05T10:01:43.000Z</time>
      </trkpt>
      <trkpt lat="47.49959" lon="3.82771">
        <ele>325</ele>
        <time>2021-11-05T10:02:00.000Z</time>
      </trkpt>
      <trkpt lat="47.49958" lon="3.82771">
        <ele>325</ele>
        <time>2021-11-05T10:02:27.000Z</time>
      </trkpt>
      <trkpt lat="47.49957" lon="3.8277">
        <ele>325</ele>
        <time>2021-11-05T10:02:51.000Z</time>
      </trkpt>
      <trkpt lat="47.49957" lon="3.82769">
        <ele>326</ele>
        <time>2021-11-05T10:03:13.000Z</time>
      </trkpt>
      <trkpt lat="47.49954" lon="3.82764">
        <ele>325</ele>
        <time>2021-11-05T10:03:23.000Z</time>
      </trkpt>
      <trkpt lat="47.49954" lon="3.82762">
        <ele>324</ele>
        <time>2021-11-05T10:03:39.000Z</time>
      </trkpt>
      <trkpt lat="47.49954" lon="3.82761">
        <ele>324</ele>
        <time>2021-11-05T10:03:55.000Z</time>
      </trkpt>
      <trkpt lat="47.49951" lon="3.82746">
        <ele>323</ele>
        <time>2021-11-05T10:04:05.000Z</time>
      </trkpt>
      <trkpt lat="47.49953" lon="3.82734">
        <ele>322</ele>
        <time>2021-11-05T10:04:16.000Z</time>
      </trkpt>
      <trkpt lat="47.4996" lon="3.82719">
        <ele>322</ele>
        <time>2021-11-05T10:04:28.000Z</time>
      </trkpt>
      <trkpt lat="47.49969" lon="3.82706">
        <ele>323</ele>
        <time>2021-11-05T10:04:38.000Z</time>
      </trkpt>
      <trkpt lat="47.49975" lon="3.82696">
        <ele>322</ele>
        <time>2021-11-05T10:04:47.000Z</time>
      </trkpt>
      <trkpt lat="47.49983" lon="3.82688">
        <ele>322</ele>
        <time>2021-11-05T10:04:56.000Z</time>
      </trkpt>
      <trkpt lat="47.49995" lon="3.82684">
        <ele>322</ele>
        <time>2021-11-05T10:05:07.000Z</time>
      </trkpt>
      <trkpt lat="47.5" lon="3.8268">
        <ele>322</ele>
        <time>2021-11-05T10:05:15.000Z</time>
      </trkpt>
      <trkpt lat="47.50009" lon="3.82676">
        <ele>321</ele>
        <time>2021-11-05T10:05:24.000Z</time>
      </trkpt>
      <trkpt lat="47.50014" lon="3.82654">
        <ele>320</ele>
        <time>2021-11-05T10:05:34.000Z</time>
      </trkpt>
      <trkpt lat="47.50016" lon="3.82646">
        <ele>320</ele>
        <time>2021-11-05T10:05:43.000Z</time>
      </trkpt>
      <trkpt lat="47.50012" lon="3.8263">
        <ele>318</ele>
        <time>2021-11-05T10:05:52.000Z</time>
      </trkpt>
      <trkpt lat="47.50011" lon="3.82612">
        <ele>316</ele>
        <time>2021-11-05T10:06:04.000Z</time>
      </trkpt>
      <trkpt lat="47.50004" lon="3.82599">
        <ele>315</ele>
        <time>2021-11-05T10:06:16.000Z</time>
      </trkpt>
      <trkpt lat="47.49995" lon="3.8258">
        <ele>314</ele>
        <time>2021-11-05T10:06:30.000Z</time>
      </trkpt>
      <trkpt lat="47.49992" lon="3.82573">
        <ele>313</ele>
        <time>2021-11-05T10:06:42.000Z</time>
      </trkpt>
      <trkpt lat="47.4999" lon="3.8257">
        <ele>311</ele>
        <time>2021-11-05T10:06:52.000Z</time>
      </trkpt>
      <trkpt lat="47.4999" lon="3.82554">
        <ele>310</ele>
        <time>2021-11-05T10:07:03.000Z</time>
      </trkpt>
      <trkpt lat="47.49991" lon="3.8255">
        <ele>309</ele>
        <time>2021-11-05T10:07:19.000Z</time>
      </trkpt>
      <trkpt lat="47.49991" lon="3.82536">
        <ele>308</ele>
        <time>2021-11-05T10:07:30.000Z</time>
      </trkpt>
      <trkpt lat="47.49996" lon="3.82517">
        <ele>306</ele>
        <time>2021-11-05T10:07:42.000Z</time>
      </trkpt>
      <trkpt lat="47.50007" lon="3.82495">
        <ele>304</ele>
        <time>2021-11-05T10:07:54.000Z</time>
      </trkpt>
      <trkpt lat="47.50009" lon="3.8249">
        <ele>304</ele>
        <time>2021-11-05T10:07:56.000Z</time>
      </trkpt>
      <trkpt lat="47.50012" lon="3.82476">
        <ele>302</ele>
        <time>2021-11-05T10:08:08.000Z</time>
      </trkpt>
      <trkpt lat="47.50013" lon="3.82471">
        <ele>302</ele>
        <time>2021-11-05T10:08:13.000Z</time>
      </trkpt>
      <trkpt lat="47.50013" lon="3.82462">
        <ele>300</ele>
        <time>2021-11-05T10:08:23.000Z</time>
      </trkpt>
      <trkpt lat="47.50014" lon="3.82448">
        <ele>298</ele>
        <time>2021-11-05T10:08:32.000Z</time>
      </trkpt>
      <trkpt lat="47.50013" lon="3.82434">
        <ele>297</ele>
        <time>2021-11-05T10:08:42.000Z</time>
      </trkpt>
      <trkpt lat="47.50013" lon="3.82432">
        <ele>296</ele>
        <time>2021-11-05T10:08:43.000Z</time>
      </trkpt>
      <trkpt lat="47.50015" lon="3.8241">
        <ele>295</ele>
        <time>2021-11-05T10:08:54.000Z</time>
      </trkpt>
      <trkpt lat="47.50016" lon="3.82394">
        <ele>294</ele>
        <time>2021-11-05T10:09:02.000Z</time>
      </trkpt>
      <trkpt lat="47.50017" lon="3.82375">
        <ele>293</ele>
        <time>2021-11-05T10:09:10.000Z</time>
      </trkpt>
      <trkpt lat="47.50018" lon="3.82363">
        <ele>292</ele>
        <time>2021-11-05T10:09:17.000Z</time>
      </trkpt>
      <trkpt lat="47.50018" lon="3.82353">
        <ele>291</ele>
        <time>2021-11-05T10:09:25.000Z</time>
      </trkpt>
      <trkpt lat="47.50019" lon="3.82344">
        <ele>291</ele>
        <time>2021-11-05T10:09:33.000Z</time>
      </trkpt>
      <trkpt lat="47.50021" lon="3.82337">
        <ele>290</ele>
        <time>2021-11-05T10:09:38.000Z</time>
      </trkpt>
      <trkpt lat="47.50022" lon="3.82333">
        <ele>290</ele>
        <time>2021-11-05T10:09:40.000Z</time>
      </trkpt>
      <trkpt lat="47.50024" lon="3.8231">
        <ele>290</ele>
        <time>2021-11-05T10:09:51.000Z</time>
      </trkpt>
      <trkpt lat="47.50023" lon="3.82311">
        <ele>290</ele>
        <time>2021-11-05T10:11:00.000Z</time>
      </trkpt>
      <trkpt lat="47.50024" lon="3.8231">
        <ele>290</ele>
        <time>2021-11-05T10:11:25.000Z</time>
      </trkpt>
      <trkpt lat="47.50024" lon="3.82308">
        <ele>291</ele>
        <time>2021-11-05T10:11:52.000Z</time>
      </trkpt>
      <trkpt lat="47.50025" lon="3.82307">
        <ele>290</ele>
        <time>2021-11-05T10:12:19.000Z</time>
      </trkpt>
      <trkpt lat="47.50025" lon="3.82306">
        <ele>291</ele>
        <time>2021-11-05T10:12:49.000Z</time>
      </trkpt>
      <trkpt lat="47.50025" lon="3.82306">
        <ele>291</ele>
        <time>2021-11-05T10:13:12.000Z</time>
      </trkpt>
      <trkpt lat="47.50023" lon="3.82305">
        <ele>291</ele>
        <time>2021-11-05T10:13:28.000Z</time>
      </trkpt>
      <trkpt lat="47.50019" lon="3.82293">
        <ele>291</ele>
        <time>2021-11-05T10:13:39.000Z</time>
      </trkpt>
      <trkpt lat="47.50014" lon="3.82286">
        <ele>291</ele>
        <time>2021-11-05T10:13:50.000Z</time>
      </trkpt>
      <trkpt lat="47.50014" lon="3.82287">
        <ele>291</ele>
        <time>2021-11-05T10:14:04.000Z</time>
      </trkpt>
      <trkpt lat="47.50011" lon="3.82286">
        <ele>291</ele>
        <time>2021-11-05T10:14:19.000Z</time>
      </trkpt>
      <trkpt lat="47.50002" lon="3.82278">
        <ele>291</ele>
        <time>2021-11-05T10:14:32.000Z</time>
      </trkpt>
      <trkpt lat="47.49995" lon="3.82272">
        <ele>290</ele>
        <time>2021-11-05T10:14:39.000Z</time>
      </trkpt>
      <trkpt lat="47.49986" lon="3.82259">
        <ele>291</ele>
        <time>2021-11-05T10:14:49.000Z</time>
      </trkpt>
      <trkpt lat="47.49983" lon="3.82256">
        <ele>290</ele>
        <time>2021-11-05T10:14:56.000Z</time>
      </trkpt>
      <trkpt lat="47.49979" lon="3.82249">
        <ele>290</ele>
        <time>2021-11-05T10:15:07.000Z</time>
      </trkpt>
      <trkpt lat="47.49976" lon="3.82244">
        <ele>290</ele>
        <time>2021-11-05T10:15:17.000Z</time>
      </trkpt>
      <trkpt lat="47.49968" lon="3.82232">
        <ele>290</ele>
        <time>2021-11-05T10:15:30.000Z</time>
      </trkpt>
      <trkpt lat="47.49963" lon="3.82227">
        <ele>290</ele>
        <time>2021-11-05T10:15:45.000Z</time>
      </trkpt>
      <trkpt lat="47.4995" lon="3.82223">
        <ele>289</ele>
        <time>2021-11-05T10:16:00.000Z</time>
      </trkpt>
      <trkpt lat="47.49941" lon="3.82222">
        <ele>289</ele>
        <time>2021-11-05T10:16:11.000Z</time>
      </trkpt>
      <trkpt lat="47.49937" lon="3.82219">
        <ele>289</ele>
        <time>2021-11-05T10:16:27.000Z</time>
      </trkpt>
      <trkpt lat="47.49934" lon="3.82219">
        <ele>289</ele>
        <time>2021-11-05T10:16:39.000Z</time>
      </trkpt>
      <trkpt lat="47.49928" lon="3.82214">
        <ele>288</ele>
        <time>2021-11-05T10:16:51.000Z</time>
      </trkpt>
      <trkpt lat="47.49917" lon="3.82202">
        <ele>287</ele>
        <time>2021-11-05T10:17:04.000Z</time>
      </trkpt>
      <trkpt lat="47.49905" lon="3.82188">
        <ele>286</ele>
        <time>2021-11-05T10:17:18.000Z</time>
      </trkpt>
      <trkpt lat="47.49896" lon="3.82178">
        <ele>285</ele>
        <time>2021-11-05T10:17:31.000Z</time>
      </trkpt>
      <trkpt lat="47.4989" lon="3.82171">
        <ele>284</ele>
        <time>2021-11-05T10:17:40.000Z</time>
      </trkpt>
      <trkpt lat="47.49877" lon="3.82153">
        <ele>283</ele>
        <time>2021-11-05T10:17:53.000Z</time>
      </trkpt>
      <trkpt lat="47.49865" lon="3.82145">
        <ele>283</ele>
        <time>2021-11-05T10:18:06.000Z</time>
      </trkpt>
      <trkpt lat="47.49851" lon="3.82134">
        <ele>282</ele>
        <time>2021-11-05T10:18:19.000Z</time>
      </trkpt>
      <trkpt lat="47.49841" lon="3.82126">
        <ele>281</ele>
        <time>2021-11-05T10:18:32.000Z</time>
      </trkpt>
      <trkpt lat="47.49832" lon="3.82112">
        <ele>280</ele>
        <time>2021-11-05T10:18:43.000Z</time>
      </trkpt>
      <trkpt lat="47.49822" lon="3.82101">
        <ele>279</ele>
        <time>2021-11-05T10:18:53.000Z</time>
      </trkpt>
      <trkpt lat="47.49818" lon="3.82095">
        <ele>279</ele>
        <time>2021-11-05T10:19:04.000Z</time>
      </trkpt>
      <trkpt lat="47.4981" lon="3.82082">
        <ele>278</ele>
        <time>2021-11-05T10:19:14.000Z</time>
      </trkpt>
      <trkpt lat="47.49803" lon="3.82075">
        <ele>278</ele>
        <time>2021-11-05T10:19:23.000Z</time>
      </trkpt>
      <trkpt lat="47.49796" lon="3.82065">
        <ele>277</ele>
        <time>2021-11-05T10:19:33.000Z</time>
      </trkpt>
      <trkpt lat="47.49785" lon="3.82052">
        <ele>277</ele>
        <time>2021-11-05T10:19:45.000Z</time>
      </trkpt>
      <trkpt lat="47.49783" lon="3.82048">
        <ele>277</ele>
        <time>2021-11-05T10:19:48.000Z</time>
      </trkpt>
      <trkpt lat="47.49772" lon="3.82035">
        <ele>277</ele>
        <time>2021-11-05T10:19:58.000Z</time>
      </trkpt>
      <trkpt lat="47.49762" lon="3.82025">
        <ele>276</ele>
        <time>2021-11-05T10:20:10.000Z</time>
      </trkpt>
      <trkpt lat="47.49754" lon="3.82014">
        <ele>275</ele>
        <time>2021-11-05T10:20:18.000Z</time>
      </trkpt>
      <trkpt lat="47.49742" lon="3.81994">
        <ele>275</ele>
        <time>2021-11-05T10:20:31.000Z</time>
      </trkpt>
      <trkpt lat="47.49737" lon="3.81986">
        <ele>275</ele>
        <time>2021-11-05T10:20:38.000Z</time>
      </trkpt>
      <trkpt lat="47.4973" lon="3.81977">
        <ele>274</ele>
        <time>2021-11-05T10:20:45.000Z</time>
      </trkpt>
      <trkpt lat="47.49725" lon="3.8197">
        <ele>274</ele>
        <time>2021-11-05T10:20:51.000Z</time>
      </trkpt>
      <trkpt lat="47.49715" lon="3.81963">
        <ele>274</ele>
        <time>2021-11-05T10:21:01.000Z</time>
      </trkpt>
      <trkpt lat="47.4971" lon="3.81957">
        <ele>274</ele>
        <time>2021-11-05T10:21:07.000Z</time>
      </trkpt>
      <trkpt lat="47.49701" lon="3.81946">
        <ele>274</ele>
        <time>2021-11-05T10:21:17.000Z</time>
      </trkpt>
      <trkpt lat="47.49695" lon="3.81939">
        <ele>274</ele>
        <time>2021-11-05T10:21:25.000Z</time>
      </trkpt>
      <trkpt lat="47.49688" lon="3.8193">
        <ele>274</ele>
        <time>2021-11-05T10:21:33.000Z</time>
      </trkpt>
      <trkpt lat="47.49674" lon="3.81916">
        <ele>274</ele>
        <time>2021-11-05T10:21:47.000Z</time>
      </trkpt>
      <trkpt lat="47.49671" lon="3.81912">
        <ele>274</ele>
        <time>2021-11-05T10:21:50.000Z</time>
      </trkpt>
      <trkpt lat="47.49661" lon="3.81901">
        <ele>274</ele>
        <time>2021-11-05T10:22:01.000Z</time>
      </trkpt>
      <trkpt lat="47.49656" lon="3.81896">
        <ele>274</ele>
        <time>2021-11-05T10:22:06.000Z</time>
      </trkpt>
      <trkpt lat="47.49644" lon="3.81881">
        <ele>274</ele>
        <time>2021-11-05T10:22:17.000Z</time>
      </trkpt>
      <trkpt lat="47.49636" lon="3.81869">
        <ele>274</ele>
        <time>2021-11-05T10:22:26.000Z</time>
      </trkpt>
      <trkpt lat="47.49629" lon="3.81854">
        <ele>273</ele>
        <time>2021-11-05T10:22:36.000Z</time>
      </trkpt>
      <trkpt lat="47.49623" lon="3.81837">
        <ele>273</ele>
        <time>2021-11-05T10:22:48.000Z</time>
      </trkpt>
      <trkpt lat="47.49624" lon="3.81829">
        <ele>272</ele>
        <time>2021-11-05T10:22:58.000Z</time>
      </trkpt>
      <trkpt lat="47.49624" lon="3.81828">
        <ele>272</ele>
        <time>2021-11-05T10:23:08.000Z</time>
      </trkpt>
      <trkpt lat="47.49621" lon="3.81827">
        <ele>272</ele>
        <time>2021-11-05T10:23:11.000Z</time>
      </trkpt>
      <trkpt lat="47.49618" lon="3.81826">
        <ele>272</ele>
        <time>2021-11-05T10:23:14.000Z</time>
      </trkpt>
      <trkpt lat="47.49613" lon="3.81817">
        <ele>272</ele>
        <time>2021-11-05T10:23:20.000Z</time>
      </trkpt>
      <trkpt lat="47.49607" lon="3.81804">
        <ele>272</ele>
        <time>2021-11-05T10:23:28.000Z</time>
      </trkpt>
      <trkpt lat="47.49603" lon="3.81794">
        <ele>271</ele>
        <time>2021-11-05T10:23:34.000Z</time>
      </trkpt>
      <trkpt lat="47.49599" lon="3.81785">
        <ele>271</ele>
        <time>2021-11-05T10:23:39.000Z</time>
      </trkpt>
      <trkpt lat="47.49588" lon="3.81768">
        <ele>270</ele>
        <time>2021-11-05T10:23:52.000Z</time>
      </trkpt>
      <trkpt lat="47.49583" lon="3.81762">
        <ele>269</ele>
        <time>2021-11-05T10:23:58.000Z</time>
      </trkpt>
      <trkpt lat="47.49578" lon="3.81757">
        <ele>269</ele>
        <time>2021-11-05T10:24:02.000Z</time>
      </trkpt>
      <trkpt lat="47.49567" lon="3.81743">
        <ele>268</ele>
        <time>2021-11-05T10:24:14.000Z</time>
      </trkpt>
      <trkpt lat="47.49565" lon="3.8174">
        <ele>268</ele>
        <time>2021-11-05T10:24:16.000Z</time>
      </trkpt>
      <trkpt lat="47.49557" lon="3.81731">
        <ele>267</ele>
        <time>2021-11-05T10:24:25.000Z</time>
      </trkpt>
      <trkpt lat="47.49547" lon="3.81719">
        <ele>266</ele>
        <time>2021-11-05T10:24:36.000Z</time>
      </trkpt>
      <trkpt lat="47.49543" lon="3.81715">
        <ele>265</ele>
        <time>2021-11-05T10:24:41.000Z</time>
      </trkpt>
      <trkpt lat="47.49541" lon="3.81714">
        <ele>265</ele>
        <time>2021-11-05T10:24:43.000Z</time>
      </trkpt>
      <trkpt lat="47.49538" lon="3.81709">
        <ele>265</ele>
        <time>2021-11-05T10:24:47.000Z</time>
      </trkpt>
      <trkpt lat="47.49534" lon="3.81704">
        <ele>265</ele>
        <time>2021-11-05T10:24:52.000Z</time>
      </trkpt>
      <trkpt lat="47.49531" lon="3.81702">
        <ele>265</ele>
        <time>2021-11-05T10:24:56.000Z</time>
      </trkpt>
      <trkpt lat="47.49523" lon="3.81694">
        <ele>265</ele>
        <time>2021-11-05T10:25:06.000Z</time>
      </trkpt>
      <trkpt lat="47.49518" lon="3.81689">
        <ele>264</ele>
        <time>2021-11-05T10:25:13.000Z</time>
      </trkpt>
      <trkpt lat="47.49514" lon="3.81682">
        <ele>264</ele>
        <time>2021-11-05T10:25:18.000Z</time>
      </trkpt>
      <trkpt lat="47.49505" lon="3.81674">
        <ele>263</ele>
        <time>2021-11-05T10:25:29.000Z</time>
      </trkpt>
      <trkpt lat="47.49496" lon="3.81664">
        <ele>262</ele>
        <time>2021-11-05T10:25:39.000Z</time>
      </trkpt>
      <trkpt lat="47.49487" lon="3.81653">
        <ele>262</ele>
        <time>2021-11-05T10:25:49.000Z</time>
      </trkpt>
      <trkpt lat="47.49482" lon="3.81648">
        <ele>262</ele>
        <time>2021-11-05T10:25:54.000Z</time>
      </trkpt>
      <trkpt lat="47.49481" lon="3.81646">
        <ele>262</ele>
        <time>2021-11-05T10:25:56.000Z</time>
      </trkpt>
      <trkpt lat="47.49473" lon="3.81639">
        <ele>262</ele>
        <time>2021-11-05T10:26:05.000Z</time>
      </trkpt>
      <trkpt lat="47.49464" lon="3.81628">
        <ele>261</ele>
        <time>2021-11-05T10:26:14.000Z</time>
      </trkpt>
      <trkpt lat="47.49459" lon="3.81625">
        <ele>261</ele>
        <time>2021-11-05T10:26:18.000Z</time>
      </trkpt>
      <trkpt lat="47.49454" lon="3.81622">
        <ele>261</ele>
        <time>2021-11-05T10:26:22.000Z</time>
      </trkpt>
      <trkpt lat="47.49447" lon="3.81617">
        <ele>261</ele>
        <time>2021-11-05T10:26:32.000Z</time>
      </trkpt>
      <trkpt lat="47.49445" lon="3.81615">
        <ele>261</ele>
        <time>2021-11-05T10:26:35.000Z</time>
      </trkpt>
      <trkpt lat="47.49437" lon="3.81607">
        <ele>261</ele>
        <time>2021-11-05T10:26:46.000Z</time>
      </trkpt>
      <trkpt lat="47.49428" lon="3.816">
        <ele>261</ele>
        <time>2021-11-05T10:26:57.000Z</time>
      </trkpt>
      <trkpt lat="47.49422" lon="3.81596">
        <ele>261</ele>
        <time>2021-11-05T10:27:05.000Z</time>
      </trkpt>
      <trkpt lat="47.4942" lon="3.81596">
        <ele>261</ele>
        <time>2021-11-05T10:27:17.000Z</time>
      </trkpt>
      <trkpt lat="47.4942" lon="3.81595">
        <ele>261</ele>
        <time>2021-11-05T10:27:18.000Z</time>
      </trkpt>
      <trkpt lat="47.49417" lon="3.81593">
        <ele>261</ele>
        <time>2021-11-05T10:27:22.000Z</time>
      </trkpt>
      <trkpt lat="47.49412" lon="3.81587">
        <ele>261</ele>
        <time>2021-11-05T10:27:31.000Z</time>
      </trkpt>
      <trkpt lat="47.49412" lon="3.81587">
        <ele>261</ele>
        <time>2021-11-05T10:27:37.000Z</time>
      </trkpt>
      <trkpt lat="47.49411" lon="3.81585">
        <ele>261</ele>
        <time>2021-11-05T10:27:40.000Z</time>
      </trkpt>
      <trkpt lat="47.49409" lon="3.81584">
        <ele>261</ele>
        <time>2021-11-05T10:27:42.000Z</time>
      </trkpt>
      <trkpt lat="47.49407" lon="3.81581">
        <ele>261</ele>
        <time>2021-11-05T10:27:45.000Z</time>
      </trkpt>
      <trkpt lat="47.49403" lon="3.81578">
        <ele>261</ele>
        <time>2021-11-05T10:27:49.000Z</time>
      </trkpt>
      <trkpt lat="47.49398" lon="3.81573">
        <ele>261</ele>
        <time>2021-11-05T10:28:00.000Z</time>
      </trkpt>
      <trkpt lat="47.49396" lon="3.81571">
        <ele>261</ele>
        <time>2021-11-05T10:28:03.000Z</time>
      </trkpt>
      <trkpt lat="47.49395" lon="3.8157">
        <ele>261</ele>
        <time>2021-11-05T10:28:05.000Z</time>
      </trkpt>
      <trkpt lat="47.49389" lon="3.81564">
        <ele>261</ele>
        <time>2021-11-05T10:28:15.000Z</time>
      </trkpt>
      <trkpt lat="47.49389" lon="3.81564">
        <ele>261</ele>
        <time>2021-11-05T10:28:30.000Z</time>
      </trkpt>
      <trkpt lat="47.49388" lon="3.81563">
        <ele>261</ele>
        <time>2021-11-05T10:28:42.000Z</time>
      </trkpt>
      <trkpt lat="47.49387" lon="3.81562">
        <ele>261</ele>
        <time>2021-11-05T10:28:44.000Z</time>
      </trkpt>
      <trkpt lat="47.49382" lon="3.81559">
        <ele>261</ele>
        <time>2021-11-05T10:28:49.000Z</time>
      </trkpt>
      <trkpt lat="47.49373" lon="3.81551">
        <ele>260</ele>
        <time>2021-11-05T10:28:58.000Z</time>
      </trkpt>
      <trkpt lat="47.49361" lon="3.8154">
        <ele>260</ele>
        <time>2021-11-05T10:29:09.000Z</time>
      </trkpt>
      <trkpt lat="47.49349" lon="3.81529">
        <ele>260</ele>
        <time>2021-11-05T10:29:20.000Z</time>
      </trkpt>
      <trkpt lat="47.49345" lon="3.81526">
        <ele>259</ele>
        <time>2021-11-05T10:29:24.000Z</time>
      </trkpt>
      <trkpt lat="47.49341" lon="3.81523">
        <ele>259</ele>
        <time>2021-11-05T10:29:28.000Z</time>
      </trkpt>
      <trkpt lat="47.49339" lon="3.8152">
        <ele>259</ele>
        <time>2021-11-05T10:29:31.000Z</time>
      </trkpt>
      <trkpt lat="47.49334" lon="3.81517">
        <ele>259</ele>
        <time>2021-11-05T10:29:36.000Z</time>
      </trkpt>
      <trkpt lat="47.49327" lon="3.81512">
        <ele>259</ele>
        <time>2021-11-05T10:29:46.000Z</time>
      </trkpt>
      <trkpt lat="47.49327" lon="3.81509">
        <ele>259</ele>
        <time>2021-11-05T10:29:56.000Z</time>
      </trkpt>
      <trkpt lat="47.49326" lon="3.81506">
        <ele>259</ele>
        <time>2021-11-05T10:30:06.000Z</time>
      </trkpt>
      <trkpt lat="47.49326" lon="3.81503">
        <ele>259</ele>
        <time>2021-11-05T10:30:11.000Z</time>
      </trkpt>
      <trkpt lat="47.49324" lon="3.81479">
        <ele>258</ele>
        <time>2021-11-05T10:30:25.000Z</time>
      </trkpt>
      <trkpt lat="47.49322" lon="3.81462">
        <ele>258</ele>
        <time>2021-11-05T10:30:34.000Z</time>
      </trkpt>
      <trkpt lat="47.49322" lon="3.81441">
        <ele>258</ele>
        <time>2021-11-05T10:30:46.000Z</time>
      </trkpt>
      <trkpt lat="47.49319" lon="3.81419">
        <ele>258</ele>
        <time>2021-11-05T10:30:59.000Z</time>
      </trkpt>
      <trkpt lat="47.49318" lon="3.814">
        <ele>258</ele>
        <time>2021-11-05T10:31:10.000Z</time>
      </trkpt>
      <trkpt lat="47.49316" lon="3.81381">
        <ele>257</ele>
        <time>2021-11-05T10:31:22.000Z</time>
      </trkpt>
      <trkpt lat="47.49316" lon="3.81373">
        <ele>257</ele>
        <time>2021-11-05T10:31:28.000Z</time>
      </trkpt>
      <trkpt lat="47.49314" lon="3.81351">
        <ele>256</ele>
        <time>2021-11-05T10:31:41.000Z</time>
      </trkpt>
      <trkpt lat="47.49314" lon="3.81332">
        <ele>255</ele>
        <time>2021-11-05T10:31:52.000Z</time>
      </trkpt>
      <trkpt lat="47.49314" lon="3.81312">
        <ele>255</ele>
        <time>2021-11-05T10:32:02.000Z</time>
      </trkpt>
      <trkpt lat="47.49316" lon="3.81297">
        <ele>254</ele>
        <time>2021-11-05T10:32:13.000Z</time>
      </trkpt>
      <trkpt lat="47.49317" lon="3.81297">
        <ele>254</ele>
        <time>2021-11-05T10:32:26.000Z</time>
      </trkpt>
      <trkpt lat="47.49316" lon="3.81295">
        <ele>254</ele>
        <time>2021-11-05T10:32:42.000Z</time>
      </trkpt>
      <trkpt lat="47.49315" lon="3.81294">
        <ele>254</ele>
        <time>2021-11-05T10:32:43.000Z</time>
      </trkpt>
      <trkpt lat="47.49316" lon="3.81274">
        <ele>254</ele>
        <time>2021-11-05T10:32:54.000Z</time>
      </trkpt>
      <trkpt lat="47.49317" lon="3.81267">
        <ele>253</ele>
        <time>2021-11-05T10:32:58.000Z</time>
      </trkpt>
      <trkpt lat="47.49315" lon="3.81248">
        <ele>252</ele>
        <time>2021-11-05T10:33:08.000Z</time>
      </trkpt>
      <trkpt lat="47.49311" lon="3.81225">
        <ele>250</ele>
        <time>2021-11-05T10:33:20.000Z</time>
      </trkpt>
      <trkpt lat="47.49308" lon="3.81206">
        <ele>249</ele>
        <time>2021-11-05T10:33:31.000Z</time>
      </trkpt>
      <trkpt lat="47.49306" lon="3.81189">
        <ele>247</ele>
        <time>2021-11-05T10:33:42.000Z</time>
      </trkpt>
      <trkpt lat="47.49305" lon="3.81173">
        <ele>246</ele>
        <time>2021-11-05T10:33:51.000Z</time>
      </trkpt>
      <trkpt lat="47.49305" lon="3.81154">
        <ele>244</ele>
        <time>2021-11-05T10:34:02.000Z</time>
      </trkpt>
      <trkpt lat="47.49307" lon="3.81135">
        <ele>242</ele>
        <time>2021-11-05T10:34:13.000Z</time>
      </trkpt>
      <trkpt lat="47.49307" lon="3.81113">
        <ele>240</ele>
        <time>2021-11-05T10:34:25.000Z</time>
      </trkpt>
      <trkpt lat="47.49307" lon="3.81112">
        <ele>240</ele>
        <time>2021-11-05T10:34:26.000Z</time>
      </trkpt>
      <trkpt lat="47.49307" lon="3.81108">
        <ele>240</ele>
        <time>2021-11-05T10:34:29.000Z</time>
      </trkpt>
      <trkpt lat="47.49309" lon="3.81089">
        <ele>238</ele>
        <time>2021-11-05T10:34:40.000Z</time>
      </trkpt>
      <trkpt lat="47.49313" lon="3.81077">
        <ele>236</ele>
        <time>2021-11-05T10:34:48.000Z</time>
      </trkpt>
      <trkpt lat="47.49313" lon="3.81074">
        <ele>235</ele>
        <time>2021-11-05T10:34:50.000Z</time>
      </trkpt>
      <trkpt lat="47.49317" lon="3.81058">
        <ele>232</ele>
        <time>2021-11-05T10:35:01.000Z</time>
      </trkpt>
      <trkpt lat="47.49319" lon="3.81043">
        <ele>231</ele>
        <time>2021-11-05T10:35:12.000Z</time>
      </trkpt>
      <trkpt lat="47.49318" lon="3.81039">
        <ele>231</ele>
        <time>2021-11-05T10:35:22.000Z</time>
      </trkpt>
      <trkpt lat="47.49316" lon="3.8104">
        <ele>230</ele>
        <time>2021-11-05T10:35:33.000Z</time>
      </trkpt>
      <trkpt lat="47.49311" lon="3.81039">
        <ele>229</ele>
        <time>2021-11-05T10:35:44.000Z</time>
      </trkpt>
      <trkpt lat="47.49305" lon="3.81032">
        <ele>228</ele>
        <time>2021-11-05T10:35:54.000Z</time>
      </trkpt>
      <trkpt lat="47.49303" lon="3.8103">
        <ele>228</ele>
        <time>2021-11-05T10:36:05.000Z</time>
      </trkpt>
      <trkpt lat="47.49303" lon="3.81031">
        <ele>228</ele>
        <time>2021-11-05T10:36:26.000Z</time>
      </trkpt>
      <trkpt lat="47.49303" lon="3.81032">
        <ele>228</ele>
        <time>2021-11-05T10:36:47.000Z</time>
      </trkpt>
      <trkpt lat="47.49302" lon="3.81032">
        <ele>228</ele>
        <time>2021-11-05T10:37:05.000Z</time>
      </trkpt>
      <trkpt lat="47.49287" lon="3.81023">
        <ele>226</ele>
        <time>2021-11-05T10:37:19.000Z</time>
      </trkpt>
      <trkpt lat="47.49274" lon="3.81015">
        <ele>223</ele>
        <time>2021-11-05T10:37:32.000Z</time>
      </trkpt>
      <trkpt lat="47.49267" lon="3.81011">
        <ele>222</ele>
        <time>2021-11-05T10:37:43.000Z</time>
      </trkpt>
      <trkpt lat="47.49266" lon="3.8101">
        <ele>222</ele>
        <time>2021-11-05T10:37:45.000Z</time>
      </trkpt>
      <trkpt lat="47.49262" lon="3.81007">
        <ele>221</ele>
        <time>2021-11-05T10:37:49.000Z</time>
      </trkpt>
      <trkpt lat="47.49251" lon="3.80998">
        <ele>219</ele>
        <time>2021-11-05T10:37:59.000Z</time>
      </trkpt>
      <trkpt lat="47.49239" lon="3.80991">
        <ele>217</ele>
        <time>2021-11-05T10:38:10.000Z</time>
      </trkpt>
      <trkpt lat="47.49229" lon="3.80987">
        <ele>215</ele>
        <time>2021-11-05T10:38:20.000Z</time>
      </trkpt>
      <trkpt lat="47.49226" lon="3.80985">
        <ele>215</ele>
        <time>2021-11-05T10:38:24.000Z</time>
      </trkpt>
      <trkpt lat="47.49215" lon="3.80981">
        <ele>213</ele>
        <time>2021-11-05T10:38:33.000Z</time>
      </trkpt>
      <trkpt lat="47.49206" lon="3.80979">
        <ele>212</ele>
        <time>2021-11-05T10:38:41.000Z</time>
      </trkpt>
      <trkpt lat="47.49201" lon="3.80977">
        <ele>212</ele>
        <time>2021-11-05T10:38:48.000Z</time>
      </trkpt>
      <trkpt lat="47.49198" lon="3.80978">
        <ele>211</ele>
        <time>2021-11-05T10:38:51.000Z</time>
      </trkpt>
      <trkpt lat="47.49179" lon="3.80982">
        <ele>210</ele>
        <time>2021-11-05T10:39:06.000Z</time>
      </trkpt>
      <trkpt lat="47.49172" lon="3.80984">
        <ele>209</ele>
        <time>2021-11-05T10:39:12.000Z</time>
      </trkpt>
      <trkpt lat="47.49161" lon="3.8099">
        <ele>209</ele>
        <time>2021-11-05T10:39:22.000Z</time>
      </trkpt>
      <trkpt lat="47.49158" lon="3.80985">
        <ele>208</ele>
        <time>2021-11-05T10:39:32.000Z</time>
      </trkpt>
      <trkpt lat="47.49156" lon="3.80989">
        <ele>209</ele>
        <time>2021-11-05T10:39:41.000Z</time>
      </trkpt>
      <trkpt lat="47.49155" lon="3.80989">
        <ele>209</ele>
        <time>2021-11-05T10:39:45.000Z</time>
      </trkpt>
      <trkpt lat="47.49152" lon="3.80997">
        <ele>210</ele>
        <time>2021-11-05T10:39:53.000Z</time>
      </trkpt>
      <trkpt lat="47.49151" lon="3.80999">
        <ele>210</ele>
        <time>2021-11-05T10:40:02.000Z</time>
      </trkpt>
      <trkpt lat="47.49147" lon="3.81003">
        <ele>211</ele>
        <time>2021-11-05T10:40:12.000Z</time>
      </trkpt>
      <trkpt lat="47.49143" lon="3.8101">
        <ele>211</ele>
        <time>2021-11-05T10:40:26.000Z</time>
      </trkpt>
      <trkpt lat="47.49138" lon="3.81019">
        <ele>212</ele>
        <time>2021-11-05T10:40:35.000Z</time>
      </trkpt>
      <trkpt lat="47.49132" lon="3.81032">
        <ele>213</ele>
        <time>2021-11-05T10:40:45.000Z</time>
      </trkpt>
      <trkpt lat="47.49121" lon="3.8105">
        <ele>214</ele>
        <time>2021-11-05T10:40:57.000Z</time>
      </trkpt>
      <trkpt lat="47.49119" lon="3.8105">
        <ele>214</ele>
        <time>2021-11-05T10:41:05.000Z</time>
      </trkpt>
      <trkpt lat="47.49113" lon="3.81062">
        <ele>214</ele>
        <time>2021-11-05T10:41:15.000Z</time>
      </trkpt>
      <trkpt lat="47.49107" lon="3.81074">
        <ele>214</ele>
        <time>2021-11-05T10:41:22.000Z</time>
      </trkpt>
      <trkpt lat="47.49106" lon="3.81077">
        <ele>214</ele>
        <time>2021-11-05T10:41:24.000Z</time>
      </trkpt>
      <trkpt lat="47.49099" lon="3.81095">
        <ele>214</ele>
        <time>2021-11-05T10:41:36.000Z</time>
      </trkpt>
      <trkpt lat="47.49096" lon="3.811">
        <ele>214</ele>
        <time>2021-11-05T10:41:46.000Z</time>
      </trkpt>
      <trkpt lat="47.49097" lon="3.81099">
        <ele>214</ele>
        <time>2021-11-05T10:42:10.000Z</time>
      </trkpt>
      <trkpt lat="47.49095" lon="3.81103">
        <ele>213</ele>
        <time>2021-11-05T10:42:21.000Z</time>
      </trkpt>
      <trkpt lat="47.49091" lon="3.8111">
        <ele>213</ele>
        <time>2021-11-05T10:42:32.000Z</time>
      </trkpt>
      <trkpt lat="47.49091" lon="3.81119">
        <ele>213</ele>
        <time>2021-11-05T10:42:42.000Z</time>
      </trkpt>
      <trkpt lat="47.49087" lon="3.81126">
        <ele>213</ele>
        <time>2021-11-05T10:42:54.000Z</time>
      </trkpt>
      <trkpt lat="47.49083" lon="3.81138">
        <ele>213</ele>
        <time>2021-11-05T10:43:02.000Z</time>
      </trkpt>
      <trkpt lat="47.49081" lon="3.81147">
        <ele>213</ele>
        <time>2021-11-05T10:43:06.000Z</time>
      </trkpt>
      <trkpt lat="47.49079" lon="3.81152">
        <ele>213</ele>
        <time>2021-11-05T10:43:16.000Z</time>
      </trkpt>
      <trkpt lat="47.49076" lon="3.81157">
        <ele>213</ele>
        <time>2021-11-05T10:43:28.000Z</time>
      </trkpt>
      <trkpt lat="47.49074" lon="3.81178">
        <ele>213</ele>
        <time>2021-11-05T10:43:39.000Z</time>
      </trkpt>
      <trkpt lat="47.49072" lon="3.81189">
        <ele>214</ele>
        <time>2021-11-05T10:43:51.000Z</time>
      </trkpt>
      <trkpt lat="47.4907" lon="3.81187">
        <ele>214</ele>
        <time>2021-11-05T10:44:00.000Z</time>
      </trkpt>
      <trkpt lat="47.4907" lon="3.81187">
        <ele>214</ele>
        <time>2021-11-05T10:44:22.000Z</time>
      </trkpt>
      <trkpt lat="47.49069" lon="3.81189">
        <ele>214</ele>
        <time>2021-11-05T10:44:35.000Z</time>
      </trkpt>
      <trkpt lat="47.49067" lon="3.81198">
        <ele>214</ele>
        <time>2021-11-05T10:44:40.000Z</time>
      </trkpt>
      <trkpt lat="47.49066" lon="3.81209">
        <ele>214</ele>
        <time>2021-11-05T10:44:45.000Z</time>
      </trkpt>
      <trkpt lat="47.49064" lon="3.81225">
        <ele>213</ele>
        <time>2021-11-05T10:44:56.000Z</time>
      </trkpt>
      <trkpt lat="47.49064" lon="3.8123">
        <ele>213</ele>
        <time>2021-11-05T10:44:59.000Z</time>
      </trkpt>
      <trkpt lat="47.4906" lon="3.81255">
        <ele>212</ele>
        <time>2021-11-05T10:45:13.000Z</time>
      </trkpt>
      <trkpt lat="47.49059" lon="3.81268">
        <ele>212</ele>
        <time>2021-11-05T10:45:22.000Z</time>
      </trkpt>
      <trkpt lat="47.4906" lon="3.81277">
        <ele>212</ele>
        <time>2021-11-05T10:45:32.000Z</time>
      </trkpt>
      <trkpt lat="47.4906" lon="3.81279">
        <ele>212</ele>
        <time>2021-11-05T10:45:43.000Z</time>
      </trkpt>
      <trkpt lat="47.49059" lon="3.81293">
        <ele>211</ele>
        <time>2021-11-05T10:45:50.000Z</time>
      </trkpt>
      <trkpt lat="47.49057" lon="3.81312">
        <ele>211</ele>
        <time>2021-11-05T10:45:59.000Z</time>
      </trkpt>
      <trkpt lat="47.49056" lon="3.8133">
        <ele>210</ele>
        <time>2021-11-05T10:46:09.000Z</time>
      </trkpt>
      <trkpt lat="47.49056" lon="3.81332">
        <ele>210</ele>
        <time>2021-11-05T10:46:10.000Z</time>
      </trkpt>
      <trkpt lat="47.49057" lon="3.8134">
        <ele>210</ele>
        <time>2021-11-05T10:46:15.000Z</time>
      </trkpt>
      <trkpt lat="47.49058" lon="3.81359">
        <ele>210</ele>
        <time>2021-11-05T10:46:25.000Z</time>
      </trkpt>
      <trkpt lat="47.49056" lon="3.81363">
        <ele>210</ele>
        <time>2021-11-05T10:46:36.000Z</time>
      </trkpt>
      <trkpt lat="47.49055" lon="3.81363">
        <ele>210</ele>
        <time>2021-11-05T10:46:45.000Z</time>
      </trkpt>
      <trkpt lat="47.49056" lon="3.81363">
        <ele>210</ele>
        <time>2021-11-05T10:47:00.000Z</time>
      </trkpt>
      <trkpt lat="47.49057" lon="3.81362">
        <ele>210</ele>
        <time>2021-11-05T10:47:24.000Z</time>
      </trkpt>
      <trkpt lat="47.49057" lon="3.81362">
        <ele>210</ele>
        <time>2021-11-05T10:47:44.000Z</time>
      </trkpt>
      <trkpt lat="47.49056" lon="3.81364">
        <ele>210</ele>
        <time>2021-11-05T10:47:59.000Z</time>
      </trkpt>
      <trkpt lat="47.49056" lon="3.81364">
        <ele>210</ele>
        <time>2021-11-05T10:48:21.000Z</time>
      </trkpt>
      <trkpt lat="47.49056" lon="3.81365">
        <ele>210</ele>
        <time>2021-11-05T10:48:46.000Z</time>
      </trkpt>
      <trkpt lat="47.49056" lon="3.81367">
        <ele>209</ele>
        <time>2021-11-05T10:48:51.000Z</time>
      </trkpt>
      <trkpt lat="47.49056" lon="3.81377">
        <ele>209</ele>
        <time>2021-11-05T10:48:56.000Z</time>
      </trkpt>
      <trkpt lat="47.49059" lon="3.81399">
        <ele>210</ele>
        <time>2021-11-05T10:49:07.000Z</time>
      </trkpt>
      <trkpt lat="47.49059" lon="3.81405">
        <ele>210</ele>
        <time>2021-11-05T10:49:11.000Z</time>
      </trkpt>
      <trkpt lat="47.4906" lon="3.81421">
        <ele>210</ele>
        <time>2021-11-05T10:49:19.000Z</time>
      </trkpt>
      <trkpt lat="47.4906" lon="3.81428">
        <ele>210</ele>
        <time>2021-11-05T10:49:23.000Z</time>
      </trkpt>
      <trkpt lat="47.49055" lon="3.81434">
        <ele>211</ele>
        <time>2021-11-05T10:49:49.000Z</time>
      </trkpt>
      <trkpt lat="47.49051" lon="3.81437">
        <ele>211</ele>
        <time>2021-11-05T10:49:59.000Z</time>
      </trkpt>
      <trkpt lat="47.49043" lon="3.81444">
        <ele>211</ele>
        <time>2021-11-05T10:50:10.000Z</time>
      </trkpt>
      <trkpt lat="47.49042" lon="3.81445">
        <ele>211</ele>
        <time>2021-11-05T10:50:12.000Z</time>
      </trkpt>
      <trkpt lat="47.49034" lon="3.81452">
        <ele>212</ele>
        <time>2021-11-05T10:50:19.000Z</time>
      </trkpt>
      <trkpt lat="47.49019" lon="3.8146">
        <ele>212</ele>
        <time>2021-11-05T10:50:31.000Z</time>
      </trkpt>
      <trkpt lat="47.49018" lon="3.81461">
        <ele>212</ele>
        <time>2021-11-05T10:50:32.000Z</time>
      </trkpt>
      <trkpt lat="47.49015" lon="3.81464">
        <ele>212</ele>
        <time>2021-11-05T10:50:42.000Z</time>
      </trkpt>
      <trkpt lat="47.49014" lon="3.81464">
        <ele>212</ele>
        <time>2021-11-05T10:50:44.000Z</time>
      </trkpt>
      <trkpt lat="47.48997" lon="3.81476">
        <ele>212</ele>
        <time>2021-11-05T10:50:58.000Z</time>
      </trkpt>
      <trkpt lat="47.48988" lon="3.81485">
        <ele>212</ele>
        <time>2021-11-05T10:51:09.000Z</time>
      </trkpt>
      <trkpt lat="47.48985" lon="3.81486">
        <ele>212</ele>
        <time>2021-11-05T10:51:18.000Z</time>
      </trkpt>
      <trkpt lat="47.48984" lon="3.81486">
        <ele>212</ele>
        <time>2021-11-05T10:51:21.000Z</time>
      </trkpt>
      <trkpt lat="47.48973" lon="3.81498">
        <ele>212</ele>
        <time>2021-11-05T10:51:34.000Z</time>
      </trkpt>
      <trkpt lat="47.48972" lon="3.81498">
        <ele>212</ele>
        <time>2021-11-05T10:51:35.000Z</time>
      </trkpt>
      <trkpt lat="47.48967" lon="3.81515">
        <ele>212</ele>
        <time>2021-11-05T10:51:46.000Z</time>
      </trkpt>
      <trkpt lat="47.48961" lon="3.81536">
        <ele>213</ele>
        <time>2021-11-05T10:51:57.000Z</time>
      </trkpt>
      <trkpt lat="47.48953" lon="3.81551">
        <ele>214</ele>
        <time>2021-11-05T10:52:08.000Z</time>
      </trkpt>
      <trkpt lat="47.48943" lon="3.81562">
        <ele>215</ele>
        <time>2021-11-05T10:52:19.000Z</time>
      </trkpt>
      <trkpt lat="47.48938" lon="3.81568">
        <ele>216</ele>
        <time>2021-11-05T10:52:24.000Z</time>
      </trkpt>
      <trkpt lat="47.48928" lon="3.81578">
        <ele>217</ele>
        <time>2021-11-05T10:52:36.000Z</time>
      </trkpt>
      <trkpt lat="47.48925" lon="3.81579">
        <ele>218</ele>
        <time>2021-11-05T10:52:46.000Z</time>
      </trkpt>
      <trkpt lat="47.48924" lon="3.81581">
        <ele>219</ele>
        <time>2021-11-05T10:52:57.000Z</time>
      </trkpt>
      <trkpt lat="47.48918" lon="3.81591">
        <ele>220</ele>
        <time>2021-11-05T10:53:09.000Z</time>
      </trkpt>
      <trkpt lat="47.48913" lon="3.816">
        <ele>221</ele>
        <time>2021-11-05T10:53:20.000Z</time>
      </trkpt>
      <trkpt lat="47.48909" lon="3.81606">
        <ele>222</ele>
        <time>2021-11-05T10:53:29.000Z</time>
      </trkpt>
      <trkpt lat="47.48906" lon="3.81614">
        <ele>223</ele>
        <time>2021-11-05T10:53:39.000Z</time>
      </trkpt>
      <trkpt lat="47.48901" lon="3.81626">
        <ele>226</ele>
        <time>2021-11-05T10:53:54.000Z</time>
      </trkpt>
      <trkpt lat="47.48894" lon="3.81642">
        <ele>227</ele>
        <time>2021-11-05T10:54:06.000Z</time>
      </trkpt>
      <trkpt lat="47.48889" lon="3.81656">
        <ele>229</ele>
        <time>2021-11-05T10:54:18.000Z</time>
      </trkpt>
      <trkpt lat="47.48887" lon="3.81666">
        <ele>230</ele>
        <time>2021-11-05T10:54:29.000Z</time>
      </trkpt>
      <trkpt lat="47.48884" lon="3.81676">
        <ele>231</ele>
        <time>2021-11-05T10:54:40.000Z</time>
      </trkpt>
      <trkpt lat="47.48883" lon="3.81676">
        <ele>231</ele>
        <time>2021-11-05T10:54:54.000Z</time>
      </trkpt>
      <trkpt lat="47.48883" lon="3.81676">
        <ele>231</ele>
        <time>2021-11-05T10:55:14.000Z</time>
      </trkpt>
      <trkpt lat="47.48883" lon="3.81676">
        <ele>231</ele>
        <time>2021-11-05T10:55:28.000Z</time>
      </trkpt>
      <trkpt lat="47.48883" lon="3.81677">
        <ele>231</ele>
        <time>2021-11-05T10:55:39.000Z</time>
      </trkpt>
      <trkpt lat="47.48879" lon="3.81691">
        <ele>232</ele>
        <time>2021-11-05T10:55:49.000Z</time>
      </trkpt>
      <trkpt lat="47.48876" lon="3.81704">
        <ele>234</ele>
        <time>2021-11-05T10:56:00.000Z</time>
      </trkpt>
      <trkpt lat="47.48872" lon="3.81718">
        <ele>235</ele>
        <time>2021-11-05T10:56:11.000Z</time>
      </trkpt>
      <trkpt lat="47.48869" lon="3.81729">
        <ele>237</ele>
        <time>2021-11-05T10:56:21.000Z</time>
      </trkpt>
      <trkpt lat="47.48866" lon="3.81741">
        <ele>238</ele>
        <time>2021-11-05T10:56:31.000Z</time>
      </trkpt>
      <trkpt lat="47.48863" lon="3.81752">
        <ele>239</ele>
        <time>2021-11-05T10:56:42.000Z</time>
      </trkpt>
      <trkpt lat="47.48859" lon="3.81764">
        <ele>240</ele>
        <time>2021-11-05T10:56:51.000Z</time>
      </trkpt>
      <trkpt lat="47.48854" lon="3.81776">
        <ele>241</ele>
        <time>2021-11-05T10:57:03.000Z</time>
      </trkpt>
      <trkpt lat="47.48853" lon="3.81783">
        <ele>242</ele>
        <time>2021-11-05T10:57:14.000Z</time>
      </trkpt>
      <trkpt lat="47.48853" lon="3.81786">
        <ele>242</ele>
        <time>2021-11-05T10:57:26.000Z</time>
      </trkpt>
      <trkpt lat="47.48852" lon="3.81792">
        <ele>243</ele>
        <time>2021-11-05T10:57:35.000Z</time>
      </trkpt>
      <trkpt lat="47.48851" lon="3.81795">
        <ele>243</ele>
        <time>2021-11-05T10:57:50.000Z</time>
      </trkpt>
      <trkpt lat="47.48849" lon="3.81803">
        <ele>244</ele>
        <time>2021-11-05T10:58:02.000Z</time>
      </trkpt>
      <trkpt lat="47.48848" lon="3.81807">
        <ele>244</ele>
        <time>2021-11-05T10:58:14.000Z</time>
      </trkpt>
      <trkpt lat="47.48845" lon="3.8182">
        <ele>246</ele>
        <time>2021-11-05T10:58:25.000Z</time>
      </trkpt>
      <trkpt lat="47.48842" lon="3.81827">
        <ele>246</ele>
        <time>2021-11-05T10:58:36.000Z</time>
      </trkpt>
      <trkpt lat="47.48841" lon="3.81836">
        <ele>247</ele>
        <time>2021-11-05T10:58:44.000Z</time>
      </trkpt>
      <trkpt lat="47.48839" lon="3.81846">
        <ele>248</ele>
        <time>2021-11-05T10:58:53.000Z</time>
      </trkpt>
      <trkpt lat="47.48837" lon="3.8186">
        <ele>249</ele>
        <time>2021-11-05T10:59:03.000Z</time>
      </trkpt>
      <trkpt lat="47.48836" lon="3.81871">
        <ele>250</ele>
        <time>2021-11-05T10:59:14.000Z</time>
      </trkpt>
      <trkpt lat="47.48834" lon="3.81877">
        <ele>250</ele>
        <time>2021-11-05T10:59:23.000Z</time>
      </trkpt>
      <trkpt lat="47.48834" lon="3.81878">
        <ele>250</ele>
        <time>2021-11-05T10:59:24.000Z</time>
      </trkpt>
      <trkpt lat="47.48831" lon="3.81892">
        <ele>251</ele>
        <time>2021-11-05T10:59:35.000Z</time>
      </trkpt>
      <trkpt lat="47.48829" lon="3.81904">
        <ele>252</ele>
        <time>2021-11-05T10:59:46.000Z</time>
      </trkpt>
      <trkpt lat="47.48828" lon="3.81906">
        <ele>253</ele>
        <time>2021-11-05T10:59:56.000Z</time>
      </trkpt>
      <trkpt lat="47.48827" lon="3.81923">
        <ele>254</ele>
        <time>2021-11-05T11:00:07.000Z</time>
      </trkpt>
      <trkpt lat="47.48827" lon="3.81934">
        <ele>255</ele>
        <time>2021-11-05T11:00:19.000Z</time>
      </trkpt>
      <trkpt lat="47.48826" lon="3.81938">
        <ele>255</ele>
        <time>2021-11-05T11:00:22.000Z</time>
      </trkpt>
      <trkpt lat="47.48826" lon="3.81945">
        <ele>256</ele>
        <time>2021-11-05T11:00:27.000Z</time>
      </trkpt>
      <trkpt lat="47.48825" lon="3.81956">
        <ele>257</ele>
        <time>2021-11-05T11:00:37.000Z</time>
      </trkpt>
      <trkpt lat="47.48824" lon="3.81966">
        <ele>257</ele>
        <time>2021-11-05T11:00:44.000Z</time>
      </trkpt>
      <trkpt lat="47.48824" lon="3.81969">
        <ele>257</ele>
        <time>2021-11-05T11:00:46.000Z</time>
      </trkpt>
      <trkpt lat="47.48824" lon="3.81978">
        <ele>258</ele>
        <time>2021-11-05T11:00:52.000Z</time>
      </trkpt>
      <trkpt lat="47.48822" lon="3.81986">
        <ele>259</ele>
        <time>2021-11-05T11:01:03.000Z</time>
      </trkpt>
      <trkpt lat="47.48823" lon="3.81985">
        <ele>259</ele>
        <time>2021-11-05T11:01:22.000Z</time>
      </trkpt>
      <trkpt lat="47.48822" lon="3.81991">
        <ele>259</ele>
        <time>2021-11-05T11:01:31.000Z</time>
      </trkpt>
      <trkpt lat="47.48821" lon="3.82007">
        <ele>260</ele>
        <time>2021-11-05T11:01:43.000Z</time>
      </trkpt>
      <trkpt lat="47.48818" lon="3.82019">
        <ele>261</ele>
        <time>2021-11-05T11:01:55.000Z</time>
      </trkpt>
      <trkpt lat="47.48816" lon="3.82026">
        <ele>262</ele>
        <time>2021-11-05T11:02:03.000Z</time>
      </trkpt>
      <trkpt lat="47.48814" lon="3.82037">
        <ele>263</ele>
        <time>2021-11-05T11:02:15.000Z</time>
      </trkpt>
      <trkpt lat="47.48813" lon="3.82051">
        <ele>265</ele>
        <time>2021-11-05T11:02:27.000Z</time>
      </trkpt>
      <trkpt lat="47.48809" lon="3.82067">
        <ele>266</ele>
        <time>2021-11-05T11:02:38.000Z</time>
      </trkpt>
      <trkpt lat="47.48805" lon="3.82077">
        <ele>267</ele>
        <time>2021-11-05T11:02:47.000Z</time>
      </trkpt>
      <trkpt lat="47.48802" lon="3.8209">
        <ele>268</ele>
        <time>2021-11-05T11:02:58.000Z</time>
      </trkpt>
      <trkpt lat="47.48802" lon="3.82091">
        <ele>268</ele>
        <time>2021-11-05T11:02:59.000Z</time>
      </trkpt>
      <trkpt lat="47.488" lon="3.82109">
        <ele>269</ele>
        <time>2021-11-05T11:03:10.000Z</time>
      </trkpt>
      <trkpt lat="47.488" lon="3.82121">
        <ele>269</ele>
        <time>2021-11-05T11:03:20.000Z</time>
      </trkpt>
      <trkpt lat="47.48798" lon="3.82129">
        <ele>270</ele>
        <time>2021-11-05T11:03:29.000Z</time>
      </trkpt>
      <trkpt lat="47.48798" lon="3.82135">
        <ele>270</ele>
        <time>2021-11-05T11:03:41.000Z</time>
      </trkpt>
      <trkpt lat="47.48798" lon="3.82136">
        <ele>270</ele>
        <time>2021-11-05T11:03:42.000Z</time>
      </trkpt>
      <trkpt lat="47.48795" lon="3.82156">
        <ele>271</ele>
        <time>2021-11-05T11:03:55.000Z</time>
      </trkpt>
      <trkpt lat="47.48793" lon="3.82168">
        <ele>272</ele>
        <time>2021-11-05T11:04:05.000Z</time>
      </trkpt>
      <trkpt lat="47.48792" lon="3.82172">
        <ele>272</ele>
        <time>2021-11-05T11:04:10.000Z</time>
      </trkpt>
      <trkpt lat="47.4879" lon="3.82177">
        <ele>272</ele>
        <time>2021-11-05T11:04:14.000Z</time>
      </trkpt>
      <trkpt lat="47.48788" lon="3.82187">
        <ele>273</ele>
        <time>2021-11-05T11:04:22.000Z</time>
      </trkpt>
      <trkpt lat="47.48787" lon="3.82196">
        <ele>274</ele>
        <time>2021-11-05T11:04:32.000Z</time>
      </trkpt>
      <trkpt lat="47.48784" lon="3.82205">
        <ele>274</ele>
        <time>2021-11-05T11:04:40.000Z</time>
      </trkpt>
      <trkpt lat="47.48782" lon="3.82211">
        <ele>274</ele>
        <time>2021-11-05T11:04:44.000Z</time>
      </trkpt>
      <trkpt lat="47.48782" lon="3.82214">
        <ele>275</ele>
        <time>2021-11-05T11:04:46.000Z</time>
      </trkpt>
      <trkpt lat="47.48776" lon="3.82234">
        <ele>275</ele>
        <time>2021-11-05T11:04:57.000Z</time>
      </trkpt>
      <trkpt lat="47.48773" lon="3.82245">
        <ele>276</ele>
        <time>2021-11-05T11:05:03.000Z</time>
      </trkpt>
      <trkpt lat="47.48767" lon="3.82261">
        <ele>277</ele>
        <time>2021-11-05T11:05:15.000Z</time>
      </trkpt>
      <trkpt lat="47.48766" lon="3.82266">
        <ele>277</ele>
        <time>2021-11-05T11:05:19.000Z</time>
      </trkpt>
      <trkpt lat="47.48763" lon="3.82271">
        <ele>277</ele>
        <time>2021-11-05T11:05:22.000Z</time>
      </trkpt>
      <trkpt lat="47.48761" lon="3.82276">
        <ele>277</ele>
        <time>2021-11-05T11:05:25.000Z</time>
      </trkpt>
      <trkpt lat="47.48758" lon="3.82285">
        <ele>277</ele>
        <time>2021-11-05T11:05:37.000Z</time>
      </trkpt>
      <trkpt lat="47.48752" lon="3.82294">
        <ele>278</ele>
        <time>2021-11-05T11:05:47.000Z</time>
      </trkpt>
      <trkpt lat="47.48749" lon="3.82301">
        <ele>278</ele>
        <time>2021-11-05T11:05:53.000Z</time>
      </trkpt>
      <trkpt lat="47.48746" lon="3.82307">
        <ele>278</ele>
        <time>2021-11-05T11:05:58.000Z</time>
      </trkpt>
      <trkpt lat="47.48745" lon="3.82309">
        <ele>279</ele>
        <time>2021-11-05T11:06:07.000Z</time>
      </trkpt>
      <trkpt lat="47.48743" lon="3.82314">
        <ele>279</ele>
        <time>2021-11-05T11:06:12.000Z</time>
      </trkpt>
      <trkpt lat="47.48737" lon="3.82325">
        <ele>280</ele>
        <time>2021-11-05T11:06:21.000Z</time>
      </trkpt>
      <trkpt lat="47.48732" lon="3.82333">
        <ele>280</ele>
        <time>2021-11-05T11:06:29.000Z</time>
      </trkpt>
      <trkpt lat="47.48728" lon="3.82341">
        <ele>281</ele>
        <time>2021-11-05T11:06:34.000Z</time>
      </trkpt>
      <trkpt lat="47.48721" lon="3.82353">
        <ele>281</ele>
        <time>2021-11-05T11:06:43.000Z</time>
      </trkpt>
      <trkpt lat="47.48709" lon="3.82369">
        <ele>282</ele>
        <time>2021-11-05T11:06:56.000Z</time>
      </trkpt>
      <trkpt lat="47.487" lon="3.8238">
        <ele>283</ele>
        <time>2021-11-05T11:07:07.000Z</time>
      </trkpt>
      <trkpt lat="47.48698" lon="3.82383">
        <ele>283</ele>
        <time>2021-11-05T11:07:10.000Z</time>
      </trkpt>
      <trkpt lat="47.48696" lon="3.82387">
        <ele>283</ele>
        <time>2021-11-05T11:07:12.000Z</time>
      </trkpt>
      <trkpt lat="47.4869" lon="3.82393">
        <ele>283</ele>
        <time>2021-11-05T11:07:17.000Z</time>
      </trkpt>
      <trkpt lat="47.48682" lon="3.82403">
        <ele>283</ele>
        <time>2021-11-05T11:07:25.000Z</time>
      </trkpt>
      <trkpt lat="47.48673" lon="3.82419">
        <ele>284</ele>
        <time>2021-11-05T11:07:37.000Z</time>
      </trkpt>
      <trkpt lat="47.48672" lon="3.82421">
        <ele>284</ele>
        <time>2021-11-05T11:07:38.000Z</time>
      </trkpt>
      <trkpt lat="47.48667" lon="3.82428">
        <ele>284</ele>
        <time>2021-11-05T11:07:44.000Z</time>
      </trkpt>
      <trkpt lat="47.48664" lon="3.82433">
        <ele>284</ele>
        <time>2021-11-05T11:07:48.000Z</time>
      </trkpt>
      <trkpt lat="47.48658" lon="3.82443">
        <ele>285</ele>
        <time>2021-11-05T11:07:56.000Z</time>
      </trkpt>
      <trkpt lat="47.48649" lon="3.82454">
        <ele>285</ele>
        <time>2021-11-05T11:08:06.000Z</time>
      </trkpt>
      <trkpt lat="47.48647" lon="3.82457">
        <ele>285</ele>
        <time>2021-11-05T11:08:08.000Z</time>
      </trkpt>
      <trkpt lat="47.4864" lon="3.82471">
        <ele>286</ele>
        <time>2021-11-05T11:08:20.000Z</time>
      </trkpt>
      <trkpt lat="47.48633" lon="3.82483">
        <ele>286</ele>
        <time>2021-11-05T11:08:30.000Z</time>
      </trkpt>
      <trkpt lat="47.48631" lon="3.82486">
        <ele>286</ele>
        <time>2021-11-05T11:08:32.000Z</time>
      </trkpt>
      <trkpt lat="47.48626" lon="3.82493">
        <ele>286</ele>
        <time>2021-11-05T11:08:37.000Z</time>
      </trkpt>
      <trkpt lat="47.4862" lon="3.82507">
        <ele>287</ele>
        <time>2021-11-05T11:08:49.000Z</time>
      </trkpt>
      <trkpt lat="47.48614" lon="3.82518">
        <ele>287</ele>
        <time>2021-11-05T11:08:59.000Z</time>
      </trkpt>
      <trkpt lat="47.48607" lon="3.82529">
        <ele>288</ele>
        <time>2021-11-05T11:09:09.000Z</time>
      </trkpt>
      <trkpt lat="47.48605" lon="3.82532">
        <ele>288</ele>
        <time>2021-11-05T11:09:12.000Z</time>
      </trkpt>
      <trkpt lat="47.486" lon="3.82547">
        <ele>288</ele>
        <time>2021-11-05T11:09:22.000Z</time>
      </trkpt>
      <trkpt lat="47.48593" lon="3.82558">
        <ele>289</ele>
        <time>2021-11-05T11:09:33.000Z</time>
      </trkpt>
      <trkpt lat="47.48587" lon="3.82569">
        <ele>289</ele>
        <time>2021-11-05T11:09:42.000Z</time>
      </trkpt>
      <trkpt lat="47.48581" lon="3.82583">
        <ele>289</ele>
        <time>2021-11-05T11:09:54.000Z</time>
      </trkpt>
      <trkpt lat="47.48576" lon="3.82591">
        <ele>289</ele>
        <time>2021-11-05T11:10:01.000Z</time>
      </trkpt>
      <trkpt lat="47.48574" lon="3.82594">
        <ele>289</ele>
        <time>2021-11-05T11:10:03.000Z</time>
      </trkpt>
      <trkpt lat="47.48572" lon="3.826">
        <ele>289</ele>
        <time>2021-11-05T11:10:07.000Z</time>
      </trkpt>
      <trkpt lat="47.48565" lon="3.82612">
        <ele>289</ele>
        <time>2021-11-05T11:10:16.000Z</time>
      </trkpt>
      <trkpt lat="47.48563" lon="3.82616">
        <ele>289</ele>
        <time>2021-11-05T11:10:18.000Z</time>
      </trkpt>
      <trkpt lat="47.48559" lon="3.82621">
        <ele>289</ele>
        <time>2021-11-05T11:10:23.000Z</time>
      </trkpt>
      <trkpt lat="47.48556" lon="3.82627">
        <ele>289</ele>
        <time>2021-11-05T11:10:27.000Z</time>
      </trkpt>
      <trkpt lat="47.48548" lon="3.82641">
        <ele>289</ele>
        <time>2021-11-05T11:10:39.000Z</time>
      </trkpt>
      <trkpt lat="47.48542" lon="3.82655">
        <ele>289</ele>
        <time>2021-11-05T11:10:49.000Z</time>
      </trkpt>
      <trkpt lat="47.48538" lon="3.82662">
        <ele>289</ele>
        <time>2021-11-05T11:10:54.000Z</time>
      </trkpt>
      <trkpt lat="47.48534" lon="3.82672">
        <ele>289</ele>
        <time>2021-11-05T11:11:01.000Z</time>
      </trkpt>
      <trkpt lat="47.48527" lon="3.82686">
        <ele>290</ele>
        <time>2021-11-05T11:11:12.000Z</time>
      </trkpt>
      <trkpt lat="47.48522" lon="3.82693">
        <ele>290</ele>
        <time>2021-11-05T11:11:18.000Z</time>
      </trkpt>
      <trkpt lat="47.48513" lon="3.82712">
        <ele>290</ele>
        <time>2021-11-05T11:11:31.000Z</time>
      </trkpt>
      <trkpt lat="47.48508" lon="3.82722">
        <ele>290</ele>
        <time>2021-11-05T11:11:42.000Z</time>
      </trkpt>
      <trkpt lat="47.48507" lon="3.82724">
        <ele>290</ele>
        <time>2021-11-05T11:11:44.000Z</time>
      </trkpt>
      <trkpt lat="47.48499" lon="3.82739">
        <ele>291</ele>
        <time>2021-11-05T11:11:54.000Z</time>
      </trkpt>
      <trkpt lat="47.48497" lon="3.82744">
        <ele>291</ele>
        <time>2021-11-05T11:12:01.000Z</time>
      </trkpt>
      <trkpt lat="47.48491" lon="3.82753">
        <ele>292</ele>
        <time>2021-11-05T11:12:11.000Z</time>
      </trkpt>
      <trkpt lat="47.48487" lon="3.8276">
        <ele>292</ele>
        <time>2021-11-05T11:12:20.000Z</time>
      </trkpt>
      <trkpt lat="47.48484" lon="3.82772">
        <ele>292</ele>
        <time>2021-11-05T11:12:31.000Z</time>
      </trkpt>
      <trkpt lat="47.48483" lon="3.8278">
        <ele>292</ele>
        <time>2021-11-05T11:12:42.000Z</time>
      </trkpt>
      <trkpt lat="47.48478" lon="3.8279">
        <ele>293</ele>
        <time>2021-11-05T11:12:55.000Z</time>
      </trkpt>
      <trkpt lat="47.48472" lon="3.82806">
        <ele>293</ele>
        <time>2021-11-05T11:13:07.000Z</time>
      </trkpt>
      <trkpt lat="47.48466" lon="3.82823">
        <ele>293</ele>
        <time>2021-11-05T11:13:17.000Z</time>
      </trkpt>
      <trkpt lat="47.4846" lon="3.82835">
        <ele>294</ele>
        <time>2021-11-05T11:13:28.000Z</time>
      </trkpt>
      <trkpt lat="47.48445" lon="3.82866">
        <ele>293</ele>
        <time>2021-11-05T11:13:40.000Z</time>
      </trkpt>
      <trkpt lat="47.48434" lon="3.82878">
        <ele>293</ele>
        <time>2021-11-05T11:13:50.000Z</time>
      </trkpt>
      <trkpt lat="47.48432" lon="3.82881">
        <ele>293</ele>
        <time>2021-11-05T11:13:52.000Z</time>
      </trkpt>
      <trkpt lat="47.4841" lon="3.82904">
        <ele>292</ele>
        <time>2021-11-05T11:14:03.000Z</time>
      </trkpt>
      <trkpt lat="47.48404" lon="3.8291">
        <ele>292</ele>
        <time>2021-11-05T11:14:12.000Z</time>
      </trkpt>
      <trkpt lat="47.48405" lon="3.8291">
        <ele>292</ele>
        <time>2021-11-05T11:14:13.000Z</time>
      </trkpt>
      <trkpt lat="47.48404" lon="3.82913">
        <ele>292</ele>
        <time>2021-11-05T11:14:54.000Z</time>
      </trkpt>
      <trkpt lat="47.48394" lon="3.82915">
        <ele>292</ele>
        <time>2021-11-05T11:15:03.000Z</time>
      </trkpt>
      <trkpt lat="47.48391" lon="3.82914">
        <ele>292</ele>
        <time>2021-11-05T11:15:06.000Z</time>
      </trkpt>
      <trkpt lat="47.48384" lon="3.82909">
        <ele>292</ele>
        <time>2021-11-05T11:15:16.000Z</time>
      </trkpt>
      <trkpt lat="47.4838" lon="3.82905">
        <ele>292</ele>
        <time>2021-11-05T11:15:22.000Z</time>
      </trkpt>
      <trkpt lat="47.48372" lon="3.829">
        <ele>293</ele>
        <time>2021-11-05T11:15:31.000Z</time>
      </trkpt>
      <trkpt lat="47.48368" lon="3.82899">
        <ele>293</ele>
        <time>2021-11-05T11:15:40.000Z</time>
      </trkpt>
      <trkpt lat="47.48367" lon="3.82899">
        <ele>293</ele>
        <time>2021-11-05T11:15:51.000Z</time>
      </trkpt>
      <trkpt lat="47.48365" lon="3.82894">
        <ele>293</ele>
        <time>2021-11-05T11:16:01.000Z</time>
      </trkpt>
      <trkpt lat="47.48363" lon="3.82892">
        <ele>293</ele>
        <time>2021-11-05T11:16:09.000Z</time>
      </trkpt>
      <trkpt lat="47.48352" lon="3.82892">
        <ele>293</ele>
        <time>2021-11-05T11:16:20.000Z</time>
      </trkpt>
      <trkpt lat="47.48349" lon="3.82892">
        <ele>293</ele>
        <time>2021-11-05T11:16:22.000Z</time>
      </trkpt>
      <trkpt lat="47.48337" lon="3.82894">
        <ele>294</ele>
        <time>2021-11-05T11:16:32.000Z</time>
      </trkpt>
      <trkpt lat="47.48323" lon="3.8289">
        <ele>295</ele>
        <time>2021-11-05T11:16:44.000Z</time>
      </trkpt>
      <trkpt lat="47.48317" lon="3.82893">
        <ele>295</ele>
        <time>2021-11-05T11:16:49.000Z</time>
      </trkpt>
      <trkpt lat="47.48311" lon="3.82899">
        <ele>295</ele>
        <time>2021-11-05T11:16:56.000Z</time>
      </trkpt>
      <trkpt lat="47.48304" lon="3.82903">
        <ele>296</ele>
        <time>2021-11-05T11:17:06.000Z</time>
      </trkpt>
      <trkpt lat="47.48303" lon="3.82906">
        <ele>295</ele>
        <time>2021-11-05T11:17:15.000Z</time>
      </trkpt>
      <trkpt lat="47.48298" lon="3.8291">
        <ele>295</ele>
        <time>2021-11-05T11:17:23.000Z</time>
      </trkpt>
      <trkpt lat="47.48293" lon="3.82914">
        <ele>296</ele>
        <time>2021-11-05T11:17:28.000Z</time>
      </trkpt>
      <trkpt lat="47.48284" lon="3.82918">
        <ele>296</ele>
        <time>2021-11-05T11:17:34.000Z</time>
      </trkpt>
      <trkpt lat="47.4828" lon="3.82921">
        <ele>296</ele>
        <time>2021-11-05T11:17:37.000Z</time>
      </trkpt>
      <trkpt lat="47.48263" lon="3.82928">
        <ele>296</ele>
        <time>2021-11-05T11:17:52.000Z</time>
      </trkpt>
      <trkpt lat="47.48255" lon="3.82933">
        <ele>297</ele>
        <time>2021-11-05T11:18:00.000Z</time>
      </trkpt>
      <trkpt lat="47.48252" lon="3.82936">
        <ele>297</ele>
        <time>2021-11-05T11:18:02.000Z</time>
      </trkpt>
      <trkpt lat="47.48242" lon="3.8294">
        <ele>297</ele>
        <time>2021-11-05T11:18:11.000Z</time>
      </trkpt>
      <trkpt lat="47.48231" lon="3.82944">
        <ele>297</ele>
        <time>2021-11-05T11:18:21.000Z</time>
      </trkpt>
      <trkpt lat="47.48219" lon="3.82949">
        <ele>297</ele>
        <time>2021-11-05T11:18:32.000Z</time>
      </trkpt>
      <trkpt lat="47.48207" lon="3.82952">
        <ele>297</ele>
        <time>2021-11-05T11:18:43.000Z</time>
      </trkpt>
      <trkpt lat="47.48196" lon="3.82955">
        <ele>297</ele>
        <time>2021-11-05T11:18:52.000Z</time>
      </trkpt>
      <trkpt lat="47.48195" lon="3.82954">
        <ele>297</ele>
        <time>2021-11-05T11:18:54.000Z</time>
      </trkpt>
      <trkpt lat="47.48192" lon="3.82956">
        <ele>297</ele>
        <time>2021-11-05T11:18:57.000Z</time>
      </trkpt>
      <trkpt lat="47.48178" lon="3.82969">
        <ele>297</ele>
        <time>2021-11-05T11:19:07.000Z</time>
      </trkpt>
      <trkpt lat="47.48168" lon="3.82978">
        <ele>297</ele>
        <time>2021-11-05T11:19:20.000Z</time>
      </trkpt>
      <trkpt lat="47.48166" lon="3.82981">
        <ele>296</ele>
        <time>2021-11-05T11:19:25.000Z</time>
      </trkpt>
      <trkpt lat="47.48163" lon="3.82999">
        <ele>295</ele>
        <time>2021-11-05T11:19:38.000Z</time>
      </trkpt>
      <trkpt lat="47.48163" lon="3.83006">
        <ele>294</ele>
        <time>2021-11-05T11:19:42.000Z</time>
      </trkpt>
      <trkpt lat="47.48158" lon="3.83028">
        <ele>292</ele>
        <time>2021-11-05T11:19:54.000Z</time>
      </trkpt>
      <trkpt lat="47.48156" lon="3.83047">
        <ele>290</ele>
        <time>2021-11-05T11:20:07.000Z</time>
      </trkpt>
      <trkpt lat="47.48152" lon="3.83065">
        <ele>289</ele>
        <time>2021-11-05T11:20:20.000Z</time>
      </trkpt>
      <trkpt lat="47.4815" lon="3.8307">
        <ele>288</ele>
        <time>2021-11-05T11:20:33.000Z</time>
      </trkpt>
      <trkpt lat="47.48147" lon="3.83081">
        <ele>286</ele>
        <time>2021-11-05T11:20:43.000Z</time>
      </trkpt>
      <trkpt lat="47.48146" lon="3.83092">
        <ele>284</ele>
        <time>2021-11-05T11:20:55.000Z</time>
      </trkpt>
      <trkpt lat="47.48146" lon="3.83094">
        <ele>284</ele>
        <time>2021-11-05T11:20:56.000Z</time>
      </trkpt>
      <trkpt lat="47.48143" lon="3.8311">
        <ele>282</ele>
        <time>2021-11-05T11:21:08.000Z</time>
      </trkpt>
      <trkpt lat="47.4814" lon="3.8312">
        <ele>280</ele>
        <time>2021-11-05T11:21:15.000Z</time>
      </trkpt>
      <trkpt lat="47.48139" lon="3.83128">
        <ele>280</ele>
        <time>2021-11-05T11:21:20.000Z</time>
      </trkpt>
      <trkpt lat="47.4814" lon="3.83133">
        <ele>279</ele>
        <time>2021-11-05T11:21:24.000Z</time>
      </trkpt>
      <trkpt lat="47.48139" lon="3.83145">
        <ele>277</ele>
        <time>2021-11-05T11:21:33.000Z</time>
      </trkpt>
      <trkpt lat="47.48139" lon="3.83149">
        <ele>277</ele>
        <time>2021-11-05T11:21:36.000Z</time>
      </trkpt>
      <trkpt lat="47.48134" lon="3.83165">
        <ele>274</ele>
        <time>2021-11-05T11:21:47.000Z</time>
      </trkpt>
      <trkpt lat="47.48133" lon="3.8317">
        <ele>274</ele>
        <time>2021-11-05T11:21:51.000Z</time>
      </trkpt>
      <trkpt lat="47.48131" lon="3.8318">
        <ele>272</ele>
        <time>2021-11-05T11:22:01.000Z</time>
      </trkpt>
      <trkpt lat="47.48127" lon="3.83187">
        <ele>270</ele>
        <time>2021-11-05T11:22:11.000Z</time>
      </trkpt>
      <trkpt lat="47.48124" lon="3.83196">
        <ele>269</ele>
        <time>2021-11-05T11:22:20.000Z</time>
      </trkpt>
      <trkpt lat="47.48118" lon="3.83208">
        <ele>267</ele>
        <time>2021-11-05T11:22:30.000Z</time>
      </trkpt>
      <trkpt lat="47.48118" lon="3.83209">
        <ele>267</ele>
        <time>2021-11-05T11:22:31.000Z</time>
      </trkpt>
      <trkpt lat="47.48117" lon="3.83212">
        <ele>266</ele>
        <time>2021-11-05T11:22:33.000Z</time>
      </trkpt>
      <trkpt lat="47.48111" lon="3.83222">
        <ele>265</ele>
        <time>2021-11-05T11:22:44.000Z</time>
      </trkpt>
      <trkpt lat="47.48111" lon="3.83225">
        <ele>265</ele>
        <time>2021-11-05T11:22:59.000Z</time>
      </trkpt>
      <trkpt lat="47.4811" lon="3.83225">
        <ele>264</ele>
        <time>2021-11-05T11:23:02.000Z</time>
      </trkpt>
      <trkpt lat="47.48108" lon="3.83231">
        <ele>264</ele>
        <time>2021-11-05T11:23:06.000Z</time>
      </trkpt>
      <trkpt lat="47.48106" lon="3.83236">
        <ele>263</ele>
        <time>2021-11-05T11:23:09.000Z</time>
      </trkpt>
      <trkpt lat="47.48101" lon="3.83253">
        <ele>262</ele>
        <time>2021-11-05T11:23:20.000Z</time>
      </trkpt>
      <trkpt lat="47.48099" lon="3.8326">
        <ele>261</ele>
        <time>2021-11-05T11:23:26.000Z</time>
      </trkpt>
      <trkpt lat="47.48092" lon="3.83274">
        <ele>259</ele>
        <time>2021-11-05T11:23:36.000Z</time>
      </trkpt>
      <trkpt lat="47.48084" lon="3.83286">
        <ele>258</ele>
        <time>2021-11-05T11:23:47.000Z</time>
      </trkpt>
      <trkpt lat="47.48085" lon="3.83292">
        <ele>257</ele>
        <time>2021-11-05T11:23:58.000Z</time>
      </trkpt>
      <trkpt lat="47.48088" lon="3.83301">
        <ele>256</ele>
        <time>2021-11-05T11:24:06.000Z</time>
      </trkpt>
      <trkpt lat="47.4809" lon="3.83305">
        <ele>256</ele>
        <time>2021-11-05T11:24:09.000Z</time>
      </trkpt>
      <trkpt lat="47.48093" lon="3.83311">
        <ele>256</ele>
        <time>2021-11-05T11:24:16.000Z</time>
      </trkpt>
      <trkpt lat="47.48094" lon="3.83314">
        <ele>256</ele>
        <time>2021-11-05T11:24:19.000Z</time>
      </trkpt>
      <trkpt lat="47.48098" lon="3.83323">
        <ele>255</ele>
        <time>2021-11-05T11:24:26.000Z</time>
      </trkpt>
      <trkpt lat="47.48099" lon="3.83326">
        <ele>254</ele>
        <time>2021-11-05T11:24:28.000Z</time>
      </trkpt>
      <trkpt lat="47.48102" lon="3.83331">
        <ele>254</ele>
        <time>2021-11-05T11:24:32.000Z</time>
      </trkpt>
      <trkpt lat="47.48105" lon="3.83335">
        <ele>254</ele>
        <time>2021-11-05T11:24:36.000Z</time>
      </trkpt>
      <trkpt lat="47.48107" lon="3.83337">
        <ele>254</ele>
        <time>2021-11-05T11:24:39.000Z</time>
      </trkpt>
      <trkpt lat="47.48109" lon="3.8334">
        <ele>253</ele>
        <time>2021-11-05T11:24:42.000Z</time>
      </trkpt>
      <trkpt lat="47.48116" lon="3.83355">
        <ele>252</ele>
        <time>2021-11-05T11:24:54.000Z</time>
      </trkpt>
      <trkpt lat="47.48122" lon="3.83365">
        <ele>252</ele>
        <time>2021-11-05T11:25:02.000Z</time>
      </trkpt>
      <trkpt lat="47.48125" lon="3.83369">
        <ele>251</ele>
        <time>2021-11-05T11:25:06.000Z</time>
      </trkpt>
      <trkpt lat="47.48129" lon="3.83374">
        <ele>250</ele>
        <time>2021-11-05T11:25:12.000Z</time>
      </trkpt>
      <trkpt lat="47.48136" lon="3.83386">
        <ele>249</ele>
        <time>2021-11-05T11:25:23.000Z</time>
      </trkpt>
      <trkpt lat="47.48143" lon="3.83395">
        <ele>247</ele>
        <time>2021-11-05T11:25:34.000Z</time>
      </trkpt>
      <trkpt lat="47.48146" lon="3.83398">
        <ele>247</ele>
        <time>2021-11-05T11:25:38.000Z</time>
      </trkpt>
      <trkpt lat="47.48153" lon="3.83403">
        <ele>246</ele>
        <time>2021-11-05T11:25:45.000Z</time>
      </trkpt>
      <trkpt lat="47.48158" lon="3.83416">
        <ele>245</ele>
        <time>2021-11-05T11:25:55.000Z</time>
      </trkpt>
      <trkpt lat="47.48161" lon="3.8342">
        <ele>244</ele>
        <time>2021-11-05T11:25:59.000Z</time>
      </trkpt>
      <trkpt lat="47.48167" lon="3.83435">
        <ele>242</ele>
        <time>2021-11-05T11:26:10.000Z</time>
      </trkpt>
      <trkpt lat="47.48169" lon="3.83438">
        <ele>242</ele>
        <time>2021-11-05T11:26:13.000Z</time>
      </trkpt>
      <trkpt lat="47.48174" lon="3.83452">
        <ele>240</ele>
        <time>2021-11-05T11:26:25.000Z</time>
      </trkpt>
      <trkpt lat="47.48177" lon="3.83457">
        <ele>240</ele>
        <time>2021-11-05T11:26:33.000Z</time>
      </trkpt>
      <trkpt lat="47.48183" lon="3.83469">
        <ele>238</ele>
        <time>2021-11-05T11:26:42.000Z</time>
      </trkpt>
      <trkpt lat="47.48183" lon="3.8347">
        <ele>238</ele>
        <time>2021-11-05T11:26:43.000Z</time>
      </trkpt>
      <trkpt lat="47.48191" lon="3.83487">
        <ele>236</ele>
        <time>2021-11-05T11:26:55.000Z</time>
      </trkpt>
      <trkpt lat="47.48196" lon="3.83494">
        <ele>235</ele>
        <time>2021-11-05T11:27:06.000Z</time>
      </trkpt>
      <trkpt lat="47.48198" lon="3.835">
        <ele>235</ele>
        <time>2021-11-05T11:27:17.000Z</time>
      </trkpt>
      <trkpt lat="47.48204" lon="3.8351">
        <ele>234</ele>
        <time>2021-11-05T11:27:29.000Z</time>
      </trkpt>
      <trkpt lat="47.48211" lon="3.83521">
        <ele>233</ele>
        <time>2021-11-05T11:27:39.000Z</time>
      </trkpt>
      <trkpt lat="47.48217" lon="3.83533">
        <ele>232</ele>
        <time>2021-11-05T11:27:50.000Z</time>
      </trkpt>
      <trkpt lat="47.48222" lon="3.83546">
        <ele>230</ele>
        <time>2021-11-05T11:28:00.000Z</time>
      </trkpt>
      <trkpt lat="47.48223" lon="3.83557">
        <ele>230</ele>
        <time>2021-11-05T11:28:11.000Z</time>
      </trkpt>
      <trkpt lat="47.48225" lon="3.83564">
        <ele>229</ele>
        <time>2021-11-05T11:28:21.000Z</time>
      </trkpt>
      <trkpt lat="47.48224" lon="3.83573">
        <ele>228</ele>
        <time>2021-11-05T11:28:32.000Z</time>
      </trkpt>
      <trkpt lat="47.48226" lon="3.83591">
        <ele>228</ele>
        <time>2021-11-05T11:28:43.000Z</time>
      </trkpt>
      <trkpt lat="47.48226" lon="3.83599">
        <ele>227</ele>
        <time>2021-11-05T11:28:55.000Z</time>
      </trkpt>
      <trkpt lat="47.48228" lon="3.83612">
        <ele>227</ele>
        <time>2021-11-05T11:29:05.000Z</time>
      </trkpt>
      <trkpt lat="47.48228" lon="3.83613">
        <ele>227</ele>
        <time>2021-11-05T11:29:06.000Z</time>
      </trkpt>
      <trkpt lat="47.48228" lon="3.83616">
        <ele>227</ele>
        <time>2021-11-05T11:29:14.000Z</time>
      </trkpt>
      <trkpt lat="47.4823" lon="3.83628">
        <ele>226</ele>
        <time>2021-11-05T11:29:27.000Z</time>
      </trkpt>
      <trkpt lat="47.48231" lon="3.83639">
        <ele>226</ele>
        <time>2021-11-05T11:29:39.000Z</time>
      </trkpt>
      <trkpt lat="47.48233" lon="3.83646">
        <ele>226</ele>
        <time>2021-11-05T11:29:48.000Z</time>
      </trkpt>
      <trkpt lat="47.48238" lon="3.83671">
        <ele>225</ele>
        <time>2021-11-05T11:30:01.000Z</time>
      </trkpt>
      <trkpt lat="47.48239" lon="3.83672">
        <ele>225</ele>
        <time>2021-11-05T11:30:02.000Z</time>
      </trkpt>
      <trkpt lat="47.48239" lon="3.83675">
        <ele>224</ele>
        <time>2021-11-05T11:30:04.000Z</time>
      </trkpt>
      <trkpt lat="47.48248" lon="3.83695">
        <ele>224</ele>
        <time>2021-11-05T11:30:17.000Z</time>
      </trkpt>
      <trkpt lat="47.4825" lon="3.83699">
        <ele>224</ele>
        <time>2021-11-05T11:30:27.000Z</time>
      </trkpt>
      <trkpt lat="47.4825" lon="3.83703">
        <ele>224</ele>
        <time>2021-11-05T11:30:30.000Z</time>
      </trkpt>
      <trkpt lat="47.48253" lon="3.83716">
        <ele>224</ele>
        <time>2021-11-05T11:30:38.000Z</time>
      </trkpt>
      <trkpt lat="47.48255" lon="3.83723">
        <ele>223</ele>
        <time>2021-11-05T11:30:42.000Z</time>
      </trkpt>
      <trkpt lat="47.48257" lon="3.83734">
        <ele>223</ele>
        <time>2021-11-05T11:30:49.000Z</time>
      </trkpt>
      <trkpt lat="47.48257" lon="3.83742">
        <ele>222</ele>
        <time>2021-11-05T11:30:53.000Z</time>
      </trkpt>
      <trkpt lat="47.48258" lon="3.83761">
        <ele>221</ele>
        <time>2021-11-05T11:31:03.000Z</time>
      </trkpt>
      <trkpt lat="47.48262" lon="3.83776">
        <ele>220</ele>
        <time>2021-11-05T11:31:14.000Z</time>
      </trkpt>
      <trkpt lat="47.4827" lon="3.83791">
        <ele>219</ele>
        <time>2021-11-05T11:31:25.000Z</time>
      </trkpt>
      <trkpt lat="47.48272" lon="3.83794">
        <ele>218</ele>
        <time>2021-11-05T11:31:28.000Z</time>
      </trkpt>
      <trkpt lat="47.4828" lon="3.83816">
        <ele>218</ele>
        <time>2021-11-05T11:31:40.000Z</time>
      </trkpt>
      <trkpt lat="47.48287" lon="3.83827">
        <ele>217</ele>
        <time>2021-11-05T11:31:50.000Z</time>
      </trkpt>
      <trkpt lat="47.4829" lon="3.83836">
        <ele>216</ele>
        <time>2021-11-05T11:31:58.000Z</time>
      </trkpt>
      <trkpt lat="47.48292" lon="3.83839">
        <ele>216</ele>
        <time>2021-11-05T11:32:00.000Z</time>
      </trkpt>
      <trkpt lat="47.48299" lon="3.83855">
        <ele>215</ele>
        <time>2021-11-05T11:32:09.000Z</time>
      </trkpt>
      <trkpt lat="47.4831" lon="3.83866">
        <ele>214</ele>
        <time>2021-11-05T11:32:20.000Z</time>
      </trkpt>
      <trkpt lat="47.48314" lon="3.83873">
        <ele>214</ele>
        <time>2021-11-05T11:32:25.000Z</time>
      </trkpt>
      <trkpt lat="47.48319" lon="3.8389">
        <ele>213</ele>
        <time>2021-11-05T11:32:36.000Z</time>
      </trkpt>
      <trkpt lat="47.48322" lon="3.83899">
        <ele>212</ele>
        <time>2021-11-05T11:32:43.000Z</time>
      </trkpt>
      <trkpt lat="47.48324" lon="3.83919">
        <ele>211</ele>
        <time>2021-11-05T11:32:53.000Z</time>
      </trkpt>
      <trkpt lat="47.48328" lon="3.83935">
        <ele>209</ele>
        <time>2021-11-05T11:33:04.000Z</time>
      </trkpt>
      <trkpt lat="47.48329" lon="3.8394">
        <ele>209</ele>
        <time>2021-11-05T11:33:08.000Z</time>
      </trkpt>
      <trkpt lat="47.4833" lon="3.83945">
        <ele>209</ele>
        <time>2021-11-05T11:33:11.000Z</time>
      </trkpt>
      <trkpt lat="47.48335" lon="3.83959">
        <ele>208</ele>
        <time>2021-11-05T11:33:22.000Z</time>
      </trkpt>
      <trkpt lat="47.48343" lon="3.83975">
        <ele>207</ele>
        <time>2021-11-05T11:33:34.000Z</time>
      </trkpt>
      <trkpt lat="47.48345" lon="3.8398">
        <ele>207</ele>
        <time>2021-11-05T11:33:37.000Z</time>
      </trkpt>
      <trkpt lat="47.48352" lon="3.83998">
        <ele>206</ele>
        <time>2021-11-05T11:33:49.000Z</time>
      </trkpt>
      <trkpt lat="47.48352" lon="3.83999">
        <ele>206</ele>
        <time>2021-11-05T11:33:50.000Z</time>
      </trkpt>
      <trkpt lat="47.48357" lon="3.84019">
        <ele>205</ele>
        <time>2021-11-05T11:34:02.000Z</time>
      </trkpt>
      <trkpt lat="47.48359" lon="3.84038">
        <ele>205</ele>
        <time>2021-11-05T11:34:13.000Z</time>
      </trkpt>
      <trkpt lat="47.48359" lon="3.84046">
        <ele>205</ele>
        <time>2021-11-05T11:34:18.000Z</time>
      </trkpt>
      <trkpt lat="47.48358" lon="3.84066">
        <ele>204</ele>
        <time>2021-11-05T11:34:29.000Z</time>
      </trkpt>
      <trkpt lat="47.48357" lon="3.8408">
        <ele>204</ele>
        <time>2021-11-05T11:34:38.000Z</time>
      </trkpt>
      <trkpt lat="47.48357" lon="3.84084">
        <ele>204</ele>
        <time>2021-11-05T11:34:40.000Z</time>
      </trkpt>
      <trkpt lat="47.48357" lon="3.84104">
        <ele>203</ele>
        <time>2021-11-05T11:34:51.000Z</time>
      </trkpt>
      <trkpt lat="47.48358" lon="3.84115">
        <ele>203</ele>
        <time>2021-11-05T11:34:58.000Z</time>
      </trkpt>
      <trkpt lat="47.48358" lon="3.84122">
        <ele>203</ele>
        <time>2021-11-05T11:35:02.000Z</time>
      </trkpt>
      <trkpt lat="47.48357" lon="3.84144">
        <ele>203</ele>
        <time>2021-11-05T11:35:14.000Z</time>
      </trkpt>
      <trkpt lat="47.48355" lon="3.84164">
        <ele>202</ele>
        <time>2021-11-05T11:35:24.000Z</time>
      </trkpt>
      <trkpt lat="47.48355" lon="3.84173">
        <ele>202</ele>
        <time>2021-11-05T11:35:31.000Z</time>
      </trkpt>
      <trkpt lat="47.48355" lon="3.84187">
        <ele>202</ele>
        <time>2021-11-05T11:35:39.000Z</time>
      </trkpt>
      <trkpt lat="47.48354" lon="3.84192">
        <ele>202</ele>
        <time>2021-11-05T11:35:42.000Z</time>
      </trkpt>
      <trkpt lat="47.48355" lon="3.84199">
        <ele>202</ele>
        <time>2021-11-05T11:35:46.000Z</time>
      </trkpt>
      <trkpt lat="47.48355" lon="3.8422">
        <ele>200</ele>
        <time>2021-11-05T11:35:56.000Z</time>
      </trkpt>
      <trkpt lat="47.48356" lon="3.84226">
        <ele>200</ele>
        <time>2021-11-05T11:36:00.000Z</time>
      </trkpt>
      <trkpt lat="47.48357" lon="3.84234">
        <ele>200</ele>
        <time>2021-11-05T11:36:05.000Z</time>
      </trkpt>
      <trkpt lat="47.48359" lon="3.84249">
        <ele>199</ele>
        <time>2021-11-05T11:36:15.000Z</time>
      </trkpt>
      <trkpt lat="47.48361" lon="3.84256">
        <ele>199</ele>
        <time>2021-11-05T11:36:20.000Z</time>
      </trkpt>
      <trkpt lat="47.48361" lon="3.84261">
        <ele>199</ele>
        <time>2021-11-05T11:36:23.000Z</time>
      </trkpt>
      <trkpt lat="47.48364" lon="3.84279">
        <ele>199</ele>
        <time>2021-11-05T11:36:35.000Z</time>
      </trkpt>
      <trkpt lat="47.48367" lon="3.84287">
        <ele>198</ele>
        <time>2021-11-05T11:36:41.000Z</time>
      </trkpt>
      <trkpt lat="47.48368" lon="3.84295">
        <ele>198</ele>
        <time>2021-11-05T11:36:47.000Z</time>
      </trkpt>
      <trkpt lat="47.48367" lon="3.84305">
        <ele>198</ele>
        <time>2021-11-05T11:36:52.000Z</time>
      </trkpt>
      <trkpt lat="47.48369" lon="3.84309">
        <ele>197</ele>
        <time>2021-11-05T11:36:55.000Z</time>
      </trkpt>
      <trkpt lat="47.4837" lon="3.84312">
        <ele>197</ele>
        <time>2021-11-05T11:37:05.000Z</time>
      </trkpt>
      <trkpt lat="47.48371" lon="3.84316">
        <ele>197</ele>
        <time>2021-11-05T11:37:19.000Z</time>
      </trkpt>
      <trkpt lat="47.4837" lon="3.84316">
        <ele>197</ele>
        <time>2021-11-05T11:37:32.000Z</time>
      </trkpt>
      <trkpt lat="47.48371" lon="3.84316">
        <ele>197</ele>
        <time>2021-11-05T11:37:44.000Z</time>
      </trkpt>
      <trkpt lat="47.48383" lon="3.84327">
        <ele>196</ele>
        <time>2021-11-05T11:37:57.000Z</time>
      </trkpt>
      <trkpt lat="47.4839" lon="3.84332">
        <ele>196</ele>
        <time>2021-11-05T11:38:03.000Z</time>
      </trkpt>
      <trkpt lat="47.484" lon="3.84338">
        <ele>196</ele>
        <time>2021-11-05T11:38:13.000Z</time>
      </trkpt>
      <trkpt lat="47.48409" lon="3.84343">
        <ele>196</ele>
        <time>2021-11-05T11:38:21.000Z</time>
      </trkpt>
      <trkpt lat="47.48414" lon="3.84346">
        <ele>196</ele>
        <time>2021-11-05T11:38:26.000Z</time>
      </trkpt>
      <trkpt lat="47.48426" lon="3.84357">
        <ele>196</ele>
        <time>2021-11-05T11:38:37.000Z</time>
      </trkpt>
      <trkpt lat="47.48433" lon="3.84365">
        <ele>196</ele>
        <time>2021-11-05T11:38:44.000Z</time>
      </trkpt>
      <trkpt lat="47.48442" lon="3.84378">
        <ele>196</ele>
        <time>2021-11-05T11:38:55.000Z</time>
      </trkpt>
      <trkpt lat="47.48443" lon="3.8438">
        <ele>196</ele>
        <time>2021-11-05T11:38:56.000Z</time>
      </trkpt>
      <trkpt lat="47.4845" lon="3.84394">
        <ele>195</ele>
        <time>2021-11-05T11:39:05.000Z</time>
      </trkpt>
      <trkpt lat="47.48461" lon="3.84408">
        <ele>195</ele>
        <time>2021-11-05T11:39:16.000Z</time>
      </trkpt>
      <trkpt lat="47.48468" lon="3.8442">
        <ele>194</ele>
        <time>2021-11-05T11:39:25.000Z</time>
      </trkpt>
      <trkpt lat="47.48469" lon="3.84424">
        <ele>194</ele>
        <time>2021-11-05T11:39:27.000Z</time>
      </trkpt>
      <trkpt lat="47.48478" lon="3.84441">
        <ele>194</ele>
        <time>2021-11-05T11:39:39.000Z</time>
      </trkpt>
      <trkpt lat="47.48487" lon="3.84457">
        <ele>194</ele>
        <time>2021-11-05T11:39:50.000Z</time>
      </trkpt>
      <trkpt lat="47.48494" lon="3.84469">
        <ele>194</ele>
        <time>2021-11-05T11:40:00.000Z</time>
      </trkpt>
      <trkpt lat="47.48497" lon="3.84471">
        <ele>194</ele>
        <time>2021-11-05T11:40:03.000Z</time>
      </trkpt>
      <trkpt lat="47.485" lon="3.84476">
        <ele>194</ele>
        <time>2021-11-05T11:40:07.000Z</time>
      </trkpt>
      <trkpt lat="47.4851" lon="3.84492">
        <ele>194</ele>
        <time>2021-11-05T11:40:19.000Z</time>
      </trkpt>
      <trkpt lat="47.48511" lon="3.84493">
        <ele>194</ele>
        <time>2021-11-05T11:40:20.000Z</time>
      </trkpt>
      <trkpt lat="47.48518" lon="3.84509">
        <ele>193</ele>
        <time>2021-11-05T11:40:31.000Z</time>
      </trkpt>
      <trkpt lat="47.48523" lon="3.84517">
        <ele>193</ele>
        <time>2021-11-05T11:40:38.000Z</time>
      </trkpt>
      <trkpt lat="47.48531" lon="3.84529">
        <ele>193</ele>
        <time>2021-11-05T11:40:49.000Z</time>
      </trkpt>
      <trkpt lat="47.48536" lon="3.84534">
        <ele>193</ele>
        <time>2021-11-05T11:40:55.000Z</time>
      </trkpt>
      <trkpt lat="47.48546" lon="3.84533">
        <ele>193</ele>
        <time>2021-11-05T11:41:02.000Z</time>
      </trkpt>
      <trkpt lat="47.48549" lon="3.84532">
        <ele>193</ele>
        <time>2021-11-05T11:41:04.000Z</time>
      </trkpt>
      <trkpt lat="47.48553" lon="3.84527">
        <ele>193</ele>
        <time>2021-11-05T11:41:08.000Z</time>
      </trkpt>
      <trkpt lat="47.48565" lon="3.84519">
        <ele>193</ele>
        <time>2021-11-05T11:41:19.000Z</time>
      </trkpt>
      <trkpt lat="47.4857" lon="3.84513">
        <ele>193</ele>
        <time>2021-11-05T11:41:24.000Z</time>
      </trkpt>
      <trkpt lat="47.48583" lon="3.84504">
        <ele>193</ele>
        <time>2021-11-05T11:41:37.000Z</time>
      </trkpt>
      <trkpt lat="47.48583" lon="3.84504">
        <ele>192</ele>
        <time>2021-11-05T11:41:40.000Z</time>
      </trkpt>
      <trkpt lat="47.48586" lon="3.84501">
        <ele>192</ele>
        <time>2021-11-05T11:41:43.000Z</time>
      </trkpt>
      <trkpt lat="47.48597" lon="3.84493">
        <ele>192</ele>
        <time>2021-11-05T11:41:55.000Z</time>
      </trkpt>
      <trkpt lat="47.48598" lon="3.84492">
        <ele>192</ele>
        <time>2021-11-05T11:41:56.000Z</time>
      </trkpt>
      <trkpt lat="47.4861" lon="3.84484">
        <ele>191</ele>
        <time>2021-11-05T11:42:07.000Z</time>
      </trkpt>
      <trkpt lat="47.48624" lon="3.84474">
        <ele>190</ele>
        <time>2021-11-05T11:42:18.000Z</time>
      </trkpt>
      <trkpt lat="47.48628" lon="3.84472">
        <ele>190</ele>
        <time>2021-11-05T11:42:22.000Z</time>
      </trkpt>
      <trkpt lat="47.48635" lon="3.84466">
        <ele>190</ele>
        <time>2021-11-05T11:42:28.000Z</time>
      </trkpt>
      <trkpt lat="47.48648" lon="3.84458">
        <ele>188</ele>
        <time>2021-11-05T11:42:38.000Z</time>
      </trkpt>
      <trkpt lat="47.48654" lon="3.84454">
        <ele>188</ele>
        <time>2021-11-05T11:42:44.000Z</time>
      </trkpt>
      <trkpt lat="47.48657" lon="3.84452">
        <ele>188</ele>
        <time>2021-11-05T11:42:47.000Z</time>
      </trkpt>
      <trkpt lat="47.48659" lon="3.84449">
        <ele>187</ele>
        <time>2021-11-05T11:42:50.000Z</time>
      </trkpt>
      <trkpt lat="47.48664" lon="3.84446">
        <ele>187</ele>
        <time>2021-11-05T11:42:55.000Z</time>
      </trkpt>
      <trkpt lat="47.48672" lon="3.84439">
        <ele>186</ele>
        <time>2021-11-05T11:43:03.000Z</time>
      </trkpt>
      <trkpt lat="47.48679" lon="3.84432">
        <ele>186</ele>
        <time>2021-11-05T11:43:11.000Z</time>
      </trkpt>
      <trkpt lat="47.48686" lon="3.84423">
        <ele>185</ele>
        <time>2021-11-05T11:43:21.000Z</time>
      </trkpt>
      <trkpt lat="47.48695" lon="3.84415">
        <ele>183</ele>
        <time>2021-11-05T11:43:32.000Z</time>
      </trkpt>
      <trkpt lat="47.48701" lon="3.84413">
        <ele>183</ele>
        <time>2021-11-05T11:43:38.000Z</time>
      </trkpt>
      <trkpt lat="47.48708" lon="3.84413">
        <ele>183</ele>
        <time>2021-11-05T11:43:44.000Z</time>
      </trkpt>
      <trkpt lat="47.48713" lon="3.84413">
        <ele>183</ele>
        <time>2021-11-05T11:43:48.000Z</time>
      </trkpt>
      <trkpt lat="47.48726" lon="3.84413">
        <ele>183</ele>
        <time>2021-11-05T11:43:58.000Z</time>
      </trkpt>
      <trkpt lat="47.48738" lon="3.84413">
        <ele>183</ele>
        <time>2021-11-05T11:44:08.000Z</time>
      </trkpt>
      <trkpt lat="47.48743" lon="3.84413">
        <ele>183</ele>
        <time>2021-11-05T11:44:13.000Z</time>
      </trkpt>
      <trkpt lat="47.48751" lon="3.84416">
        <ele>183</ele>
        <time>2021-11-05T11:44:20.000Z</time>
      </trkpt>
      <trkpt lat="47.48755" lon="3.84419">
        <ele>183</ele>
        <time>2021-11-05T11:44:23.000Z</time>
      </trkpt>
      <trkpt lat="47.48762" lon="3.84424">
        <ele>183</ele>
        <time>2021-11-05T11:44:29.000Z</time>
      </trkpt>
      <trkpt lat="47.4877" lon="3.84432">
        <ele>183</ele>
        <time>2021-11-05T11:44:37.000Z</time>
      </trkpt>
      <trkpt lat="47.48776" lon="3.84436">
        <ele>183</ele>
        <time>2021-11-05T11:44:42.000Z</time>
      </trkpt>
      <trkpt lat="47.48781" lon="3.84438">
        <ele>183</ele>
        <time>2021-11-05T11:44:45.000Z</time>
      </trkpt>
      <trkpt lat="47.48788" lon="3.84443">
        <ele>183</ele>
        <time>2021-11-05T11:44:50.000Z</time>
      </trkpt>
      <trkpt lat="47.48796" lon="3.84451">
        <ele>183</ele>
        <time>2021-11-05T11:44:57.000Z</time>
      </trkpt>
      <trkpt lat="47.4881" lon="3.84465">
        <ele>183</ele>
        <time>2021-11-05T11:45:09.000Z</time>
      </trkpt>
      <trkpt lat="47.48812" lon="3.84467">
        <ele>183</ele>
        <time>2021-11-05T11:45:11.000Z</time>
      </trkpt>
      <trkpt lat="47.48816" lon="3.84474">
        <ele>183</ele>
        <time>2021-11-05T11:45:16.000Z</time>
      </trkpt>
      <trkpt lat="47.48829" lon="3.84488">
        <ele>183</ele>
        <time>2021-11-05T11:45:28.000Z</time>
      </trkpt>
      <trkpt lat="47.48839" lon="3.84505">
        <ele>183</ele>
        <time>2021-11-05T11:45:39.000Z</time>
      </trkpt>
      <trkpt lat="47.48841" lon="3.84508">
        <ele>183</ele>
        <time>2021-11-05T11:45:41.000Z</time>
      </trkpt>
      <trkpt lat="47.48846" lon="3.84515">
        <ele>183</ele>
        <time>2021-11-05T11:45:46.000Z</time>
      </trkpt>
      <trkpt lat="47.48849" lon="3.84523">
        <ele>183</ele>
        <time>2021-11-05T11:45:51.000Z</time>
      </trkpt>
      <trkpt lat="47.48851" lon="3.84525">
        <ele>183</ele>
        <time>2021-11-05T11:45:53.000Z</time>
      </trkpt>
      <trkpt lat="47.48859" lon="3.84539">
        <ele>183</ele>
        <time>2021-11-05T11:46:03.000Z</time>
      </trkpt>
      <trkpt lat="47.48865" lon="3.8455">
        <ele>183</ele>
        <time>2021-11-05T11:46:13.000Z</time>
      </trkpt>
      <trkpt lat="47.48866" lon="3.84551">
        <ele>183</ele>
        <time>2021-11-05T11:46:14.000Z</time>
      </trkpt>
      <trkpt lat="47.48876" lon="3.84563">
        <ele>183</ele>
        <time>2021-11-05T11:46:24.000Z</time>
      </trkpt>
      <trkpt lat="47.48881" lon="3.8457">
        <ele>183</ele>
        <time>2021-11-05T11:46:36.000Z</time>
      </trkpt>
      <trkpt lat="47.4888" lon="3.8457">
        <ele>183</ele>
        <time>2021-11-05T11:46:48.000Z</time>
      </trkpt>
      <trkpt lat="47.48881" lon="3.84575">
        <ele>182</ele>
        <time>2021-11-05T11:46:57.000Z</time>
      </trkpt>
      <trkpt lat="47.48891" lon="3.84591">
        <ele>182</ele>
        <time>2021-11-05T11:47:09.000Z</time>
      </trkpt>
      <trkpt lat="47.48903" lon="3.84604">
        <ele>182</ele>
        <time>2021-11-05T11:47:20.000Z</time>
      </trkpt>
      <trkpt lat="47.48909" lon="3.84612">
        <ele>182</ele>
        <time>2021-11-05T11:47:30.000Z</time>
      </trkpt>
      <trkpt lat="47.48912" lon="3.84616">
        <ele>181</ele>
        <time>2021-11-05T11:47:52.000Z</time>
      </trkpt>
      <trkpt lat="47.48926" lon="3.84632">
        <ele>181</ele>
        <time>2021-11-05T11:48:05.000Z</time>
      </trkpt>
      <trkpt lat="47.48935" lon="3.84646">
        <ele>181</ele>
        <time>2021-11-05T11:48:16.000Z</time>
      </trkpt>
      <trkpt lat="47.4894" lon="3.8465">
        <ele>180</ele>
        <time>2021-11-05T11:48:32.000Z</time>
      </trkpt>
      <trkpt lat="47.4895" lon="3.84661">
        <ele>180</ele>
        <time>2021-11-05T11:48:44.000Z</time>
      </trkpt>
      <trkpt lat="47.48951" lon="3.84663">
        <ele>180</ele>
        <time>2021-11-05T11:48:46.000Z</time>
      </trkpt>
      <trkpt lat="47.48954" lon="3.84668">
        <ele>180</ele>
        <time>2021-11-05T11:48:51.000Z</time>
      </trkpt>
      <trkpt lat="47.48958" lon="3.84673">
        <ele>180</ele>
        <time>2021-11-05T11:49:04.000Z</time>
      </trkpt>
      <trkpt lat="47.4896" lon="3.84676">
        <ele>179</ele>
        <time>2021-11-05T11:49:13.000Z</time>
      </trkpt>
      <trkpt lat="47.48969" lon="3.84688">
        <ele>179</ele>
        <time>2021-11-05T11:49:23.000Z</time>
      </trkpt>
      <trkpt lat="47.48978" lon="3.84701">
        <ele>179</ele>
        <time>2021-11-05T11:49:34.000Z</time>
      </trkpt>
      <trkpt lat="47.4899" lon="3.84713">
        <ele>178</ele>
        <time>2021-11-05T11:49:45.000Z</time>
      </trkpt>
      <trkpt lat="47.48993" lon="3.84717">
        <ele>178</ele>
        <time>2021-11-05T11:49:48.000Z</time>
      </trkpt>
      <trkpt lat="47.49001" lon="3.84728">
        <ele>178</ele>
        <time>2021-11-05T11:49:57.000Z</time>
      </trkpt>
      <trkpt lat="47.49007" lon="3.84736">
        <ele>177</ele>
        <time>2021-11-05T11:50:04.000Z</time>
      </trkpt>
      <trkpt lat="47.49022" lon="3.84752">
        <ele>177</ele>
        <time>2021-11-05T11:50:16.000Z</time>
      </trkpt>
      <trkpt lat="47.49025" lon="3.84758">
        <ele>177</ele>
        <time>2021-11-05T11:50:21.000Z</time>
      </trkpt>
      <trkpt lat="47.49033" lon="3.84769">
        <ele>177</ele>
        <time>2021-11-05T11:50:34.000Z</time>
      </trkpt>
      <trkpt lat="47.49033" lon="3.8477">
        <ele>177</ele>
        <time>2021-11-05T11:50:48.000Z</time>
      </trkpt>
      <trkpt lat="47.49039" lon="3.84776">
        <ele>177</ele>
        <time>2021-11-05T11:50:57.000Z</time>
      </trkpt>
      <trkpt lat="47.49043" lon="3.84781">
        <ele>177</ele>
        <time>2021-11-05T11:51:01.000Z</time>
      </trkpt>
      <trkpt lat="47.49054" lon="3.84791">
        <ele>176</ele>
        <time>2021-11-05T11:51:14.000Z</time>
      </trkpt>
      <trkpt lat="47.49059" lon="3.84797">
        <ele>175</ele>
        <time>2021-11-05T11:51:27.000Z</time>
      </trkpt>
      <trkpt lat="47.49066" lon="3.84804">
        <ele>175</ele>
        <time>2021-11-05T11:51:37.000Z</time>
      </trkpt>
      <trkpt lat="47.49068" lon="3.84809">
        <ele>174</ele>
        <time>2021-11-05T11:51:42.000Z</time>
      </trkpt>
      <trkpt lat="47.49077" lon="3.84821">
        <ele>173</ele>
        <time>2021-11-05T11:51:53.000Z</time>
      </trkpt>
      <trkpt lat="47.49078" lon="3.84824">
        <ele>173</ele>
        <time>2021-11-05T11:51:57.000Z</time>
      </trkpt>
      <trkpt lat="47.4909" lon="3.84836">
        <ele>172</ele>
        <time>2021-11-05T11:52:09.000Z</time>
      </trkpt>
      <trkpt lat="47.49093" lon="3.84841">
        <ele>172</ele>
        <time>2021-11-05T11:52:13.000Z</time>
      </trkpt>
      <trkpt lat="47.49101" lon="3.84852">
        <ele>171</ele>
        <time>2021-11-05T11:52:23.000Z</time>
      </trkpt>
      <trkpt lat="47.49109" lon="3.84862">
        <ele>170</ele>
        <time>2021-11-05T11:52:33.000Z</time>
      </trkpt>
      <trkpt lat="47.49111" lon="3.84864">
        <ele>170</ele>
        <time>2021-11-05T11:52:35.000Z</time>
      </trkpt>
      <trkpt lat="47.49113" lon="3.84865">
        <ele>170</ele>
        <time>2021-11-05T11:52:38.000Z</time>
      </trkpt>
      <trkpt lat="47.49124" lon="3.84871">
        <ele>169</ele>
        <time>2021-11-05T11:52:48.000Z</time>
      </trkpt>
      <trkpt lat="47.49137" lon="3.8488">
        <ele>168</ele>
        <time>2021-11-05T11:53:00.000Z</time>
      </trkpt>
      <trkpt lat="47.4915" lon="3.84892">
        <ele>167</ele>
        <time>2021-11-05T11:53:13.000Z</time>
      </trkpt>
      <trkpt lat="47.49151" lon="3.84893">
        <ele>167</ele>
        <time>2021-11-05T11:53:15.000Z</time>
      </trkpt>
      <trkpt lat="47.49157" lon="3.84895">
        <ele>167</ele>
        <time>2021-11-05T11:53:21.000Z</time>
      </trkpt>
      <trkpt lat="47.4916" lon="3.84898">
        <ele>167</ele>
        <time>2021-11-05T11:53:24.000Z</time>
      </trkpt>
      <trkpt lat="47.49165" lon="3.849">
        <ele>166</ele>
        <time>2021-11-05T11:53:28.000Z</time>
      </trkpt>
      <trkpt lat="47.4917" lon="3.84907">
        <ele>166</ele>
        <time>2021-11-05T11:53:34.000Z</time>
      </trkpt>
      <trkpt lat="47.49178" lon="3.84911">
        <ele>165</ele>
        <time>2021-11-05T11:53:40.000Z</time>
      </trkpt>
      <trkpt lat="47.49184" lon="3.84917">
        <ele>165</ele>
        <time>2021-11-05T11:53:49.000Z</time>
      </trkpt>
      <trkpt lat="47.49192" lon="3.84921">
        <ele>165</ele>
        <time>2021-11-05T11:53:58.000Z</time>
      </trkpt>
      <trkpt lat="47.49201" lon="3.84928">
        <ele>164</ele>
        <time>2021-11-05T11:54:08.000Z</time>
      </trkpt>
      <trkpt lat="47.49207" lon="3.84933">
        <ele>164</ele>
        <time>2021-11-05T11:54:14.000Z</time>
      </trkpt>
      <trkpt lat="47.4922" lon="3.84942">
        <ele>163</ele>
        <time>2021-11-05T11:54:27.000Z</time>
      </trkpt>
      <trkpt lat="47.49231" lon="3.8495">
        <ele>161</ele>
        <time>2021-11-05T11:54:38.000Z</time>
      </trkpt>
      <trkpt lat="47.49243" lon="3.84961">
        <ele>160</ele>
        <time>2021-11-05T11:54:50.000Z</time>
      </trkpt>
      <trkpt lat="47.49253" lon="3.8497">
        <ele>159</ele>
        <time>2021-11-05T11:55:01.000Z</time>
      </trkpt>
      <trkpt lat="47.49254" lon="3.84972">
        <ele>159</ele>
        <time>2021-11-05T11:55:03.000Z</time>
      </trkpt>
      <trkpt lat="47.49265" lon="3.84983">
        <ele>157</ele>
        <time>2021-11-05T11:55:15.000Z</time>
      </trkpt>
      <trkpt lat="47.49273" lon="3.84987">
        <ele>157</ele>
        <time>2021-11-05T11:55:22.000Z</time>
      </trkpt>
      <trkpt lat="47.49286" lon="3.84995">
        <ele>156</ele>
        <time>2021-11-05T11:55:33.000Z</time>
      </trkpt>
      <trkpt lat="47.49293" lon="3.84999">
        <ele>155</ele>
        <time>2021-11-05T11:55:39.000Z</time>
      </trkpt>
      <trkpt lat="47.49309" lon="3.85009">
        <ele>154</ele>
        <time>2021-11-05T11:55:51.000Z</time>
      </trkpt>
      <trkpt lat="47.49323" lon="3.85015">
        <ele>153</ele>
        <time>2021-11-05T11:56:02.000Z</time>
      </trkpt>
      <trkpt lat="47.49327" lon="3.85018">
        <ele>153</ele>
        <time>2021-11-05T11:56:05.000Z</time>
      </trkpt>
      <trkpt lat="47.49337" lon="3.85021">
        <ele>153</ele>
        <time>2021-11-05T11:56:13.000Z</time>
      </trkpt>
      <trkpt lat="47.4934" lon="3.85024">
        <ele>153</ele>
        <time>2021-11-05T11:56:16.000Z</time>
      </trkpt>
      <trkpt lat="47.4935" lon="3.85028">
        <ele>152</ele>
        <time>2021-11-05T11:56:23.000Z</time>
      </trkpt>
      <trkpt lat="47.49366" lon="3.85033">
        <ele>151</ele>
        <time>2021-11-05T11:56:36.000Z</time>
      </trkpt>
      <trkpt lat="47.49373" lon="3.85037">
        <ele>150</ele>
        <time>2021-11-05T11:56:43.000Z</time>
      </trkpt>
      <trkpt lat="47.49389" lon="3.8504">
        <ele>148</ele>
        <time>2021-11-05T11:56:57.000Z</time>
      </trkpt>
      <trkpt lat="47.49402" lon="3.85043">
        <ele>147</ele>
        <time>2021-11-05T11:57:07.000Z</time>
      </trkpt>
      <trkpt lat="47.49406" lon="3.85043">
        <ele>146</ele>
        <time>2021-11-05T11:57:11.000Z</time>
      </trkpt>
      <trkpt lat="47.4942" lon="3.85045">
        <ele>145</ele>
        <time>2021-11-05T11:57:23.000Z</time>
      </trkpt>
      <trkpt lat="47.49425" lon="3.85046">
        <ele>146</ele>
        <time>2021-11-05T11:57:33.000Z</time>
      </trkpt>
      <trkpt lat="47.49434" lon="3.85046">
        <ele>145</ele>
        <time>2021-11-05T11:57:43.000Z</time>
      </trkpt>
      <trkpt lat="47.49448" lon="3.85046">
        <ele>144</ele>
        <time>2021-11-05T11:57:53.000Z</time>
      </trkpt>
      <trkpt lat="47.49453" lon="3.85045">
        <ele>144</ele>
        <time>2021-11-05T11:57:58.000Z</time>
      </trkpt>
      <trkpt lat="47.49469" lon="3.85043">
        <ele>144</ele>
        <time>2021-11-05T11:58:10.000Z</time>
      </trkpt>
      <trkpt lat="47.49473" lon="3.85042">
        <ele>144</ele>
        <time>2021-11-05T11:58:13.000Z</time>
      </trkpt>
      <trkpt lat="47.49485" lon="3.8504">
        <ele>143</ele>
        <time>2021-11-05T11:58:21.000Z</time>
      </trkpt>
      <trkpt lat="47.49495" lon="3.85037">
        <ele>143</ele>
        <time>2021-11-05T11:58:29.000Z</time>
      </trkpt>
      <trkpt lat="47.49506" lon="3.85034">
        <ele>143</ele>
        <time>2021-11-05T11:58:38.000Z</time>
      </trkpt>
      <trkpt lat="47.49521" lon="3.85034">
        <ele>143</ele>
        <time>2021-11-05T11:58:48.000Z</time>
      </trkpt>
      <trkpt lat="47.49532" lon="3.8503">
        <ele>143</ele>
        <time>2021-11-05T11:58:57.000Z</time>
      </trkpt>
      <trkpt lat="47.49538" lon="3.8503">
        <ele>142</ele>
        <time>2021-11-05T11:59:01.000Z</time>
      </trkpt>
      <trkpt lat="47.49544" lon="3.85027">
        <ele>143</ele>
        <time>2021-11-05T11:59:07.000Z</time>
      </trkpt>
      <trkpt lat="47.49551" lon="3.85026">
        <ele>143</ele>
        <time>2021-11-05T11:59:12.000Z</time>
      </trkpt>
      <trkpt lat="47.49558" lon="3.85023">
        <ele>143</ele>
        <time>2021-11-05T11:59:17.000Z</time>
      </trkpt>
      <trkpt lat="47.49573" lon="3.85022">
        <ele>142</ele>
        <time>2021-11-05T11:59:27.000Z</time>
      </trkpt>
      <trkpt lat="47.49587" lon="3.85019">
        <ele>143</ele>
        <time>2021-11-05T11:59:37.000Z</time>
      </trkpt>
      <trkpt lat="47.49588" lon="3.85019">
        <ele>142</ele>
        <time>2021-11-05T11:59:39.000Z</time>
      </trkpt>
      <trkpt lat="47.49592" lon="3.85018">
        <ele>142</ele>
        <time>2021-11-05T11:59:42.000Z</time>
      </trkpt>
      <trkpt lat="47.49602" lon="3.85012">
        <ele>142</ele>
        <time>2021-11-05T11:59:51.000Z</time>
      </trkpt>
      <trkpt lat="47.49613" lon="3.85006">
        <ele>142</ele>
        <time>2021-11-05T12:00:02.000Z</time>
      </trkpt>
      <trkpt lat="47.49613" lon="3.85005">
        <ele>142</ele>
        <time>2021-11-05T12:00:19.000Z</time>
      </trkpt>
      <trkpt lat="47.49613" lon="3.85005">
        <ele>142</ele>
        <time>2021-11-05T12:00:36.000Z</time>
      </trkpt>
      <trkpt lat="47.49613" lon="3.85005">
        <ele>142</ele>
        <time>2021-11-05T12:00:53.000Z</time>
      </trkpt>
      <trkpt lat="47.49613" lon="3.85005">
        <ele>142</ele>
        <time>2021-11-05T12:01:14.000Z</time>
      </trkpt>
      <trkpt lat="47.49613" lon="3.85005">
        <ele>142</ele>
        <time>2021-11-05T12:01:33.000Z</time>
      </trkpt>
      <trkpt lat="47.49613" lon="3.85006">
        <ele>142</ele>
        <time>2021-11-05T12:01:50.000Z</time>
      </trkpt>
      <trkpt lat="47.49613" lon="3.85004">
        <ele>142</ele>
        <time>2021-11-05T12:02:13.000Z</time>
      </trkpt>
      <trkpt lat="47.49614" lon="3.85002">
        <ele>142</ele>
        <time>2021-11-05T12:02:15.000Z</time>
      </trkpt>
      <trkpt lat="47.49621" lon="3.84982">
        <ele>142</ele>
        <time>2021-11-05T12:02:28.000Z</time>
      </trkpt>
      <trkpt lat="47.49623" lon="3.84976">
        <ele>142</ele>
        <time>2021-11-05T12:02:31.000Z</time>
      </trkpt>
      <trkpt lat="47.4963" lon="3.84959">
        <ele>142</ele>
        <time>2021-11-05T12:02:42.000Z</time>
      </trkpt>
      <trkpt lat="47.49639" lon="3.84942">
        <ele>142</ele>
        <time>2021-11-05T12:02:53.000Z</time>
      </trkpt>
      <trkpt lat="47.49647" lon="3.84929">
        <ele>142</ele>
        <time>2021-11-05T12:03:03.000Z</time>
      </trkpt>
      <trkpt lat="47.49657" lon="3.84917">
        <ele>142</ele>
        <time>2021-11-05T12:03:14.000Z</time>
      </trkpt>
      <trkpt lat="47.49662" lon="3.84912">
        <ele>142</ele>
        <time>2021-11-05T12:03:24.000Z</time>
      </trkpt>
      <trkpt lat="47.49662" lon="3.84912">
        <ele>142</ele>
        <time>2021-11-05T12:03:28.000Z</time>
      </trkpt>
      <trkpt lat="47.49664" lon="3.8491">
        <ele>142</ele>
        <time>2021-11-05T12:03:30.000Z</time>
      </trkpt>
      <trkpt lat="47.49669" lon="3.84903">
        <ele>142</ele>
        <time>2021-11-05T12:03:35.000Z</time>
      </trkpt>
      <trkpt lat="47.49677" lon="3.84886">
        <ele>142</ele>
        <time>2021-11-05T12:03:47.000Z</time>
      </trkpt>
      <trkpt lat="47.49683" lon="3.84877">
        <ele>142</ele>
        <time>2021-11-05T12:03:53.000Z</time>
      </trkpt>
      <trkpt lat="47.49688" lon="3.84872">
        <ele>142</ele>
        <time>2021-11-05T12:03:57.000Z</time>
      </trkpt>
      <trkpt lat="47.49698" lon="3.84854">
        <ele>142</ele>
        <time>2021-11-05T12:04:09.000Z</time>
      </trkpt>
      <trkpt lat="47.49707" lon="3.84841">
        <ele>142</ele>
        <time>2021-11-05T12:04:20.000Z</time>
      </trkpt>
      <trkpt lat="47.49715" lon="3.84829">
        <ele>142</ele>
        <time>2021-11-05T12:04:32.000Z</time>
      </trkpt>
      <trkpt lat="47.49719" lon="3.84828">
        <ele>142</ele>
        <time>2021-11-05T12:04:42.000Z</time>
      </trkpt>
      <trkpt lat="47.4973" lon="3.84817">
        <ele>143</ele>
        <time>2021-11-05T12:04:55.000Z</time>
      </trkpt>
      <trkpt lat="47.49735" lon="3.84814">
        <ele>142</ele>
        <time>2021-11-05T12:04:59.000Z</time>
      </trkpt>
      <trkpt lat="47.49739" lon="3.84813">
        <ele>142</ele>
        <time>2021-11-05T12:05:02.000Z</time>
      </trkpt>
      <trkpt lat="47.49746" lon="3.84808">
        <ele>143</ele>
        <time>2021-11-05T12:05:09.000Z</time>
      </trkpt>
      <trkpt lat="47.49756" lon="3.848">
        <ele>143</ele>
        <time>2021-11-05T12:05:22.000Z</time>
      </trkpt>
      <trkpt lat="47.49758" lon="3.84799">
        <ele>143</ele>
        <time>2021-11-05T12:05:25.000Z</time>
      </trkpt>
      <trkpt lat="47.49769" lon="3.84798">
        <ele>143</ele>
        <time>2021-11-05T12:05:38.000Z</time>
      </trkpt>
      <trkpt lat="47.4977" lon="3.84798">
        <ele>143</ele>
        <time>2021-11-05T12:05:51.000Z</time>
      </trkpt>
      <trkpt lat="47.49771" lon="3.84799">
        <ele>143</ele>
        <time>2021-11-05T12:05:52.000Z</time>
      </trkpt>
      <trkpt lat="47.49774" lon="3.84798">
        <ele>142</ele>
        <time>2021-11-05T12:05:55.000Z</time>
      </trkpt>
      <trkpt lat="47.49787" lon="3.848">
        <ele>142</ele>
        <time>2021-11-05T12:06:07.000Z</time>
      </trkpt>
      <trkpt lat="47.49793" lon="3.84804">
        <ele>142</ele>
        <time>2021-11-05T12:06:20.000Z</time>
      </trkpt>
      <trkpt lat="47.49795" lon="3.84807">
        <ele>142</ele>
        <time>2021-11-05T12:06:25.000Z</time>
      </trkpt>
      <trkpt lat="47.498" lon="3.84811">
        <ele>142</ele>
        <time>2021-11-05T12:06:31.000Z</time>
      </trkpt>
      <trkpt lat="47.49803" lon="3.84815">
        <ele>141</ele>
        <time>2021-11-05T12:06:35.000Z</time>
      </trkpt>
      <trkpt lat="47.49808" lon="3.84817">
        <ele>142</ele>
        <time>2021-11-05T12:06:39.000Z</time>
      </trkpt>
      <trkpt lat="47.49814" lon="3.84819">
        <ele>141</ele>
        <time>2021-11-05T12:06:43.000Z</time>
      </trkpt>
      <trkpt lat="47.49829" lon="3.84819">
        <ele>141</ele>
        <time>2021-11-05T12:06:52.000Z</time>
      </trkpt>
      <trkpt lat="47.49838" lon="3.84822">
        <ele>141</ele>
        <time>2021-11-05T12:07:00.000Z</time>
      </trkpt>
      <trkpt lat="47.49847" lon="3.84828">
        <ele>141</ele>
        <time>2021-11-05T12:07:12.000Z</time>
      </trkpt>
      <trkpt lat="47.49848" lon="3.8483">
        <ele>141</ele>
        <time>2021-11-05T12:07:27.000Z</time>
      </trkpt>
      <trkpt lat="47.49849" lon="3.84831">
        <ele>142</ele>
        <time>2021-11-05T12:07:36.000Z</time>
      </trkpt>
      <trkpt lat="47.4985" lon="3.84832">
        <ele>142</ele>
        <time>2021-11-05T12:07:56.000Z</time>
      </trkpt>
      <trkpt lat="47.4985" lon="3.84832">
        <ele>142</ele>
        <time>2021-11-05T12:08:18.000Z</time>
      </trkpt>
      <trkpt lat="47.49849" lon="3.84833">
        <ele>142</ele>
        <time>2021-11-05T12:08:44.000Z</time>
      </trkpt>
      <trkpt lat="47.49849" lon="3.84833">
        <ele>142</ele>
        <time>2021-11-05T12:09:06.000Z</time>
        <extensions>
          <visugpx:TrkExtension xmlns:visugpx="https://www.visugpx.com/editgpx/">
            <visugpx:node>1</visugpx:node>
            </visugpx:TrkExtension>
        </extensions>
      </trkpt>
    </trkseg>
  </trk>
</gpx>